Please don't upload completely anonymously. Change the account setting instead.

PRE DATA

Datetime Category Release
2022-03-21 00:00:11 TV-X264 Ali.And.Ava.2021.720p.HDCAM-C1NEM4
2022-03-21 00:00:21 FLAC La_Lupita-Tormenta-ES-24B-48kHz-WEBFLAC-2022-RUIDOS
2022-03-21 00:00:45 MP3 VA-Thermodynamix_Vol_1-THE3001-2000-sour-int
2022-03-21 00:00:49 TV-HD-NORD Superstars.2017.S06E08.SWEDiSH.720p.WEB.h264-NORUSH
2022-03-21 00:01:05 MP3 Chuy_Lizarraga_Y_Su_Banda_Tierra_Sinaloense-El_Favorito-ES-WEB-2018-RUIDO
2022-03-21 00:01:44 TV-HD-NORD Superstars.2017.S06E08.SWEDiSH.1080p.WEB.h264-NORUSH
2022-03-21 00:01:51 MP3 Chuy_Lizarraga_Y_Su_Banda_Tierra_Sinaloense-La_Parranda_De_Los_Amigos_Vol._1-ES-WEB-2017-RUIDO
2022-03-21 00:02:06 TV-XVID Versus.S07E03.DANiSH.HDTV.x264-RCDiVX
2022-03-21 00:02:06 TV-X264 Formel.1.2022.Grosser.Preis.von.Bahrain.Qualifyingin.Manama.Sakhir.GERMAN.HDTVRiP.x264-F1
2022-03-21 00:02:11 TV-HD-NORD Camp.Kulinaris.S05E22.NORWEGiAN.720p.WEB.h264-LUSEKOFTA
2022-03-21 00:02:25 X264 Scream.2022.German.1080p.BluRay.x265-NoSpaceLeft
2022-03-21 00:02:45 MP3 Chuy_Lizarraga_Y_Su_Banda_Tierra_Sinaloense-La_Parranda_De_Los_Amigos_Vol._2-ES-WEB-2017-RUIDO
2022-03-21 00:02:48 TV-HD-NORD Masterchef.S08E30.DANISH.720p.WEB.H264-BALLIN
2022-03-21 00:02:49 TV-HD-NORD Masterchef.S08E30.DANISH.1080p.WEB.H264-BALLIN
2022-03-21 00:02:49 TV-HD-NORD Masterchef.S08E31.DANISH.720p.WEB.H264-BALLIN
2022-03-21 00:02:49 TV-HD-NORD Masterchef.S08E32.DANISH.1080p.WEB.H264-BALLIN
2022-03-21 00:02:56 TV-HD-NORD Masterchef.S08E29.DANISH.1080p.WEB.H264-BALLIN
2022-03-21 00:02:57 MP3 HR-XXL_Clubnight_-_Mixed_by_Sven_Vaeth_(1997-08-02)-iND
2022-03-21 00:02:58 TV-HD-NORD Camp.Kulinaris.S05E22.NORWEGiAN.1080p.WEB.h264-LUSEKOFTA
2022-03-21 00:03:00 TV-HD-NORD Masterchef.S08E32.DANISH.720p.WEB.H264-BALLIN
2022-03-21 00:03:31 TV-X264 Der.wilde.wilde.Westen.1974.German.BDRip.DL.720p.x265.AAC-2BA
2022-03-21 00:06:06 TV-HD-NORD Masterchef.S08E29.DANiSH.720p.WEB.h264-HYGGE
2022-03-21 00:07:53 TV-HD-NORD Camp.Kulinaris.S05E24.NORWEGiAN.720p.WEB.h264-LUSEKOFTA
2022-03-21 00:08:29 TV-SD-FR Neuf.Mecs.S01E01.FRENCH.WEB.H264-PROPJOE
2022-03-21 00:08:34 TV-HD-FR Neuf.Mecs.S01E01.FRENCH.720p.WEB.H264-PROPJOE
2022-03-21 00:09:15 TV-HD-NORD Backstrom.S02E05.SWEDiSH.720p.WEB.h264-NORUSH
2022-03-21 00:10:35 TV-HD-NORD Frusna.Vagar.S09E08.SWEDiSH.720p.WEB.h264-NORUSH
2022-03-21 00:11:54 TV-HD-NORD Backstrom.S02E05.SWEDiSH.1080p.WEB.h264-NORUSH
2022-03-21 00:12:23 TV-HD-NORD Camp.Kulinaris.S05E23.NORWEGiAN.1080p.WEB.h264-LUSEKOFTA
2022-03-21 00:12:50 TV-HD-NORD Camp.Kulinaris.S05E23.NORWEGiAN.720p.WEB.h264-LUSEKOFTA
2022-03-21 00:13:12 TV-HD-NORD Camp.Kulinaris.S05E24.NORWEGiAN.1080p.WEB.h264-LUSEKOFTA
2022-03-21 00:13:39 TV-HD-NORD Frusna.Vagar.S09E08.SWEDiSH.1080p.WEB.h264-NORUSH
2022-03-21 00:14:46 TV-SD-FR Neuf.Mecs.S01E02.FRENCH.WEB.H264-PROPJOE
2022-03-21 00:14:53 TV-HD-FR Neuf.Mecs.S01E02.FRENCH.720p.WEB.H264-PROPJOE
2022-03-21 00:16:30 TV-HD-NORD Masterchef.S08E31.DANiSH.1080p.WEB.h264-HYGGE
2022-03-21 00:18:16 MP3 Chuy_Lizarraga_Y_Su_Banda_Tierra_Sinaloense-Lo_Mas_Escuchado_De-ES-WEB-2020-RUIDO
2022-03-21 00:18:48 MP3 Chuy_Lizarraga_Y_Su_Banda_Tierra_Sinaloense-Mariacheando_Desde_El_Rancho-ES-WEB-2021-RUIDO
2022-03-21 00:18:59 XXX BurningAngel.20.11.01.Charlotte.Sartre.BackSeat.Driving.School.Part.3.XXX.2160p.MP4-Narcos
2022-03-21 00:19:23 MP3 Chuy_Lizarraga_Y_Su_Banda_Tierra_Sinaloense-Me_Hacian_Falta_Huevos-ES-WEB-2020-RUIDO
2022-03-21 00:20:00 MP3 Chuy_Lizarraga_Y_Su_Banda_Tierra_Sinaloense-Mudanzas_A_La_Luna-ES-WEB-2012-RUIDO
2022-03-21 00:20:31 TV-SD-FR Neuf.Mecs.S01E03.FRENCH.WEB.H264-PROPJOE
2022-03-21 00:20:41 TV-HD-FR Neuf.Mecs.S01E03.FRENCH.720p.WEB.H264-PROPJOE
2022-03-21 00:21:01 XXX BurningAngel.20.11.12.Joanna.Angel.BackSeat.Driving.School.Part.4.XXX.2160p.MP4-Narcos
2022-03-21 00:21:58 MP3 Chuy_Lizarraga_Y_Su_Banda_Tierra_Sinaloense-No_Es_Culpa_Tuya-ES-WEB-2015-RUIDO
2022-03-21 00:23:03 XXX BurningAngel.20.12.14.Jessie.Lee.Wild.Wedding.Jessie.Lees.First.Anal.XXX.2160p.MP4-Narcos
2022-03-21 00:25:05 XXX BurningAngel.20.12.28.Joanna.Angel.Cum.On.My.Christmas.Tattoo.XXX.2160p.MP4-Narcos
2022-03-21 00:26:38 TV-SD-FR Neuf.Mecs.S01E04.FRENCH.WEB.H264-PROPJOE
2022-03-21 00:26:46 TV-HD-FR Neuf.Mecs.S01E04.FRENCH.720p.WEB.H264-PROPJOE
2022-03-21 00:27:05 XXX BurningAngel.21.01.10.Samantha.Mack.Wild.Wedding.Banging.The.Bride.XXX.2160p.MP4-Narcos
2022-03-21 00:28:19 TV-X264 NHL.2022.03.20.New.York.Islanders.vs.Philadelphia.Flyers.720p.WEB.h264-SPORTSNET
2022-03-21 00:29:09 XXX BurningAngel.21.01.25.Lena.Moon.Cum.On.My.Tattoo.XXX.2160p.MP4-Narcos
2022-03-21 00:29:37 MP3 Chuy_Lizarraga_Y_Su_Banda_Tierra_Sinaloense-Postrado_A_Tus_Pies-ES-WEB-2008-RUIDO
2022-03-21 00:31:16 MP3 Ovi_Natanael_Cano_Y_Junior_H-Las_3_Torres-ES-WEB-2020-RUIDO
2022-03-21 00:31:58 MP3 Natanael_Cano-A_Mis_20-ES-WEB-2021-RUIDO
2022-03-21 00:32:35 TV-SD-FR Neuf.Mecs.S01E05.FRENCH.WEB.H264-PROPJOE
2022-03-21 00:32:41 TV-HD-FR Neuf.Mecs.S01E05.FRENCH.720p.WEB.H264-PROPJOE
2022-03-21 00:32:58 MP3 Natanael_Cano-Corazon_Tumbado-ES-EP-WEB-2020-RUIDO
2022-03-21 00:33:44 MP3 Natanael_Cano-Corridos_Tumbados-ES-WEB-2019-RUIDO
2022-03-21 00:34:14 MP3 Natanael_Cano-Corridos_Tumbados_Vol._2-ES-WEB-2020-RUIDO
2022-03-21 00:34:53 MP3 Natanael_Cano-Mi_Nuevo_Yo-ES-WEB-2019-RUIDO
2022-03-21 00:35:32 MP3 Natanael_Cano-Nata-ES-WEB-2021-RUIDO
2022-03-21 00:36:13 MP3 Natanael_Cano-Soy_El_Nata-ES-WEB-2020-RUIDO
2022-03-21 00:36:40 MP3 Natanael_Cano-Todo_Es_Diferente-ES-WEB-2019-RUIDO
2022-03-21 00:37:34 MP3 Natanael_Cano-Trap_Tumbado-ES-WEB-2020-RUIDO
2022-03-21 00:38:49 TV-SD-FR Neuf.Mecs.S01E06.FRENCH.WEB.H264-PROPJOE
2022-03-21 00:38:53 MP3 La_Lupita-Tormenta-ES-WEB-2022-RUIDO
2022-03-21 00:38:58 TV-HD-FR Neuf.Mecs.S01E06.FRENCH.720p.WEB.H264-PROPJOE
2022-03-21 00:43:52 TV-HD-DE Greys.Anatomy.S18E01.GERMAN.DL.1080P.WEB.H264-WAYNE
2022-03-21 00:44:01 TV-HD-DE Seattle.Firefighters.Die.jungen.Helden.S05E01.GERMAN.DL.1080P.WEB.H264-WAYNE
2022-03-21 00:44:06 TV-HD-DE Greys.Anatomy.Die.jungen.Aerzte.S18E01.German.DL.720p.WEB.h264-WvF
2022-03-21 00:44:12 TV-HD-DE Seattle.Firefighters.Die.jungen.Helden.S05E01.German.DL.720p.WEB.h264-WvF
2022-03-21 00:44:29 DVDR U.Turn.1997.German.DL.COMPLETE.PAL.DVD9-DVDGRP
2022-03-21 00:45:09 MP3 Christonia5_-_Frequencies_(GMNLP015)-WEB-2022-TR
2022-03-21 00:59:46 TV-SD-FR Neuf.Mecs.S01E07.FRENCH.WEB.H264-PROPJOE
2022-03-21 00:59:52 TV-HD-FR Neuf.Mecs.S01E07.FRENCH.720p.WEB.H264-PROPJOE
2022-03-21 01:00:14 TV-HD-FR Neuf.Mecs.S01E08.FRENCH.720p.WEB.H264-PROPJOE
2022-03-21 01:00:21 TV-SD-FR Neuf.Mecs.S01E08.FRENCH.WEB.H264-PROPJOE
2022-03-21 01:00:26 TV-SD-FR Neuf.Mecs.S01E09.FiNAL.FRENCH.WEB.H264-PROPJOE
2022-03-21 01:00:44 TV-HD-FR Neuf.Mecs.S01E09.FiNAL.FRENCH.720p.WEB.H264-PROPJOE
2022-03-21 01:05:09 TV-X264 The.Simpsons.S33E15.1080p.WEB.H264-CAKES
2022-03-21 01:05:10 TV-X264 The.Simpsons.S33E15.720p.WEB.H264-CAKES
2022-03-21 01:08:30 TV-HD The.Sign.of.the.Cross.1932.iNTERNAL.1080p.BluRay.x264-PEGASUS
2022-03-21 01:09:21 TV-X264 The.Sign.of.the.Cross.1932.iNTERNAL.720p.BluRay.x264-PEGASUS
2022-03-21 01:10:11 X264-SD The.Sign.of.the.Cross.1932.iNTERNAL.BDRip.x264-PEGASUS
2022-03-21 01:12:01 MP3 Dexter_Curtin_x_Marcus_Jahn--Own_Breeding_(Remixes)-(CS085)-WEB-2022-BABAS
2022-03-21 01:19:00 X264 mislabeled.1988
2022-03-21 01:20:20 XXX BrazzersExxtra.22.03.21.Kay.Lovely.My.Secret.Fantasy.XXX.1080p.MP4-WRB
2022-03-21 01:21:14 XXX BrazzersExxtra.22.03.21.Lilly.Bell.And.Jenna.Love.MILF.Makes.A.3Some.Power.Move.XXX.1080p.MP4-WRB
2022-03-21 01:24:50 XXX RKPrime.22.03.21.Alexis.Tae.And.Lily.Lou.A.Very.Special.Cake.XXX.1080p.MP4-WRB
2022-03-21 01:25:39 XXX RKPrime.22.03.21.Leila.Larocco.Grocery.Run.XXX.1080p.MP4-WRB
2022-03-21 01:26:40 XXX ShareMyBF.22.03.21.Jazmin.Luv.And.Hyley.Winters.Culinary.Cunnilingus.XXX.1080p.MP4-WRB
2022-03-21 01:26:41 MP3 Antwon_Faulkner--Scar_Bro-(HIJ032)-WEB-2022-BABAS
2022-03-21 01:27:07 MP3 Djalo--Unitone-(MCD150)-WEB-2022-BABAS
2022-03-21 01:27:32 MP3 VA-Harmonic_Series_Sampler-(001)-WEB-2022-BABAS
2022-03-21 01:27:58 MP3 VA-Multi_Culti_Equinox_II-(MC063)-WEB-2022-BABAS
2022-03-21 01:30:11 MP3 Cybernetic_Core--Kathesh-(SMPH520)-WEB-2022-BABAS
2022-03-21 01:30:35 MP3 Innershade_x_Activating_Evolution--Locks-(DCREP268)-SINGLE-WEB-2022-BABAS
2022-03-21 01:31:02 MP3 Ohmny--Out_Of_Frequency-(OMVRD0029)-WEB-2022-BABAS
2022-03-21 01:31:07 MP3 DLMS--Invisible_Bits-(TRUST40S1)-SINGLE-WEB-2022-BABAS
2022-03-21 01:32:59 TV-HD-FR The.Good.Fight.S05E05.FRENCH.720p.WEB.H264-FREAMON
2022-03-21 01:33:30 TV-SD-FR The.Good.Fight.S05E05.FRENCH.WEB.H264-FREAMON
2022-03-21 01:35:05 TV-X264 The.Great.North.S02E15.720p.WEB.H264-CAKES
2022-03-21 01:35:06 TV-X264 The.Great.North.S02E15.1080p.WEB.H264-CAKES
2022-03-21 01:35:30 TV-X264 Match.of.the.Day.2.2022.03.20.1080p.HDTV.H264-DARKFLiX
2022-03-21 01:36:16 TV-HD Ukraine.Voices.from.the.Frontline.2022.1080p.HDTV.H264-DARKFLiX
2022-03-21 01:40:57 TV-HD NBA.2022.03.20.New.Orleans.Pelicans.vs.Atlanta.Hawks.1080p.WEB.H264-SPLASH
2022-03-21 01:41:41 TV-X264 NBA.2022.03.20.New.Orleans.Pelicans.vs.Atlanta.Hawks.720p.WEB.H264-SPLASH
2022-03-21 01:42:36 TV-HD NBA.2022.03.20.Oklahoma.City.Thunder.vs.Orlando.Magic.1080p.WEB.H264-SPLASH
2022-03-21 01:43:21 TV-X264 NBA.2022.03.20.Oklahoma.City.Thunder.vs.Orlando.Magic.720p.WEB.H264-SPLASH
2022-03-21 01:49:40 MP3 Elias--Narrative-(EVD042)-WEB-2022-BABAS
2022-03-21 01:50:05 MP3 Marden_Hill--Blown_Away-(AJXD655)-REISSUE-WEB-2022-BABAS_INT
2022-03-21 01:50:34 MP3 Sentient--Insignia_EP-(FA057)-WEB-2022-BABAS
2022-03-21 01:51:20 MP3 Espinoza_Espinoza--Milten-(TE0073)-WEB-2022-BABAS
2022-03-21 01:51:45 MP3 Hakimonu--Walk_A_Wave-(HAK050)-WEB-2022-BABAS
2022-03-21 01:52:41 MP3 Max_Cooper--Spectrum-(MESH076)-WEB-2022-BABAS
2022-03-21 01:56:02 TV-HD NBA.2022.03.20.Phoenix.Suns.vs.Sacramento.Kings.1080p.WEB.H264-SPLASH
2022-03-21 01:56:49 TV-X264 NBA.2022.03.20.Phoenix.Suns.vs.Sacramento.Kings.720p.WEB.H264-SPLASH
2022-03-21 01:56:57 MP3 VA-O_V_N_I_Breakfast_Vol_4-(OVNIREC061)-WEB-2022-BABAS
2022-03-21 01:57:06 FLAC Richard_Bone-Alternate_Realities-CD-FLAC-2003-m00f
2022-03-21 02:01:04 TV-HD-NORD Husdrommar.S09E08.SWEDiSH.720p.WEB.h264-NORUSH
2022-03-21 02:01:36 TV-HD-NORD Husdrommar.S09E08.SWEDiSH.1080p.WEB.h264-NORUSH
2022-03-21 02:02:30 TV-X264 Winning.Time.The.Rise.of.the.Lakers.Dynasty.S01E03.720p.WEB.h264-KOGi
2022-03-21 02:02:35 MP3 Kis--Kis-(DRSS338)-WEB-2022-BABAS
2022-03-21 02:02:59 TV-X264 Bobs.Burgers.S12E15.720p.WEB.H264-CAKES
2022-03-21 02:03:01 MP3 VA-83-(AFILES083)-WEB-2021-BABAS
2022-03-21 02:03:03 TV-X264 Bobs.Burgers.S12E15.1080p.WEB.H264-CAKES
2022-03-21 02:03:10 TV-X264 Winning.Time.The.Rise.of.the.Lakers.Dynasty.S01E03.1080p.WEB.h264-KOGi
2022-03-21 02:05:19 MP3 VA-80-(AFILES080)-WEB-2021-BABAS
2022-03-21 02:05:45 MP3 VA-81-(AFILES081)-WEB-2021-BABAS
2022-03-21 02:06:10 MP3 VA-82-(AFILES082)-WEB-2021-BABAS
2022-03-21 02:09:04 XXX FakeHostel.22.03.21.Isabella.De.Laa.XXX.1080p.MP4-WRB
2022-03-21 02:09:55 XXX SweetheartVideo.22.03.21.Vanna.Bardot.And.Anna.Clair.Clouds.Squirting.Lesbians.XXX.1080p.MP4-WRB
2022-03-21 02:11:19 XXX FilthyNewbies.21.12.03.Selena.Love.XXX.1080p.MP4-WRB
2022-03-21 02:14:09 XXX FilthyNewbies.21.12.03.Selena.Love.XXX.2160p.MP4-WRB
2022-03-21 02:22:16 MP3 Humans_Out_Loud-Soir_dAutomne-(KR0064)-WEB-2022-PTC
2022-03-21 02:22:27 XXX FilthyTaboo.21.12.06.Hime.Marie.XXX.1080p.MP4-WRB
2022-03-21 02:23:26 MP3 Riigs_feat._Ange_Brooke-Feel_the_Sun-(KR0063)-WEB-2022-PTC
2022-03-21 02:25:38 XXX FilthyTaboo.21.12.06.Hime.Marie.XXX.2160p.MP4-WRB
2022-03-21 02:33:42 TV-HD-FR The.Good.Fight.S05E06.FRENCH.720p.WEB.H264-FREAMON
2022-03-21 02:34:04 TV-X264 Family.Guy.S20E15.720p.WEB.H264-CAKES
2022-03-21 02:34:05 TV-X264 Family.Guy.S20E15.1080p.WEB.H264-CAKES
2022-03-21 02:34:07 TV-SD-FR The.Good.Fight.S05E06.FRENCH.WEB.H264-FREAMON
2022-03-21 02:34:15 XXX FilthyBlowjobs.21.12.10.Sofi.Summers.XXX.1080p.MP4-WRB
2022-03-21 02:35:46 XXX FilthyBlowjobs.21.12.10.Sofi.Summers.XXX.2160p.MP4-WRB
2022-03-21 02:40:30 TV-X264 The.Equalizer.2021.S02E13.720p.HDTV.x264-SYNCOPY
2022-03-21 02:42:45 XXX AuntJudysXXX.22.03.20.Charlie.Rae.32yo.BBW.MILF.Debut.XXX.1080p.MP4-WRB
2022-03-21 02:43:57 XXX CzechBoobs.E30.Lady.B.CZECH.XXX.1080p.MP4-WRB
2022-03-21 02:45:43 MP3 ANOTR_-_EXPO_Series_001_Pt._1_(NOART042)-WEB-2022-TR_INT
2022-03-21 02:46:00 XXX TeamSkeetSelects.22.03.20.Redhead.Teens.Compilation.XXX.1080p.MP4-WRB
2022-03-21 02:47:23 MP3 Enmanuel_Dipuglia_(DO)_x_Domenico_Brena_-_Missing_Friends_(CPL291)-WEB-2022-TR
2022-03-21 02:47:55 MP3 Europa_-_Green_Planet_(TAR007)-WEB-2022-TR
2022-03-21 02:48:45 MP3 House_2_House_-_Good_Feeling___Everybody_Get_Up_(Mixes)_(SR1265D)-REISSUE-WEB-2021-TR
2022-03-21 02:48:52 XXX PornWorld.22.03.21.Venera.Maxima.And.Zlata.Shine.XXX.1080p.MP4-WRB
2022-03-21 02:49:55 MP3 Lonely_Dancer_-_Yo_Soy_Yo_(TA0014)-WEB-2022-TR
2022-03-21 02:50:33 MP3 Nova_Cheq_-_Get_Naked_(DB010)-WEB-2022-TR
2022-03-21 02:50:55 TV-HD No.Mans.Land.The.Rise.of.Reeker.2008.PROPER.1080p.BluRay.x264-OLDTiME
2022-03-21 02:51:21 MP3 OLMO_-_Smoking_Kills_EP_(TRM218)-WEB-2022-TR
2022-03-21 02:51:59 MP3 Papa_Nugs_-_Nug_Dubs_Vol_2_(NDB002)-WEB-2022-TR_INT
2022-03-21 02:52:34 MP3 Peter_Power-Liquid_Radio-SAT-03-21-2022-PTC
2022-03-21 02:52:39 MP3 Phaze_Dee_-_What_Goes_Up_(LISZT293)-WEB-2022-TR
2022-03-21 02:53:15 MP3 Salush_-_Beat_That_Shit_(DB006)-WEB-2022-TR
2022-03-21 02:53:46 MP3 TESST_-_Mirage_(MSDMNR017)-WEB-2022-TR
2022-03-21 02:54:31 MP3 Tim_Taylor_x_Rob_Williams_x_Chancellor_-_Steeltown_1998_Unreleased_(MVD017)-WEB-2022-TR
2022-03-21 02:55:02 MP3 Toke_-_Naa..._(PPR004)-WEB-2022-TR
2022-03-21 02:55:49 MP3 VA_-_Conceptual_United_Sampler_10_(CPLUNITED10)-WEB-2022-TR
2022-03-21 02:56:29 MP3 VA_-_ROBOT_BATTLES_VOL.1_(RB01)-WEB-2022-TR_INT
2022-03-21 02:57:20 MP3 VA_-_Sampler_Two_(PURISMW57)-WEB-2022-TR
2022-03-21 02:58:19 MP3 Xander_-_Restless_EP_(BRKN020)-WEB-2022-TR
2022-03-21 02:58:41 TV-HD-NORD Sortera.Upp.Ditt.Liv.S01E04.SWEDiSH.720p.WEB.h264-NORUSH
2022-03-21 02:58:58 TV-HD-NORD Sortera.Upp.Ditt.Liv.S01E04.SWEDiSH.1080p.WEB.h264-NORUSH
2022-03-21 03:00:09 MP3 Divide--Mutaforma-(EVD026)-WEB-2018-BABAS
2022-03-21 03:00:34 MP3 Giri--Canopos_Mutiny-(EVD028)-WEB-2019-BABAS
2022-03-21 03:01:00 MP3 Oisel--Proiezioni-(EVD004)-WEB-2015-BABAS
2022-03-21 03:01:27 MP3 VA-Attimi-(EVD031)-WEB-2020-BABAS
2022-03-21 03:01:38 TV-X264 Naked.and.Afraid.S14E06.1080p.WEB.h264-BAE
2022-03-21 03:01:39 TV-X264 Naked.and.Afraid.S14E06.720p.WEB.h264-BAE
2022-03-21 03:01:43 TV-X264 Naked.and.Afraid.S14E07.1080p.WEB.h264-BAE
2022-03-21 03:01:46 TV-X264 Naked.and.Afraid.S14E07.720p.WEB.h264-BAE
2022-03-21 03:03:27 XXX ALSScan.22.03.20.Cecelia.Taylor.Jacuzzi.XXX.2160p.MP4-WRB
2022-03-21 03:05:16 MP3 Guo_Ding-Digi_1-EP-WEB-CN-2022-TosK
2022-03-21 03:05:39 MP3 Guo_Ding-Digi_2-EP-WEB-CN-2022-TosK
2022-03-21 03:05:48 MP3 Fazi-Folding_Story-WEB-CN-2022-TosK
2022-03-21 03:05:49 TV-HD-NORD Tillsammans.Med.Stromstedts.S05E04.SWEDiSH.720p.WEB.h264-NORUSH
2022-03-21 03:06:11 TV-HD-NORD Tillsammans.Med.Stromstedts.S05E04.SWEDiSH.1080p.WEB.h264-NORUSH
2022-03-21 03:07:05 XXX SexArt.22.03.20.Bonnie.Dolce.Dont.Be.Alone.XXX.2160p.MP4-WRB
2022-03-21 03:10:29 XXX MonstersOfCock.22.03.20.Leana.Lovings.XXX.2160p.MP4-WRB
2022-03-21 03:10:42 TV-HD-NORD Robinson.S21E02.SWEDiSH.720p.WEB.h264-NORUSH
2022-03-21 03:10:51 TV-HD-NORD Robinson.S21E02.SWEDiSH.1080p.WEB.h264-NORUSH
2022-03-21 03:12:14 XXX BrazzersExxtra.22.03.21.Lilly.Bell.And.Jenna.Love.MILF.Makes.A.3Some.Power.Move.XXX.2160p.MP4-WRB
2022-03-21 03:13:07 MP3 Albert_Chiovenda--The_Dwelling_Place_LP-(AFK059)-WEB-2021-BABAS
2022-03-21 03:13:33 MP3 Alex_Dolby--Calypso_EP-(AFKLTD003)-WEB-2016-BABAS
2022-03-21 03:13:59 MP3 Alex_Dolby--Raw_Plant_EP-(AFK020)-WEB-2016-BABAS
2022-03-21 03:14:25 MP3 Giordano--Walls_and_Weapons_EP-(AFK025)-WEB-2016-BABAS
2022-03-21 03:14:50 MP3 Luciano_Esse--Night_Shift_EP-(AFK021)-WEB-2016-BABAS
2022-03-21 03:15:16 MP3 Michel_Lauriola--Skimming_The_Fog_EP-(AFK026)-WEB-2016-BABAS
2022-03-21 03:15:43 MP3 Relham--Differenz_EP-(AFK022)-WEB-2016-BABAS
2022-03-21 03:18:32 XXX PornWorld.22.03.21.Venera.Maxima.And.Zlata.Shine.XXX.2160p.MP4-WRB
2022-03-21 03:20:10 FLAC John_Murry-Califorlornia_EP-(5419633452)-CDEP-FLAC-2014-BIGLOVE
2022-03-21 03:20:40 MP3 John_Murry-Califorlornia_EP-CDEP-2014-BIGLOVE
2022-03-21 03:21:12 MP3 Peter_Bjorn_and_John-Writers_Block-(JP_Retail)-2006-BIGLOVE
2022-03-21 03:21:44 FLAC Peter_Bjorn_and_John-Writers_Block-(V2CP_312)-JP_Retail-CD-FLAC-2006-BIGLOVE
2022-03-21 03:21:49 TV-HD-NORD Alle.Elsker.David.S02E10.NORWEGiAN.1080p.WEB.h264-BAKFYLLA
2022-03-21 03:22:16 FLAC Sleepwave-Broken_Compass-(E873542)-CD-FLAC-2014-BIGLOVE
2022-03-21 03:22:52 TV-HD-NORD Alle.Elsker.David.S02E10.NORWEGiAN.720p.WEB.h264-BAKFYLLA
2022-03-21 03:22:52 FLAC Tim_Minchin-So_Fucking_Rock-(LAFFCD0210)-CD-FLAC-2013-BIGLOVE
2022-03-21 03:23:19 MP3 Dok_and_Martin-Kavale-(CODEX150B)-WEB-2022-PTC
2022-03-21 03:23:21 MP3 Tim_Minchin-So_Fucking_Rock-2013-BIGLOVE
2022-03-21 03:24:35 MP3 Sascha_Braemer_and_Graham_Baxter-Together_Were_More-(RDKN42)-WEB-2022-PTC
2022-03-21 03:26:49 TV-HD-NORD Rydderevolusjonen.S01E05.NORWEGiAN.1080p.WEB.h264-BAKFYLLA
2022-03-21 03:29:04 TV-HD-NORD Rydderevolusjonen.S01E05.NORWEGiAN.720p.WEB.h264-BAKFYLLA
2022-03-21 03:31:36 MP3 Chriz.jae--Echoes-(SCSSN006)-WEB-2021-BABAS
2022-03-21 03:32:02 MP3 VA-Hive_Label_Best_Of_2021-(HVLBL163)-WEB-2022-BABAS
2022-03-21 03:32:27 MP3 VA-Various_Artaphine_001-(VARTA001)-WEB-2021-BABAS
2022-03-21 03:40:18 TV-X264 NCIS.Los.Angeles.S13E12.720p.HDTV.x264-SYNCOPY
2022-03-21 03:41:02 TV-HD NBA.2022.03.20.Boston.Celtics.vs.Denver.Nuggets.1080p.WEB.H264-SPLASH
2022-03-21 03:41:38 TV-X264 NBA.2022.03.20.Boston.Celtics.vs.Denver.Nuggets.720p.WEB.H264-SPLASH
2022-03-21 03:42:39 MP3 VA-12_Times_Around_The_Sun-(LTT061A)-WEB-2019-BABAS
2022-03-21 03:42:46 TV-HD NBA.2022.03.20.Utah.Jazz.vs.New.York.Knicks.1080p.WEB.H264-SPLASH
2022-03-21 03:43:04 MP3 VA-Black_Cube_Of_Saturn-(LTT071A)-WEB-2020-BABAS
2022-03-21 03:43:34 TV-X264 NBA.2022.03.20.Utah.Jazz.vs.New.York.Knicks.720p.WEB.H264-SPLASH
2022-03-21 03:53:36 MP3 Andre_Ramos--Control_Panel_EP-(AM022)-WEB-2016-BABAS
2022-03-21 03:54:02 MP3 Dorian_Gray--Receptors__Nemeter-(AM014)-WEB-2015-BABAS
2022-03-21 03:54:10 XXX WankItNow.22.03.21.Alicia.Katz.Taboo.Crush.XXX.1080p.MP4-WRB
2022-03-21 03:54:27 MP3 M23--Absolute_EP-(AM025)-WEB-2016-BABAS
2022-03-21 03:54:53 MP3 Monolyth--Dark_Dimension_EP-(AM023)-WEB-2016-BABAS
2022-03-21 03:55:16 XXX WankItNow.22.03.21.Grace.Let.Me.Tempt.You.XXX.1080p.MP4-WRB
2022-03-21 03:55:19 MP3 Olexii--Encode_EP-(AM020)-WEB-2016-BABAS
2022-03-21 03:55:45 MP3 Roberto_Espinosa--Modular_Cities_EP-(AM015)-WEB-2015-BABAS
2022-03-21 03:56:11 MP3 Tommy_Rodes--Odissey_Transmission_EP-(AM013)-WEB-2015-BABAS
2022-03-21 03:56:37 MP3 Unpleasant_Behaviour--Abducted_By_Things-(AM028)-WEB-2020-BABAS
2022-03-21 03:56:44 XXX FilthyMassage.21.12.13.Kira.Perez.XXX.1080p.MP4-WRB
2022-03-21 03:57:03 MP3 Unpleasant_Behaviour--Fear_Of_Change-(AM029)-WEB-2020-BABAS
2022-03-21 03:57:29 MP3 Unpleasant_Behaviour--Pride_and_Prejudice-(AM027)-WEB-2020-BABAS
2022-03-21 03:57:56 MP3 VA-Abstract_Mechanisms_Best_Of_2015-(AMBC001)-WEB-2015-BABAS
2022-03-21 03:58:22 MP3 Wave_Form--The_Breath_EP-(IAR148)-WEB-2015-BABAS
2022-03-21 03:58:47 MP3 Wave_Form--The_Breath_II-(AM024)-WEB-2016-BABAS
2022-03-21 03:59:14 MP3 Zorba--Tetrahedron_EP-(AM017)-WEB-2015-BABAS
2022-03-21 03:59:17 XXX FilthyMassage.21.12.13.Kira.Perez.XXX.2160p.MP4-WRB
2022-03-21 04:01:40 TV-X264 Game.Theory.with.Bomani.Jones.S01E02.720p.WEB.h264-KOGi
2022-03-21 04:01:53 TV-X264 Game.Theory.with.Bomani.Jones.S01E02.1080p.WEB.h264-KOGi
2022-03-21 04:02:05 MP3 Private_Agenda--Dressed_In_Velvet-(LO209)-SINGLE-WEB-2022-BABAS
2022-03-21 04:02:30 MP3 Transmission_Collective--Lex-(478342)-WEB-2012-BABAS
2022-03-21 04:02:58 MP3 VA-The_12inch_Album-(FR001DIGI)-WEB-2015-BABAS
2022-03-21 04:03:23 MP3 Voice_Of_Space--Voice_Of_Space-(LO171DA)-WEB-2021-BABAS
2022-03-21 04:05:54 XXX KimberLeeLive.22.03.18.Vibrating.Pulsating.Orgasm.XXX.1080p.MP4-WRB
2022-03-21 04:07:05 XXX Lustery.E583.Silky.And.Velvet.One.More.For.The.Road.XXX.1080p.MP4-WRB
2022-03-21 04:07:07 MP3 Bernard_Badie--Do_My_Thing_Part_II-(RECYC003)-WEB-2018-BABAS
2022-03-21 04:07:32 MP3 Bernard_Fevre_x_Yellow_Peril_Disco_Group--Max_Stroke__Bamboo_Disco-(FRESH007)-WEB-2012-BABAS
2022-03-21 04:07:57 MP3 Harry_Light--Shout_At_The_Basement-(CYC0057)-WEB-2017-BABAS
2022-03-21 04:08:21 TV-X264 RomeMajor.21.10.29.Mellanie.Monroe.XXX.720p.MP4-WRB
2022-03-21 04:08:24 MP3 J_T_Donaldson--Back_To_You-(CYC0086)-REMASTERED-WEB-2019-BABAS
2022-03-21 04:08:34 TV-HD Boruto.Naruto.Next.Generations.E134.MULTi.1080p.BluRay.x264-AMB3R
2022-03-21 04:08:43 TV-HD Boruto.Naruto.Next.Generations.E135.MULTi.1080p.BluRay.x264-AMB3R
2022-03-21 04:08:48 TV-HD Boruto.Naruto.Next.Generations.E136.MULTi.1080p.BluRay.x264-AMB3R
2022-03-21 04:08:59 TV-HD Boruto.Naruto.Next.Generations.E137.MULTi.1080p.BluRay.x264-AMB3R
2022-03-21 04:09:04 TV-X264 The.Food.That.Built.America.S03E04.A.Dish.Best.Served.Soft.720p.HDTV.x264-CRiMSON
2022-03-21 04:09:08 TV-HD Boruto.Naruto.Next.Generations.E138.MULTi.1080p.BluRay.x264-AMB3R
2022-03-21 04:09:16 TV-HD Boruto.Naruto.Next.Generations.E139.MULTi.1080p.BluRay.x264-AMB3R
2022-03-21 04:09:23 TV-HD Boruto.Naruto.Next.Generations.E140.MULTi.1080p.BluRay.x264-AMB3R
2022-03-21 04:09:31 XXX SexMex.22.03.21.Connie.Garcia.She.Couldnt.Resist.The.Temptation.XXX.1080p.MP4-WRB
2022-03-21 04:10:20 TV-SD-FR Boruto.Naruto.Next.Generations.VOL18.MULTi.BDRip.x264-AMB3R
2022-03-21 04:10:55 TV-HD NBA.2022.03.20.Toronto.Raptors.vs.Philadelphia.76ers.1080p.WEB.H264-SPLASH
2022-03-21 04:11:35 TV-X264 NBA.2022.03.20.Toronto.Raptors.vs.Philadelphia.76ers.720p.WEB.H264-SPLASH
2022-03-21 04:12:27 XXX SexMex.22.03.21.Connie.Garcia.She.Couldnt.Resist.The.Temptation.XXX.2160p.MP4-WRB
2022-03-21 04:12:31 TV-SD The.Food.That.Built.America.S03E04.A.Dish.Best.Served.Soft.HDTV.x264-CRiMSON
2022-03-21 04:15:00 MP3 Aiby_x_The_Noise--Servo-Mechanism-(YOF013)-WEB-2012-BABAS
2022-03-21 04:15:26 MP3 Danny_Dust--Autumn_Mood-(YOF009)-WEB-2012-BABAS
2022-03-21 04:15:50 XXX RomeMajor.21.11.05.Ava.Valentina.XXX.1080p.MP4-WRB
2022-03-21 04:15:52 MP3 Elastic_Live_Orquesta--Feel_Like_Acid-(YOF008)-WEB-2011-BABAS
2022-03-21 04:16:19 MP3 Kindbud--The_Soho_Sessions_Remixes-(DPL097)-WEB-2019-BABAS
2022-03-21 04:16:45 MP3 Lady_Blacktronika--Bring_It_Forth_EP-(YOF014)-WEB-2013-BABAS
2022-03-21 04:17:12 MP3 Last_Mood--Point_State_EP-(YOF011)-WEB-2012-BABAS
2022-03-21 04:17:36 MP3 Last_Mood--Who_Said_I_Would-(YOF016)-WEB-2013-BABAS
2022-03-21 04:18:02 MP3 Romeo_C_x_Alhan_G--A_Cold_Touch-(YOF015)-WEB-2013-BABAS
2022-03-21 04:18:29 MP3 The_Groovers--U_Dont_Have_2_Dance-(YOF007)-WEB-2011-BABAS
2022-03-21 04:18:56 MP3 Tres_Manos--3am_September_EP-(YOF003)-WEB-2011-BABAS
2022-03-21 04:24:12 MP3 Atsou--Awubone_EP-(TNT045)-WEB-2020-BABAS
2022-03-21 04:24:37 MP3 Davide_Squillace_x_Basti_Grub--Stone_By_Stone_EP-(TNT041)-WEB-2019-BABAS
2022-03-21 04:25:03 MP3 VA-SSFW_2A-(TNTSSFW02A)-WEB-2018-BABAS
2022-03-21 04:25:30 MP3 VA-SSFW_2B-(TNTSSFW02B)-WEB-2018-BABAS
2022-03-21 04:25:55 MP3 VA-SSFW_3B-(TNTSSFW03B)-WEB-2019-BABAS
2022-03-21 04:26:22 MP3 VA-SSFW_4A-(TNTSSFW04A)-WEB-2019-BABAS
2022-03-21 04:26:48 MP3 VA-SSFW_4B-(TNTSSFW04B)-WEB-2019-BABAS
2022-03-21 04:28:39 TV-X264 Boruto.Naruto.Next.Generations.E134.FRENCH.720p.BluRay.x264-AMB3R
2022-03-21 04:28:41 XXX TheFlourishAmateurs.20.08.01.Devyn.Lux.And.Vixen.Keen.Magic.Wand.XXX.1080p.MP4-WRB
2022-03-21 04:28:58 TV-X264 Boruto.Naruto.Next.Generations.E135.FRENCH.720p.BluRay.x264-AMB3R
2022-03-21 04:29:15 TV-X264 Boruto.Naruto.Next.Generations.E136.FRENCH.720p.BluRay.x264-AMB3R
2022-03-21 04:29:34 TV-X264 Boruto.Naruto.Next.Generations.E137.FRENCH.720p.BluRay.x264-AMB3R
2022-03-21 04:29:41 XXX TheFlourishFetish.20.07.13.Cassie.Storm.And.Lexie.Rose.XXX.1080p.MP4-WRB
2022-03-21 04:29:53 TV-X264 Boruto.Naruto.Next.Generations.E138.FRENCH.720p.BluRay.x264-AMB3R
2022-03-21 04:30:15 TV-X264 Boruto.Naruto.Next.Generations.E139.FRENCH.720p.BluRay.x264-AMB3R
2022-03-21 04:30:35 TV-X264 Boruto.Naruto.Next.Generations.E140.FRENCH.720p.BluRay.x264-AMB3R
2022-03-21 04:30:55 XXX TheFlourishPOV.20.07.13.Devyn.Lux.Blowjob.Compilation.XXX.1080p.MP4-WRB
2022-03-21 04:32:15 XXX TheFlourishPOV.20.07.13.Devyn.Lux.Blowjob.Compilation.XXX.2160p.MP4-WRB
2022-03-21 04:33:43 MP3 VA-2_Years_Of_Radikon_(Mixed_by_Jonas_Saalbach_and_Guzy)-WEB-2021-BABAS_INT
2022-03-21 04:34:31 XXX TheFlourishXXX.20.07.16.Cassie.Storm.XXX.1080p.MP4-WRB
2022-03-21 04:35:54 TV-X264 TheFlourishXXX.20.08.01.Mya.Brave.XXX.720p.MP4-WRB
2022-03-21 04:36:38 TV-X264 When.Calls.the.Heart.S09E03.Turn.the.Page.720p.HDTV.x264-CRiMSON
2022-03-21 04:36:49 MP3 Soul_Revivers--On_The_Grove-(AJXCD604)-WEB-2022-BABAS
2022-03-21 04:38:08 XXX BrandNewAmateurs.22.03.19.Kay.Lee.Does.Anal.XXX.1080p.MP4-WRB
2022-03-21 04:38:27 TV-SD When.Calls.the.Heart.S09E03.Turn.the.Page.HDTV.x264-CRiMSON
2022-03-21 04:40:55 TV-HD NBA.2022.03.20.San.Antonio.Spurs.vs.Golden.State.Warriors.1080p.WEB.H264-SPLASH
2022-03-21 04:41:33 TV-X264 NBA.2022.03.20.San.Antonio.Spurs.vs.Golden.State.Warriors.720p.WEB.H264-SPLASH
2022-03-21 04:43:30 XXX BananaFever.Lily.Larimar.Part.1.XXX.1080p.MP4-WRB
2022-03-21 04:44:31 XXX BananaFever.Lily.Larimar.Part.2.XXX.1080p.MP4-WRB
2022-03-21 04:45:52 XXX BananaFever.Macy.Meadows.XXX.1080p.MP4-WRB
2022-03-21 04:47:00 XXX BananaFever.Marilyn.Johnson.Part.2.XXX.1080p.MP4-WRB
2022-03-21 04:48:41 TV-X264 60.Minutes.S54E27.1080p.WEB.h264-BAE
2022-03-21 04:48:43 TV-X264 60.Minutes.S54E27.720p.WEB.h264-BAE
2022-03-21 04:50:46 MP3 M.O.U.F._The_Fortune_Hunter_And_The_U.S.-Trouble-WEB-2004-RAGEMP3
2022-03-21 04:57:01 TV-X264 Space.Invaders.AU.S02E04.1080p.HDTV.H264-CBFM
2022-03-21 04:57:04 TV-X264 Space.Invaders.AU.S02E04.720p.HDTV.x264-CBFM
2022-03-21 04:58:10 XXX ATKGalleria.22.03.21.Sydney.Paige.XXX.1080p.MP4-WRB
2022-03-21 04:59:07 MP3 Po_Baby-Act_Like_You_Know_Me-WEB-2004-RAGEMP3
2022-03-21 04:59:29 XXX ATKGirlfriends.22.03.21.Compilation.XXX.1080p.MP4-WRB
2022-03-21 05:01:12 XXX ATKGirlfriends.22.03.21.Compilation.XXX.2160p.MP4-WRB
2022-03-21 05:01:16 TV-X264 The.Real.Murders.of.Atlanta.S01E08.Holy.Hell.720p.HDTV.x264-CRiMSON
2022-03-21 05:01:19 TV-X264 The.Equalizer.2021.S02E13.720p.WEB.h264-GOSSIP
2022-03-21 05:01:34 TV-X264 The.Equalizer.2021.S02E13.1080p.WEB.h264-GOSSIP
2022-03-21 05:02:16 TV-X264 Riverdale.US.S06E06.720p.WEB.h264-GOSSIP
2022-03-21 05:02:19 TV-X264 Riverdale.US.S06E06.1080p.WEB.h264-GOSSIP
2022-03-21 05:04:41 XXX AssParade.22.03.21.Kiki.Klout.XXX.1080p.MP4-WRB
2022-03-21 05:05:07 TV-X264 NCIS.Los.Angeles.S13E12.720p.WEB.h264-GOSSIP
2022-03-21 05:05:40 TV-X264 NCIS.Los.Angeles.S13E12.1080p.WEB.h264-GOSSIP
2022-03-21 05:05:40 TV-HD Preserving.Democracy.Pursuing.a.More.Perfect.Union.2022.1080p.WEB.h264-BAE
2022-03-21 05:05:43 TV-X264 Preserving.Democracy.Pursuing.a.More.Perfect.Union.2022.720p.WEB.h264-BAE
2022-03-21 05:06:55 MP3 VA-Revolution_Entertainment-Before_The_Revolt-WEB-2006-RAGEMP3
2022-03-21 05:07:03 XXX EvilAngel.22.03.21.Scarlet.Chase.XXX.1080p.MP4-WRB
2022-03-21 05:07:27 MP3 Kerbside_Collection--Round_The_Corner-(LEGO249)-WEB-2022-BABAS
2022-03-21 05:07:52 MP3 Kerbside_Collection--Smoke_Signals_(Remixed)-WEB-2019-BABAS
2022-03-21 05:08:18 MP3 Soul_Supreme--Award_Tour_(We_Gettin_Down)-(SSR45005S)-SINGLE-WEB-2022-BABAS
2022-03-21 05:08:44 MP3 The_Allergies--Going_To_The_Party_(Extended_Mix)-(JAL366V)-SINGLE-WEB-2022-BABAS
2022-03-21 05:09:10 MP3 The_Bukkyleo_Quintet--Rejoice_In_Righteousness-(JAZID7)-REISSUE-WEB-2020-BABAS
2022-03-21 05:09:37 MP3 Yada_Yada--Piktures-REISSUE-WEB-2020-BABAS
2022-03-21 05:10:43 TV-X264 When.Calls.the.Heart.S09E03.Turn.the.Page.1080p.HDTV.x264-CRiMSON
2022-03-21 05:19:16 MP3 Astral_Flex--I_Can_See_My_House_From_Here-(SAPE019)-WEB-2022-BABAS
2022-03-21 05:21:29 XXX NotMyGrandpa.22.03.21.Vanessa.Moon.The.Experienced.Dick.XXX.1080p.MP4-WRB
2022-03-21 05:22:08 TV-X264 Serie.A.2022.03.20.Roma.vs.Lazio.720p.WEB.h264-ULTRAS
2022-03-21 05:22:47 XXX EvilAngel.22.03.21.Kendra.Cole.XXX.1080p.MP4-WRB
2022-03-21 05:23:51 TV-X264 Serie.A.2022.03.20.Bologna.vs.Atalanta.720p.WEB.h264-ULTRAS
2022-03-21 05:27:08 MP3 Outlaw_And_Silky_Redd-South_Is_On_A_Rise-WEB-2007-RAGEMP3
2022-03-21 05:27:39 MP3 Petter_Eldh__Koma_Saxo_x_Sofia_Jernberg--Koma_West-(WJLP41)-WEB-2022-BABAS
2022-03-21 05:29:48 MP3 VA-CO2-The_B.I.G._Boss_Stars-WEB-2007-RAGEMP3
2022-03-21 05:32:41 MP3 Knowledge_Nick-The_Enlightenment-WEB-2009-RAGEMP3
2022-03-21 05:33:29 MP3 Kiki_Kudo--Profile_Eterna-(TTT098)-WEB-2022-BABAS
2022-03-21 05:33:41 XXX JapanHDV.22.03.21.Yui.Kyouno.XXX.1080p.MP4-WRB
2022-03-21 05:33:54 MP3 Tom_Booze--Some_Funk-(BOMBMUSIC082)-WEB-2022-BABAS
2022-03-21 05:35:20 MP3 Ashkan_Dian-The_Road_To_Wonderland-(UV106)-WEB-2022-PTC
2022-03-21 05:35:22 MP3 Knowledge_Nick-The_Transcribed_Sentiment-WEB-2011-RAGEMP3
2022-03-21 05:36:05 MP3 VA-Five_To_Be_Right_07_Miami_2022-(GDV2203)-WEB-2022-PTC
2022-03-21 05:37:08 MP3 Batu--Atavism-(TIMEDANCELP003DS1)-SINGLE-WEB-2022-BABAS
2022-03-21 05:37:18 MP3 VA-New_Horizons-(WAYU067)-WEB-2022-PTC
2022-03-21 05:38:15 MP3 VA-NextGen_Vol_1-(FLOW041)-WEB-2022-PTC
2022-03-21 05:38:21 MP3 Q.M.G._(Quest_Music_Group)-Paid_Dues_Made_Moves-WEB-2012-RAGEMP3
2022-03-21 05:39:46 MP3 Knowledge_Nick-Memphis_The_Soul_Of_Hip_Hop-WEB-2012-RAGEMP3
2022-03-21 05:41:18 XXX PlayboyPlus.22.03.21.Chevelle.Made.You.Look.XXX.1080p.MP4-WRB
2022-03-21 05:41:59 MP3 Knowledge_Nick-The_New_Memphis-WEB-2014-RAGEMP3
2022-03-21 05:42:38 XXX MomShoot.22.03.21.Nina.Kayy.Better.In.Blue.XXX.1080p.MP4-WRB
2022-03-21 05:45:29 MP3 L.I.L_Pooh-Gotta_Git_It-WEB-2015-RAGEMP3
2022-03-21 05:46:50 MP3 Faze_Action--To_The_Sunset_and_Beyond-(FAR028)-WEB-2015-BABAS
2022-03-21 05:50:28 MBLURAY Gazpacho.Soyuz.at.the.Boerderij.2019.1080p.MBLURAY.x264-MBLURAYFANS
2022-03-21 05:51:30 MBLURAY Gazpacho.Soyuz.at.the.Boerderij.2019.720p.MBLURAY.x264-MBLURAYFANS
2022-03-21 05:55:17 MP3 Ron_Trent--Dance_Floor_Boogie_Delites-WEB-2011-BABAS
2022-03-21 06:03:57 XXX 4KCFNM.22.03.21.Bianca.M.She.Loves.Soapy.Wet.Dick.XXX.1080p.MP4-WRB
2022-03-21 06:05:18 XXX ClubSweethearts.22.03.21.Luna.Umberlay.Some.Things.In.Life.Are.Free.XXX.1080p.MP4-WRB
2022-03-21 06:07:59 XXX DaughterSwap.22.03.21.Lola.Mai.And.Ryder.Rey.Learning.To.Get.Along.XXX.1080p.MP4-WRB
2022-03-21 06:09:31 MP3 Mr._B.E.I.-Life_As_A_Hustler-WEB-2016-RAGEMP3
2022-03-21 06:10:03 MP3 Nic_Fanciulli_-_Gray_Area__Ocho_Takeover-SAT-03-19-2022-TALiON
2022-03-21 06:10:13 XXX GroupBanged.22.03.21.Funny.Hill.Professional.Gangbang.Babe.XXX.1080p.MP4-WRB
2022-03-21 06:10:18 TV-X264 Kandi.and.The.Gang.S01E03.Rowdy.Employees.and.Uptight.Managers.720p.HDTV.x264-CRiMSON
2022-03-21 06:11:04 MP3 Ben_Malone_-_Armada_Next-SAT-03-20-2022-TALiON
2022-03-21 06:12:04 MP3 David_Guetta_-_David_Guetta_Playlist-SAT-03-20-2022-TALiON
2022-03-21 06:12:32 MP3 DJ_Irish_-_Dreamers_Of_Dreams-(CAT587707)-SINGLE-WEB-2022-ZzZz
2022-03-21 06:13:03 MP3 DJ_Drew_-_Pitch_Control_Powered_by_Beatport__Incl_Manolo_Guestmix-SAT-03-20-2022-TALiON
2022-03-21 06:13:49 TV-SD Kandi.and.The.Gang.S01E03.Rowdy.Employees.and.Uptight.Managers.HDTV.x264-CRiMSON
2022-03-21 06:14:03 MP3 Franky_Wah_-_Gray_Area__Ocho_Takeover-SAT-03-19-2022-TALiON
2022-03-21 06:15:03 MP3 Martin_Ikin_-_Gray_Area__Ocho_Takeover-SAT-03-19-2022-TALiON
2022-03-21 06:16:05 MP3 Vice_-_Vice_Airwaves-SAT-03-19-2022-TALiON
2022-03-21 06:16:07 MP3 Dough_Loafs-Just_Me_And_My_Dough-WEB-2016-RAGEMP3
2022-03-21 06:17:03 MP3 Diplo_-_Records_on_Records-SAT-03-19-2022-TALiON
2022-03-21 06:18:04 MP3 The_Partysquad_-_Palooza_(FunX)-CABLE-03-19-2022-TALiON
2022-03-21 06:18:18 TV-X264 Robot.Chicken.S11E17.May.Cause.an.Excess.of.Ham.720p.HDTV.x264-CRiMSON
2022-03-21 06:18:59 MP3 Adam_Pits--International_Wafter__The_Remixes-(HAZER02)-WEB-2021-BABAS
2022-03-21 06:19:04 MP3 Superior_-_Crossover_Radio_(FunX)-CABLE-03-19-2022-TALiON
2022-03-21 06:20:05 MP3 Roger_Sanchez_-_Gray_Area__Ocho_Takeover-SAT-03-19-2022-TALiON
2022-03-21 06:20:43 MP3 Rico_Gwop-5_Laws-WEB-2018-RAGEMP3
2022-03-21 06:20:58 MP3 Div_Eadie_Gary_Mcf_feat_Robbie_Hutton_-_Leave_Me-(JH335)-SINGLE-WEB-2022-ZzZz
2022-03-21 06:21:04 MP3 D-Train_-_Fissa_(FunX)-CABLE-03-19-2022-TALiON
2022-03-21 06:21:09 TV-SD Robot.Chicken.S11E17.May.Cause.an.Excess.of.Ham.HDTV.x264-CRiMSON
2022-03-21 06:22:21 MP3 Adiel--Anatomia_Del_Cavallo-(DNZT001)-WEB-2016-BABAS
2022-03-21 06:22:47 MP3 Adiel--Ritmo-(DNZT003)-WEB-2018-BABAS
2022-03-21 06:23:12 MP3 Adiel--Tokyo-(DNZT004)-WEB-2018-BABAS
2022-03-21 06:23:37 MP3 DJ_Red--The_Prophets_Are_Smiling-(DNZT006)-WEB-2019-BABAS
2022-03-21 06:23:59 TV-HD Formule.1.2022.03.18.Velka.cena.Bahrajnu.Trenink.1.SLOVAK.1080p.HDTV.x265-iCZi
2022-03-21 06:25:43 MP3 Rico_Gwop-Patiently_Waiting-WEB-2018-RAGEMP3
2022-03-21 06:29:43 XXX Bang.YNGR.22.03.25.Kimberly.Snow.Gets.A.Ride.Home.From.School.And.A.Bonus.Ride.On.Dick.XXX.2160p.MP4-IEVA
2022-03-21 06:30:36 XXX Bang.YNGR.22.03.25.Kimberly.Snow.Gets.A.Ride.Home.From.School.And.A.Bonus.Ride.On.Dick.XXX.1080p.MP4-IEVA
2022-03-21 06:31:01 MP3 Progetto_Tribale--Volume_1-(UMM025)-WEB-1992-BABAS
2022-03-21 06:31:15 MP3 Rico_Gwop-GwopHouse_Compilation-WEB-2018-RAGEMP3
2022-03-21 06:31:33 XXX Bang.Trickery.22.03.22.Vienna.Black.Gets.Fooled.By.A.Tricky.Blind.Man.Who.Wants.Sex.XXX.2160p.MP4-IEVA
2022-03-21 06:32:22 XXX Bang.Trickery.22.03.22.Vienna.Black.Gets.Fooled.By.A.Tricky.Blind.Man.Who.Wants.Sex.XXX.1080p.MP4-IEVA
2022-03-21 06:33:57 MP3 B0R0_-_Dance_Hall_Track-(NAXFILE015)-WEB-2022-ZzZz
2022-03-21 06:37:13 X264-SD The.Wedding.Day.2021.BDRip.x264-FLAME
2022-03-21 06:37:45 MP3 Papa_Duck-Duck_Dynasty-WEB-2019-RAGEMP3
2022-03-21 06:37:49 TV-X264 The.Wedding.Day.2021.720p.BluRay.x264-FLAME
2022-03-21 06:38:15 TV-HD The.Wedding.Day.2021.1080p.BluRay.x264-FLAME
2022-03-21 06:40:42 MP3 Papa_Duck-Real_Recognize_Real_Vol._2-WEB-2019-RAGEMP3
2022-03-21 06:44:01 MP3 Mikey_P_and_Gee_-_Painkiller-(STI292)-SINGLE-WEB-2022-ZzZz
2022-03-21 06:45:22 MP3 Papa_Duck-The_Streets_Is_Mine-WEB-2019-RAGEMP3
2022-03-21 06:47:22 MP3 Dough_Loafs-God_Bless_The_Loaf-WEB-2019-RAGEMP3
2022-03-21 06:48:07 TV-X264 Uncensored.2018.S05E03.Master.P.1080p.HDTV.x264-CRiMSON
2022-03-21 06:49:09 MP3 Jamaican_Tony-Jamaican_Tony_Vol._1-WEB-2020-RAGEMP3
2022-03-21 06:51:32 TV-X264 Uncensored.2018.S05E03.Master.P.720p.HDTV.x264-CRiMSON
2022-03-21 06:51:42 MP3 OzzMoses-King_Ozzy_Kong-WEB-2021-RAGEMP3
2022-03-21 06:51:44 XXX AllOver30.22.03.21.Tiny.Tina.Mature.Pleasure.XXX.1080p.MP4-WRB
2022-03-21 06:52:39 TV-SD Uncensored.2018.S05E03.Master.P.HDTV.x264-CRiMSON
2022-03-21 06:52:50 XXX AllOver30.22.03.21.Carmen.Valentina.Mature.Pleasure.XXX.1080p.MP4-WRB
2022-03-21 06:53:31 MP3 TZ_Goof-Fighting_Demons-WEB-2021-RAGEMP3
2022-03-21 06:53:47 MP3 Adoreum_and_Amber_Maxwell_-_Only_Love_(Yevgeniy_Hyperman_Remix)-(UVR008)-SINGLE-WEB-2022-ZzZz
2022-03-21 06:55:04 XXX InTheCrack.E1748.Alexis.Crystal.St.Martin.XXX.1080p.MP4-NBQ
2022-03-21 06:55:09 MP3 OonWokk-Led_By_The_Devil-EP-WEB-2021-RAGEMP3
2022-03-21 06:56:21 MP3 OonWokk-Ghost-EP-WEB-2021-RAGEMP3
2022-03-21 06:57:36 XXX Inserted.22.03.17.Aria.Valencia.XXX.1080p.MP4-NBQ
2022-03-21 06:57:47 MP3 OonWokk-Deep_Into_The_Woods-EP-WEB-2021-RAGEMP3
2022-03-21 06:58:54 MP3 OonWokk-Mortuary_Rape-EP-WEB-2021-RAGEMP3
2022-03-21 07:00:07 XXX Blacked.22.03.19.Yukki.Amey.And.Tasha.Lustn.XXX.1080p.MP4-NBQ
2022-03-21 07:01:30 MP3 OonWokk-LUV-WEB-2022-RAGEMP3
2022-03-21 07:02:10 TV-X264 S.W.A.T.2017.S05E14.720p.WEB.h264-KOGi
2022-03-21 07:02:38 XXX LegalPorno.20.07.01.Sabien.Demonia.SZ2461.XXX.1080p.MP4-NBQ
2022-03-21 07:02:45 TV-X264 S.W.A.T.2017.S05E14.1080p.WEB.h264-KOGi
2022-03-21 07:02:56 MP3 DJ_Blackflame_The_Game_MC_Eiht_And_NHale-Streets-SINGLE-WEB-2022-RAGEMP3
2022-03-21 07:05:10 XXX Nympho.22.03.20.Kira.Perez.XXX.1080p.MP4-NBQ
2022-03-21 07:06:37 MP3 OzzMoses_And_OonWokk-Gangstas_And_Ghouls-WEB-2022-RAGEMP3
2022-03-21 07:07:43 XXX InTheCrack.E1748.Alexis.Crystal.St.Martin.XXX.2160p.MP4-NBQ
2022-03-21 07:10:16 XXX Inserted.22.03.17.Aria.Valencia.XXX.2160p.MP4-NBQ
2022-03-21 07:11:59 EBOOK Il.Corriere.Della.Sera.03.21.2022.iTALiAN.RETAiL.eBook-DiVER
2022-03-21 07:12:45 XXX CastingCouch-HD.22.03.18.Blaire.XXX.2160p.MP4-NBQ
2022-03-21 07:15:16 XXX LegalPorno.20.07.01.Sabien.Demonia.SZ2461.XXX.2160p.MP4-NBQ
2022-03-21 07:36:00 TV-X264 Great.Escapes.mit.Morgan.Freeman.S01E05.Flucht.aus.dem.Gefangenenlager.GERMAN.DL.DOKU.1080p.HDTV.x264-SKYSD
2022-03-21 07:36:59 TV-X264 Great.Escapes.mit.Morgan.Freeman.S01E05.Flucht.aus.dem.Gefangenenlager.GERMAN.DL.DOKU.720p.HDTV.x264-SKYSD
2022-03-21 07:37:58 TV-SD-DE Great.Escapes.mit.Morgan.Freeman.S01E05.Flucht.aus.dem.Gefangenenlager.GERMAN.DOKU.HDTVRip.x264-SKYSD
2022-03-21 07:38:59 TV-X264 Great.Escapes.mit.Morgan.Freeman.S01E06.Flucht.aus.Belfast.GERMAN.DL.DOKU.1080p.HDTV.x264-SKYSD
2022-03-21 07:40:02 TV-X264 Great.Escapes.mit.Morgan.Freeman.S01E06.Flucht.aus.Belfast.GERMAN.DL.DOKU.720p.HDTV.x264-SKYSD
2022-03-21 07:41:01 TV-SD-DE Great.Escapes.mit.Morgan.Freeman.S01E06.Flucht.aus.Belfast.GERMAN.DOKU.HDTVRip.x264-SKYSD
2022-03-21 07:42:20 EBOOK La.Gazzetta.Dello.Sport.03.21.2022.iTALiAN.RETAiL.eBook-DiVER
2022-03-21 07:55:21 TV-X264 SAS.Australia.S04E08.1080p.HDTV.H264-CBFM
2022-03-21 07:57:53 TV-HD-NORD Langt.Ude.I.Lapland.S01E03.Nu.Har.Jeg.Naaet.Toppen.Mor.DANiSH.720p.WEB.h264-HiVE
2022-03-21 07:57:57 TV-HD-NORD Efter.Lukketid.S01E04.Kottbullari.Som.Parterapi.DANiSH.720p.WEB.h264-HiVE
2022-03-21 07:58:01 TV-HD-NORD Vilde.Stemmer.S01E06.We.Are.The.World.DANiSH.720p.WEB.h264-HiVE
2022-03-21 08:00:35 TV-HD-NORD Linni.Soeker.Droemmeprinsen.S01E10.NORWEGiAN.720p.WEB.h264-LUSEKOFTA
2022-03-21 08:01:09 TV-HD-NORD Linni.Soeker.Droemmeprinsen.S01E10.NORWEGiAN.1080p.WEB.h264-LUSEKOFTA
2022-03-21 08:02:22 TV-SD-FR Outlander.S06E03.FRENCH.WEB.x264-STRINGERBELL
2022-03-21 08:02:53 TV-HD-FR Outlander.S06E03.FRENCH.720p.WEB.x264-STRINGERBELL
2022-03-21 08:04:13 XXX NeighborAffair.22.03.21.Jasmine.Jae.XXX.1080p.MP4-WRB
2022-03-21 08:04:52 TV-SD-FR Riverdale.US.S06E06.FRENCH.WEB.x264-STRINGERBELL
2022-03-21 08:05:05 TV-HD-FR Riverdale.US.S06E06.FRENCH.720p.WEB.x264-STRINGERBELL
2022-03-21 08:05:39 XXX MyFamilyPies.22.03.21.Madison.Summers.No.Fapping.To.Your.Stepsister.XXX.1080p.MP4-WRB
2022-03-21 08:06:39 X264-HD-FR In.Good.Hands.2022.MULTi.1080p.WEB.x264-STRINGERBELL
2022-03-21 08:07:11 TV-X264 March.S01E06.1080p.WEB.h264-KOGi
2022-03-21 08:07:26 XXX NubileFilms.22.03.21.Anna.Claire.Clouds.And.Lily.Lou.Happy.Wife.Happy.Life.XXX.1080p.MP4-WRB
2022-03-21 08:07:41 X264-SD-FR In.Good.Hands.2022.FRENCH.WEB.x264-STRINGERBELL
2022-03-21 08:08:54 XXX NeighborAffair.22.03.21.Jasmine.Jae.XXX.2160p.MP4-IEVA
2022-03-21 08:09:22 XXX Beauty-Angels.22.03.21.Milka.A.XXX.1080p.MP4-WRB
2022-03-21 08:10:39 XXX Beauty-Angels.22.03.21.Milka.A.XXX.2160p.MP4-WRB
2022-03-21 08:11:09 TV-X264 Talking.Dead.S10E15.1080p.WEB.h264-KOGi
2022-03-21 08:11:24 TV-X264 Talking.Dead.S10E15.720p.WEB.h264-KOGi
2022-03-21 08:16:35 XXX Nubiles.22.03.21.Aubree.Valentine.Pretty.In.Pink.XXX.1080p.MP4-WRB
2022-03-21 08:19:06 XXX MyFamilyPies.22.03.21.Madison.Summers.No.Fapping.To.Your.Stepsister.XXX.2160p.MP4-WRB
2022-03-21 08:22:02 XXX NubileFilms.22.03.21.Anna.Claire.Clouds.And.Lily.Lou.Happy.Wife.Happy.Life.XXX.2160p.MP4-WRB
2022-03-21 08:34:04 TV-HD-DE Seattle.Firefighters.Die.jungen.Helden.S05E02.GERMAN.DL.1080P.WEB.H264-WAYNE
2022-03-21 08:43:24 TV-HD-DE Power.Book.IV.Force.S01E07.GERMAN.DL.1080p.WEB.h264-FENDT
2022-03-21 08:43:49 TV-X264 90.Day.Diaries.S03E01.Indecent.Proposal.720p.WEB.h264-B2B
2022-03-21 08:44:06 TV-HD 90.Day.Diaries.S03E01.Indecent.Proposal.1080p.WEB.h264-B2B
2022-03-21 08:44:41 TV-X264 Wheeler.Dealers.Dream.Car.S02E02.Marcs.Caterham.720p.WEB.h264-B2B
2022-03-21 08:44:59 TV-HD Wheeler.Dealers.Dream.Car.S02E02.Marcs.Caterham.1080p.WEB.h264-B2B
2022-03-21 08:51:10 XXX RealPornstars.22.03.21.Kay.Carter.Nadia.White.XXX.VR180.3072p.MP4-VACCiNE
2022-03-21 08:53:21 ANIME Slayers.Evolution.R.E01.1080p.BluRay.x264-URANiME
2022-03-21 08:53:46 ANIME Slayers.Evolution.R.E01.720p.BluRay.x264-URANiME
2022-03-21 08:54:14 ANIME Slayers.Evolution.R.E02.1080p.BluRay.x264-URANiME
2022-03-21 08:54:40 ANIME Slayers.Evolution.R.E02.720p.BluRay.x264-URANiME
2022-03-21 08:55:05 ANIME Slayers.Evolution.R.E03.1080p.BluRay.x264-URANiME
2022-03-21 08:55:32 TV-HD Slayers.Evolution.R.E03.720p.BluRay.x264-URANiME
2022-03-21 08:55:57 ANIME Slayers.Evolution.R.E04.1080p.BluRay.x264-URANiME
2022-03-21 08:56:24 ANIME Slayers.Evolution.R.E04.720p.BluRay.x264-URANiME
2022-03-21 08:56:48 ANIME Slayers.Evolution.R.E05.1080p.BluRay.x264-URANiME
2022-03-21 08:57:16 ANIME Slayers.Evolution.R.E05.720p.BluRay.x264-URANiME
2022-03-21 08:57:40 ANIME Slayers.Evolution.R.E06.1080p.BluRay.x264-URANiME
2022-03-21 08:58:06 ANIME Slayers.Evolution.R.E06.720p.BluRay.x264-URANiME
2022-03-21 08:58:32 ANIME Slayers.Evolution.R.E07.1080p.BluRay.x264-URANiME
2022-03-21 08:58:34 XXX VRHush.22.03.20.Some.Southern.Teas.in.Jackson.with.Minxx.Marley.XXX.VR180.3840p.MP4-VACCiNE
2022-03-21 08:59:02 TV-HD Slayers.Evolution.R.E07.720p.BluRay.x264-URANiME
2022-03-21 08:59:23 ANIME Slayers.Evolution.R.E08.1080p.BluRay.x264-URANiME
2022-03-21 08:59:48 ANIME Slayers.Evolution.R.E08.720p.BluRay.x264-URANiME
2022-03-21 09:00:13 ANIME Slayers.Evolution.R.E09.1080p.BluRay.x264-URANiME
2022-03-21 09:00:42 ANIME Slayers.Evolution.R.E09.720p.BluRay.x264-URANiME
2022-03-21 09:01:07 TV-HD Slayers.Evolution.R.E10.1080p.BluRay.x264-URANiME
2022-03-21 09:01:32 ANIME Slayers.Evolution.R.E10.720p.BluRay.x264-URANiME
2022-03-21 09:01:56 ANIME Slayers.Evolution.R.E11.1080p.BluRay.x264-URANiME
2022-03-21 09:02:23 TV-HD Slayers.Evolution.R.E11.720p.BluRay.x264-URANiME
2022-03-21 09:02:47 ANIME Slayers.Evolution.R.E12.1080p.BluRay.x264-URANiME
2022-03-21 09:03:14 ANIME Slayers.Evolution.R.E12.720p.BluRay.x264-URANiME
2022-03-21 09:03:38 ANIME Slayers.Evolution.R.E13.1080p.BluRay.x264-URANiME
2022-03-21 09:04:05 ANIME Slayers.Evolution.R.E13.720p.BluRay.x264-URANiME
2022-03-21 09:04:24 TV-HD-NORD Backstrom.S02E05.iNTERNAL.SWEDiSH.1080p.WEB.H264-TOOSA
2022-03-21 09:13:11 MP3 Lost_House_Rhythms_and_Falcos_Deejay_-_Initiate-(GRVV1541)-SINGLE-WEB-2022-ZzZz
2022-03-21 09:13:57 TV-HD-FR Robot.Chicken.S11E17.FRENCH.720p.WEB.H264-AVON
2022-03-21 09:14:41 TV-SD-FR Robot.Chicken.S11E17.FRENCH.WEB.H264-AVON
2022-03-21 09:16:49 X265 The.Disaster.Artist.2017.GERMAN.DUBBED.DL.2160p.WEB.h265.iNTERNAL-TMSF
2022-03-21 09:19:24 X265 Annabelle.2014.GERMAN.DUBBED.DL.2160p.WEB.h265.iNTERNAL-TMSF
2022-03-21 09:21:42 X265 Annabelle.2.2017.GERMAN.DUBBED.DL.2160p.WEB.h265.iNTERNAL-TMSF
2022-03-21 09:27:15 TV-X264 The.Real.Murders.of.Atlanta.S01E09.The.Final.Act.720p.HDTV.x264-CRiMSON
2022-03-21 09:28:22 TV-SD The.Real.Murders.of.Atlanta.S01E09.The.Final.Act.HDTV.x264-CRiMSON
2022-03-21 09:30:29 MP3 Gorbunoff_-_Dream_About_You-(YA731)-SINGLE-WEB-2022-ZzZz
2022-03-21 09:32:00 TV-X264 Unexpected.S05E03.Breast.Milk.Pancakes.720p.HDTV.x264-CRiMSON
2022-03-21 09:32:57 TV-SD Unexpected.S05E03.Breast.Milk.Pancakes.HDTV.x264-CRiMSON
2022-03-21 09:39:57 MP3 Tobtok_and_Covenants_-_Safe-SINGLE-WEB-2022-ZzZz
2022-03-21 09:40:44 MP3 Another_Dimension_-_Alive-(AEP471)-WEB-2022-JUSTiFY_iNT
2022-03-21 09:42:59 MP3 VA-Euphoria_Season_2_(An_HBO_Original_Series_Soundtrack)-OST-WEB-2022-TosK
2022-03-21 09:43:07 MP3 Iberian_-_Become_Aware-(SKY004)-WEB-2022-JUSTiFY_iNT
2022-03-21 09:44:28 XXX-IMAGESET Domai.com_22.03.21.Vine.Vine.1.XXX.IMAGESET-FuGLi
2022-03-21 09:48:08 X264-HD-NORD Smelliville.2021.NORWEGiAN.1080p.WEB.H264-TOOSA
2022-03-21 09:48:35 TV-HD-DE Emergency.Room.Die.Notaufnahme.S06E01.Der.Judaslohn.German.1080p.Webrip.x264-TVARCHiV
2022-03-21 09:48:56 XXX-IMAGESET MetArtX.com_22.03.21.Stella.Cardo.Red.Coat.1.XXX.IMAGESET-FuGLi
2022-03-21 09:49:59 X264-HD-NORD Smelliville.2021.NORWEGiAN.720p.WEB.H264-TOOSA
2022-03-21 09:51:04 TV-HD-DE Emergency.Room.Die.Notaufnahme.S06E01.Der.Judaslohn.German.720p.Webrip.x264-TVARCHiV
2022-03-21 09:51:42 XXX-IMAGESET SexArt.com_22.03.21.Kiere.Together.XXX.IMAGESET-FuGLi
2022-03-21 09:51:43 X264-HD-NORD Smelliville.2021.DANiSH.1080p.WEB.H264-TOOSA
2022-03-21 09:53:12 TV-SD-DE Emergency.Room.Die.Notaufnahme.S06E01.Der.Judaslohn.German.Webrip.x264.iNTERNAL-TVARCHiV
2022-03-21 09:53:17 X264-HD-NORD Smelliville.2021.DANiSH.720p.WEB.H264-TOOSA
2022-03-21 09:54:15 MP3 Wave_Wave_and_Jaxomy_feat_Evie_-_Real_(Lyfes_Remix)-SINGLE-WEB-2022-ZzZz
2022-03-21 09:54:51 MP3 Wave_Wave_and_Jaxomy_feat_Evie_-_Real-SINGLE-WEB-2022-ZzZz
2022-03-21 09:57:15 MP3 Jarvis_Cocker-This_Is_Going_To_Hurt-OST-WEB-2022-MARR
2022-03-21 09:58:33 MP3 Ana_Mena_-_Duecentomila_Ore-SINGLE-WEB-IT-2022-iDC
2022-03-21 10:01:30 TV-X264 American.Idol.S20E04.720p.WEB.h264-KOGi
2022-03-21 10:01:36 MP3 Autograf_feat_Tiina_-_Love_Runs_Deep-SINGLE-WEB-2022-ZzZz
2022-03-21 10:03:18 MP3 Lewis_Duggleby_-_Teal_Culture-(BASE145)-WEB-2022-JUSTiFY_iNT
2022-03-21 10:03:20 TV-X264 Weakest.Link.2020.S02E02.1080p.WEB.h264-KOGi
2022-03-21 10:04:06 TV-X264 Weakest.Link.2020.S02E02.720p.WEB.h264-KOGi
2022-03-21 10:04:14 MP3 Maurice_West_-_Looking_For_Your_Love-SINGLE-WEB-2022-ZzZz
2022-03-21 10:04:45 MP3 Mood13_-_Scars-(NC666M)-WEB-2022-JUSTiFY_iNT
2022-03-21 10:06:17 MP3 VA-Total_Bounce_Bombs_2022_(Original_Mixes)-(CHEEKA71)-WEB-2022-JUSTiFY_iNT
2022-03-21 10:08:06 MP3 VA-Total_Bounce_Bombs_2022_(Radio_Edits)-WEB-2022-JUSTiFY_iNT
2022-03-21 10:10:10 MP3 MATTN_-_TALK-SINGLE-WEB-2022-ZzZz
2022-03-21 10:14:45 TV-HD Rise.of.the.Footsoldier.Origins.2021.1080p.BluRay.x264-GAZER
2022-03-21 10:16:11 MP3 Highlight-DAYDREAM-WEB-KR-2022-HUNNiT
2022-03-21 10:16:34 MP3 Red_Velvet-The_ReVe_Festival_2022_-_Feel_My_Rhythm-WEB-KR-2022-HUNNiT
2022-03-21 10:16:54 MP3 Timmy_Trumpet_feat_Mariana_BO_-_Vivaldi-(00602445382002)-WEB-2022-ZzZz
2022-03-21 10:18:10 TV-X264 Rise.of.the.Footsoldier.Origins.2021.720p.BluRay.x264-GAZER
2022-03-21 10:19:30 X264-SD Rise.of.the.Footsoldier.Origins.2021.BDRip.x264-GAZER
2022-03-21 10:20:50 BLURAY-FULL Rise.of.the.Footsoldier.Origins.2021.COMPLETE.BLURAY-INCUBO
2022-03-21 10:21:39 X264-SD Stick.1985.BDRIP.X264-WATCHABLE
2022-03-21 10:23:38 TV-HD Stick.1985.720P.BLURAY.X264-WATCHABLE
2022-03-21 10:26:24 TV-X264 SAS.Australia.S04E09.1080p.HDTV.H264-CBFM
2022-03-21 10:28:45 TV-HD Stick.1985.1080P.BLURAY.X264-WATCHABLE
2022-03-21 10:31:59 MP3 Geo_Da_Silva_And_Jack_Mazzoni_And_Alien_Cut_-_Morena_(Remixes)-WEB-2015-iDC
2022-03-21 10:36:39 TV-HD-DE Game.Night.2018.GERMAN.DUBBED.DL.HDR.2160p.WEB.h265-TMSF
2022-03-21 10:43:06 TV-X264 Stulecie.Winnych.S04E02.POLISH.720p.HDTV.x264-A4O
2022-03-21 10:49:11 MP3 Swiftyy-Demon_II-WEB-2022-ESG
2022-03-21 10:49:26 FLAC Swiftyy-Demon_II-16BIT-WEBFLAC-2022-ESGFLAC
2022-03-21 10:54:58 TV-HD-DE Riverdale.S06E06.GERMAN.DL.1080p.WEB.h264-FENDT
2022-03-21 10:57:54 EBOOK UDEMY.Mindset.for.Success.and.Happiness.Complete.Mindset.Course.BOOKWARE-iLEARN
2022-03-21 10:59:19 APPS UDEMY.Minimalist.Lifestyle.Complete.Course.Decluttering.Life.BOOKWARE-iLEARN
2022-03-21 11:05:16 MP3 Kromozom-SHAMAN_001-VINYL-2021-CT
2022-03-21 11:05:42 MP3 Nyor_and_Invisible_Zmk-22_99-(YAYA_22_99)-VINYL-2020-CT
2022-03-21 11:06:07 MP3 VA-Ludus_Naturae_EP-(YAYA024)-VINYL-2020-CT_INT
2022-03-21 11:06:28 MP3 VA-TEKNO_4_BREAKFAST_01-VINYL-2021-CT
2022-03-21 11:06:48 MP3 VA-TEKNO_NOISE_02-(TKN02)-VINYL-2021-CT
2022-03-21 11:07:06 MP3 VA-VINYLBLEU_05-(VB05)-VINYL-2021-CT
2022-03-21 11:09:09 TV-HD-DE The.Walking.Dead.S11E13.GERMAN.DUBBED.720p.WEB.h264-idTV
2022-03-21 11:09:26 TV-SD-DE The.Walking.Dead.S11E13.GERMAN.DUBBED.WEBRiP.x264-idTV
2022-03-21 11:09:46 TV-HD-DE The.Walking.Dead.S11E13.GERMAN.DL.DUBBED.1080p.WEB.h264-VoDTv
2022-03-21 11:24:40 EBOOK The.Wall.Street.Journal.19.03.2022.RETAiL.eBOOK-eMAG
2022-03-21 11:24:52 EBOOK The.Wall.Street.Journal.21.03.2022.RETAiL.eBOOK-eMAG
2022-03-21 11:27:58 TV-X264 NHL.2022.03.19.St.Louis.Blues.vs.Columbus.Blue.Jackets.720p.WEB.h264-SPORTSNET
2022-03-21 11:34:53 BLURAY-FULL The.Godfather.1972.Complete.UHD.Bluray-DOGFATHER
2022-03-21 11:36:11 TV-X264 Osaczony.S01E04.POLISH.720p.HDTV.x264-A4O
2022-03-21 11:43:33 TV-HD The.Rescue.2021.1080p.BluRay.x264-SCARE
2022-03-21 11:44:27 X264-HD The.Sound.Of.Scars.2022.1080p.WEB.H264-CBFM
2022-03-21 11:44:35 TV-X264 The.Sound.Of.Scars.2022.720p.WEB.H264-CBFM
2022-03-21 11:45:13 TV-X264 The.Rescue.2021.720p.BluRay.x264-SCARE
2022-03-21 11:45:49 MP3 Povl_Dissing_og_Benny_Andersen-Svantes_Viser-WEB-DK-1973-MARR_INT
2022-03-21 11:46:29 Killer_and_Strawberry_Plus_JPN_NSW-HR
2022-03-21 11:47:30 TV-X264 Married.At.First.Sight.AU.S09E30.720p.HDTV.x264-ORENJI
2022-03-21 11:47:42 TV-SD Married.At.First.Sight.AU.S09E30.HDTV.x264-FQM
2022-03-21 11:47:46 X264-SD The.Rescue.2021.BDRip.x264-SCARE
2022-03-21 11:48:30 MP3 Povl_Dissing_og_Benny_Andersen-Hymner_Og_Ukrudt-WEB-DK-1984-MARR
2022-03-21 11:49:08 TV-HD-DE The.Walking.Dead.S11E13.GERMAN.DL.DUBBED.1080p.WEB.h264.REPACK-VoDTv
2022-03-21 11:49:14 MP3 Lockdown_-_Freakshow-SINGLE-WEB-2022-ZzZz
2022-03-21 11:49:16 MP3 Povl_Dissing_og_Benny_Andersen-Oven_Visse_Vande-WEB-DK-1981-MARR
2022-03-21 11:50:23 BLURAY-FULL The.Rescue.2021.COMPLETE.BLURAY-INCUBO
2022-03-21 11:55:06 BLURAY-FULL The.Godfather.Part.II.1974.Complete.UHD.Bluray-DOGFATHER
2022-03-21 11:56:35 X264-HD Bisping.2021.1080p.WEB.H264-CBFM
2022-03-21 11:56:42 TV-X264 Bisping.2021.720p.WEB.H264-CBFM
2022-03-21 12:01:29 MP3 Keanu_Silva_X_Toby_Romeo_X_Sacha_-_Hopeless_Heart-SINGLE-WEB-2022-ZzZz
2022-03-21 12:02:10 X264-HD Smelliville.2021.1080p.WEB.H264-CBFM
2022-03-21 12:02:21 TV-X264 Smelliville.2021.720p.WEB.H264-CBFM
2022-03-21 12:02:38 MP3 Mr_Black_-_After_Party-SINGLE-WEB-2021-ZzZz
2022-03-21 12:02:39 MP3 Just_Her-Depend_On_Your_Love_EP-(ANJDEE679D)-WEB-2022-AFO
2022-03-21 12:03:07 MP3 Keanu_Silva_X_Toby_Romeo_X_Sacha_-_Hopeless_Heart_(Keanu_Silva_VIP_Mix)-SINGLE-WEB-2022-ZzZz
2022-03-21 12:04:11 MP3 Above_and_Beyond_with_Darren_Tate-The_Last_Glaciers_(Original_Motion_Picture_Soundtrack)-(ANJCD106D)-OST-WEB-2022-AFO
2022-03-21 12:05:39 MP3 Daniel_Kandi-80s_Solution-(BLS379)-SINGLE-WEB-2022-AFO
2022-03-21 12:06:08 MP3 IndianSoul-Anuk-(JMP044)-WEB-2022-AFO
2022-03-21 12:06:55 MP3 Sanani-Strait_of_Messina-(UA164)-WEB-2022-AFO
2022-03-21 12:07:18 MP3 Polzn_Bladz-Differential_Diagnosis-(YR1758)-SINGLE-WEB-2022-AFO
2022-03-21 12:07:42 MP3 Allburn_and_Nesiajunior-Virtuoso-(YR1781)-SINGLE-WEB-2022-AFO
2022-03-21 12:08:08 TV-X264 NHL.2022.03.19.New.York.Rangers.vs.Tampa.Bay.Lightning.720p.WEB.h264-SPORTSNET
2022-03-21 12:15:21 TV-HD-DE The.Walking.Dead.S11E13.GERMAN.DL.1080P.WEB.H264.INTERNAL-WAYNE
2022-03-21 12:18:19 TV-X264 NHL.2022.03.20.Dallas.Stars.vs.Washington.Capitals.720p.WEB.h264-SPORTSNET
2022-03-21 12:18:21 PS4 Bullet_Girls_Phantasia_PS4-MOEMOE
2022-03-21 12:20:12 PS4 Bullet_Girls_Phantasia_Update_v1.01_PS4-MOEMOE
2022-03-21 12:24:11 TV-X264 Bitz.and.Bob.S01E01.1080p.WEBRip.x264-SKYFiRE
2022-03-21 12:24:45 TV-X264 Bitz.and.Bob.S01E01.720p.WEBRip.x264-SKYFiRE
2022-03-21 12:25:18 TV-X264 Bitz.and.Bob.S01E02.1080p.WEBRip.x264-SKYFiRE
2022-03-21 12:25:51 TV-X264 Bitz.and.Bob.S01E02.720p.WEBRip.x264-SKYFiRE
2022-03-21 12:26:25 TV-X264 Bitz.and.Bob.S01E03.1080p.WEBRip.x264-SKYFiRE
2022-03-21 12:27:00 TV-X264 Bitz.and.Bob.S01E03.720p.WEBRip.x264-SKYFiRE
2022-03-21 12:27:33 TV-X264 Bitz.and.Bob.S01E04.1080p.WEBRip.x264-SKYFiRE
2022-03-21 12:28:08 TV-X264 Bitz.and.Bob.S01E04.720p.WEBRip.x264-SKYFiRE
2022-03-21 12:28:42 TV-X264 Bitz.and.Bob.S01E05.1080p.WEBRip.x264-SKYFiRE
2022-03-21 12:29:17 TV-X264 Bitz.and.Bob.S01E05.720p.WEBRip.x264-SKYFiRE
2022-03-21 12:29:50 TV-X264 Bitz.and.Bob.S01E06.1080p.WEBRip.x264-SKYFiRE
2022-03-21 12:30:22 TV-X264 Bitz.and.Bob.S01E06.720p.WEBRip.x264-SKYFiRE
2022-03-21 12:30:32 TV-HD-NORD Robinson.Granslandet.S21E02.SWEDiSH.720p.WEB.h264-NORUSH
2022-03-21 12:30:43 TV-HD-NORD Robinson.Granslandet.S21E02.SWEDiSH.1080p.WEB.h264-NORUSH
2022-03-21 12:30:57 TV-X264 Bitz.and.Bob.S01E07.1080p.WEBRip.x264-SKYFiRE
2022-03-21 12:31:31 TV-X264 Bitz.and.Bob.S01E07.720p.WEBRip.x264-SKYFiRE
2022-03-21 12:32:05 TV-X264 Bitz.and.Bob.S01E08.1080p.WEBRip.x264-SKYFiRE
2022-03-21 12:32:39 TV-X264 Bitz.and.Bob.S01E08.720p.WEBRip.x264-SKYFiRE
2022-03-21 12:33:12 TV-X264 Bitz.and.Bob.S01E09.1080p.WEBRip.x264-SKYFiRE
2022-03-21 12:33:32 NSW Inukari_Chase_of_Deception_NSW-NNSSWW
2022-03-21 12:33:47 TV-X264 Bitz.and.Bob.S01E09.720p.WEBRip.x264-SKYFiRE
2022-03-21 12:34:22 TV-X264 Bitz.and.Bob.S01E10.1080p.WEBRip.x264-SKYFiRE
2022-03-21 12:34:54 TV-X264 Bitz.and.Bob.S01E10.720p.WEBRip.x264-SKYFiRE
2022-03-21 12:35:28 TV-X264 Bitz.and.Bob.S01E11.1080p.WEBRip.x264-SKYFiRE
2022-03-21 12:36:02 TV-X264 Bitz.and.Bob.S01E11.720p.WEBRip.x264-SKYFiRE
2022-03-21 12:36:36 TV-X264 Bitz.and.Bob.S01E12.1080p.WEBRip.x264-SKYFiRE
2022-03-21 12:37:10 TV-X264 Bitz.and.Bob.S01E12.720p.WEBRip.x264-SKYFiRE
2022-03-21 12:37:45 TV-X264 Bitz.and.Bob.S01E13.1080p.WEBRip.x264-SKYFiRE
2022-03-21 12:38:17 TV-X264 Bitz.and.Bob.S01E13.720p.WEBRip.x264-SKYFiRE
2022-03-21 12:38:51 TV-X264 Bitz.and.Bob.S01E14.1080p.WEBRip.x264-SKYFiRE
2022-03-21 12:38:56 MP3 Keanu_Silva_X_Toby_Romeo_X_Sacha_-_Hopeless_Heart_(Extended_Mix)-(00602445409792)-SINGLE-WEB-2022-ZzZz
2022-03-21 12:39:26 TV-X264 Bitz.and.Bob.S01E14.720p.WEBRip.x264-SKYFiRE
2022-03-21 12:39:53 MP3 Keanu_Silva_X_Toby_Romeo_X_Sacha_-_Hopeless_Heart_(Keanu_Silva_VIP_Extended_Mix)-SINGLE-WEB-2022-ZzZz
2022-03-21 12:39:59 TV-X264 Bitz.and.Bob.S01E15.1080p.WEBRip.x264-SKYFiRE
2022-03-21 12:40:33 TV-X264 Bitz.and.Bob.S01E15.720p.WEBRip.x264-SKYFiRE
2022-03-21 12:41:06 TV-X264 Bitz.and.Bob.S01E16.1080p.WEBRip.x264-SKYFiRE
2022-03-21 12:41:07 TV-X264 NHL.2022.03.20.Winnipeg.Jets.vs.Chicago.Blackhawks.720p.WEB.h264-SPORTSNET
2022-03-21 12:41:41 TV-X264 Bitz.and.Bob.S01E16.720p.WEBRip.x264-SKYFiRE
2022-03-21 12:42:15 TV-X264 Bitz.and.Bob.S01E17.1080p.WEBRip.x264-SKYFiRE
2022-03-21 12:42:48 TV-X264 Bitz.and.Bob.S01E17.720p.WEBRip.x264-SKYFiRE
2022-03-21 12:43:23 TV-X264 Bitz.and.Bob.S01E18.1080p.WEBRip.x264-SKYFiRE
2022-03-21 12:43:56 TV-X264 Bitz.and.Bob.S01E18.720p.WEBRip.x264-SKYFiRE
2022-03-21 12:44:31 TV-X264 Bitz.and.Bob.S01E19.1080p.WEBRip.x264-SKYFiRE
2022-03-21 12:45:04 TV-X264 Bitz.and.Bob.S01E19.720p.WEBRip.x264-SKYFiRE
2022-03-21 12:45:39 TV-X264 Bitz.and.Bob.S01E20.1080p.WEBRip.x264-SKYFiRE
2022-03-21 12:45:53 MP3 Purple_Disco_Machine_and_Sophie_and_The_Giants_-_In_The_Dark_(Oliver_Heldens_Extended_Remix)-SINGLE-WEB-2022-ZzZz
2022-03-21 12:46:13 TV-X264 Bitz.and.Bob.S01E20.720p.WEBRip.x264-SKYFiRE
2022-03-21 12:46:45 TV-X264 Bitz.and.Bob.S01E21.1080p.WEBRip.x264-SKYFiRE
2022-03-21 12:47:18 TV-SD Survivor.AU.S09E20.WEB.H264-DARKFLiX
2022-03-21 12:47:20 TV-X264 Bitz.and.Bob.S01E21.720p.WEBRip.x264-SKYFiRE
2022-03-21 12:47:53 TV-X264 Bitz.and.Bob.S01E22.1080p.WEBRip.x264-SKYFiRE
2022-03-21 12:48:28 TV-X264 Bitz.and.Bob.S01E22.720p.WEBRip.x264-SKYFiRE
2022-03-21 12:49:02 TV-X264 Bitz.and.Bob.S02E01.1080p.WEBRip.x264-SKYFiRE
2022-03-21 12:49:35 TV-X264 Bitz.and.Bob.S02E01.720p.WEBRip.x264-SKYFiRE
2022-03-21 12:50:09 TV-X264 Bitz.and.Bob.S02E02.1080p.WEBRip.x264-SKYFiRE
2022-03-21 12:50:43 TV-X264 Bitz.and.Bob.S02E02.720p.WEBRip.x264-SKYFiRE
2022-03-21 12:51:17 TV-X264 Bitz.and.Bob.S02E03.1080p.WEBRip.x264-SKYFiRE
2022-03-21 12:51:51 TV-X264 Bitz.and.Bob.S02E03.720p.WEBRip.x264-SKYFiRE
2022-03-21 12:52:23 TV-X264 Bitz.and.Bob.S02E04.1080p.WEBRip.x264-SKYFiRE
2022-03-21 12:52:58 TV-X264 Bitz.and.Bob.S02E04.720p.WEBRip.x264-SKYFiRE
2022-03-21 12:53:32 TV-X264 Bitz.and.Bob.S02E05.1080p.WEBRip.x264-SKYFiRE
2022-03-21 12:54:05 TV-X264 Bitz.and.Bob.S02E05.720p.WEBRip.x264-SKYFiRE
2022-03-21 12:54:39 TV-X264 Bitz.and.Bob.S02E06.1080p.WEBRip.x264-SKYFiRE
2022-03-21 12:54:43 TV-X264 NHL.2022.03.20.Arizona.Coyotes.vs.San.Jose.Sharks.720p.WEB.h264-SPORTSNET
2022-03-21 12:55:11 TV-X264 Survivor.AU.S09E20.720p.HDTV.x264-ORENJI
2022-03-21 12:55:13 TV-X264 Bitz.and.Bob.S02E06.720p.WEBRip.x264-SKYFiRE
2022-03-21 12:55:47 TV-X264 Bitz.and.Bob.S02E07.1080p.WEBRip.x264-SKYFiRE
2022-03-21 12:56:22 TV-X264 Bitz.and.Bob.S02E07.720p.WEBRip.x264-SKYFiRE
2022-03-21 12:56:55 TV-X264 Bitz.and.Bob.S02E08.1080p.WEBRip.x264-SKYFiRE
2022-03-21 12:57:28 TV-X264 Bitz.and.Bob.S02E08.720p.WEBRip.x264-SKYFiRE
2022-03-21 12:58:03 TV-X264 Bitz.and.Bob.S02E09.1080p.WEBRip.x264-SKYFiRE
2022-03-21 12:58:36 TV-X264 Bitz.and.Bob.S02E09.720p.WEBRip.x264-SKYFiRE
2022-03-21 12:59:11 TV-X264 Bitz.and.Bob.S02E10.1080p.WEBRip.x264-SKYFiRE
2022-03-21 12:59:45 TV-X264 Bitz.and.Bob.S02E10.720p.WEBRip.x264-SKYFiRE
2022-03-21 13:00:18 TV-X264 Bitz.and.Bob.S02E11.1080p.WEBRip.x264-SKYFiRE
2022-03-21 13:00:51 TV-X264 Bitz.and.Bob.S02E11.720p.WEBRip.x264-SKYFiRE
2022-03-21 13:01:25 TV-X264 Bitz.and.Bob.S02E12.1080p.WEBRip.x264-SKYFiRE
2022-03-21 13:01:59 TV-X264 Bitz.and.Bob.S02E12.720p.WEBRip.x264-SKYFiRE
2022-03-21 13:02:32 TV-X264 Bitz.and.Bob.S02E13.1080p.WEBRip.x264-SKYFiRE
2022-03-21 13:03:07 TV-X264 Bitz.and.Bob.S02E13.720p.WEBRip.x264-SKYFiRE
2022-03-21 13:03:41 TV-X264 Bitz.and.Bob.S02E14.1080p.WEBRip.x264-SKYFiRE
2022-03-21 13:04:15 TV-X264 Bitz.and.Bob.S02E14.720p.WEBRip.x264-SKYFiRE
2022-03-21 13:04:49 TV-X264 Bitz.and.Bob.S02E15.1080p.WEBRip.x264-SKYFiRE
2022-03-21 13:05:13 ABOOKS Andreas_Jemn_Historiska_brott_och_mysterier_-_Klassiska_Brott_2-AUDiOBOOK-WEB-SE-2019-CRAViNGS_iNT
2022-03-21 13:05:22 TV-X264 Bitz.and.Bob.S02E15.720p.WEBRip.x264-SKYFiRE
2022-03-21 13:05:56 TV-X264 Bitz.and.Bob.S02E16.1080p.WEBRip.x264-SKYFiRE
2022-03-21 13:06:30 TV-X264 Bitz.and.Bob.S02E16.720p.WEBRip.x264-SKYFiRE
2022-03-21 13:07:05 TV-X264 Bitz.and.Bob.S02E17.1080p.WEBRip.x264-SKYFiRE
2022-03-21 13:07:38 TV-X264 Bitz.and.Bob.S02E17.720p.WEBRip.x264-SKYFiRE
2022-03-21 13:08:11 TV-X264 Bitz.and.Bob.S02E18.1080p.WEBRip.x264-SKYFiRE
2022-03-21 13:08:45 TV-X264 Bitz.and.Bob.S02E18.720p.WEBRip.x264-SKYFiRE
2022-03-21 13:09:20 TV-X264 Bitz.and.Bob.S02E19.1080p.WEBRip.x264-SKYFiRE
2022-03-21 13:09:54 TV-X264 Bitz.and.Bob.S02E19.720p.WEBRip.x264-SKYFiRE
2022-03-21 13:10:26 TV-X264 Bitz.and.Bob.S02E20.1080p.WEBRip.x264-SKYFiRE
2022-03-21 13:11:01 TV-X264 Bitz.and.Bob.S02E20.720p.WEBRip.x264-SKYFiRE
2022-03-21 13:11:28 TV-X264 Tethered.2022.720p.WEB.H264-KBOX
2022-03-21 13:11:34 TV-X264 Bitz.and.Bob.S02E21.1080p.WEBRip.x264-SKYFiRE
2022-03-21 13:12:07 TV-X264 Bitz.and.Bob.S02E21.720p.WEBRip.x264-SKYFiRE
2022-03-21 13:13:29 TV-X264 MLB.Spring.Training.2022.03.20.Baltimore.Orioles.vs.Boston.Red.Sox.720p.WEB.h264-SPORTSNET
2022-03-21 13:14:30 X264-HD Tethered.2022.1080p.WEB.H264-KBOX
2022-03-21 13:31:00 BLURAY-FULL The.Godfather.Part.III.1990.Complete.UHD.Bluray-DOGFATHER
2022-03-21 13:36:09 The.Case.Of.Maneki-DARKZER0
2022-03-21 13:41:18 TV-X264 MLB.Spring.Training.2022.03.20.Tampa.Bay.Rays.vs.Minnesota.Twins.720p.WEB.h264-SPORTSNET
2022-03-21 13:41:21 Mini.Matches-DARKZER0
2022-03-21 13:45:30 Countryball.Europe.1890-DARKZER0
2022-03-21 13:54:26 Towerland-DARKZER0
2022-03-21 14:08:42 MP3 Hashback_Hashish--The_Servant-(CIRCUIT32)-WEB-2021-BABAS
2022-03-21 14:09:05 MP3 Roman_IV--Neues_Testament-(PLAY148SM)-REMASTERED-WEB-2020-BABAS
2022-03-21 14:09:33 MP3 VA-Elektrotribe_Retrospective__Gold-WEB-2022-BABAS
2022-03-21 14:10:02 MP3 VA-Elektrotribe_Retrospective__Green-WEB-2021-BABAS
2022-03-21 14:19:38 TV-HD Where.Murder.Lies.S02E01.Monster.of.Deception.1080p.WEB.h264-B2B
2022-03-21 14:20:11 TV-HD Where.Murder.Lies.S02E02.Killer.Cuts.1080p.WEB.h264-B2B
2022-03-21 14:20:45 TV-HD Where.Murder.Lies.S02E03.Family.Lies.1080p.WEB.h264-B2B
2022-03-21 14:21:49 TV-X264 Hitlers.letzter.Widerstand.S02E01.Verlorenes.Bataillon.GERMAN.DL.DOKU.1080p.HDTV.x264-SKYSD
2022-03-21 14:22:40 TV-X264 SAS.Australia.S04E10.1080p.HDTV.H264-CBFM
2022-03-21 14:22:50 TV-X264 Hitlers.letzter.Widerstand.S02E01.Verlorenes.Bataillon.GERMAN.DL.DOKU.720p.HDTV.x264-SKYSD
2022-03-21 14:23:11 MP3 Bloodmoon--Disarm_(Recondite_Remix)-(FCL454RMXA)-SINGLE-WEB-2022-YALLA
2022-03-21 14:23:50 TV-SD-DE Hitlers.letzter.Widerstand.S02E01.Verlorenes.Bataillon.GERMAN.DOKU.HDTVRip.x264-SKYSD
2022-03-21 14:24:04 MP3 Carlos_Barbero_x_Enes_Cakir_feat_Aquarius_Heaven--Faces-(CAO049)-WEB-2022-YALLA
2022-03-21 14:24:42 MP3 Yotam_Avni--Here_We_Are_Again_V2-(AVN07)-SINGLE-WEB-2022-YALLA
2022-03-21 14:24:51 TV-X264 Hitlers.letzter.Widerstand.S02E02.Belagerung.von.Bastogne.GERMAN.DL.DOKU.1080p.HDTV.x264-SKYSD
2022-03-21 14:25:52 TV-X264 Hitlers.letzter.Widerstand.S02E02.Belagerung.von.Bastogne.GERMAN.DL.DOKU.720p.HDTV.x264-SKYSD
2022-03-21 14:26:55 TV-SD-DE Hitlers.letzter.Widerstand.S02E02.Belagerung.von.Bastogne.GERMAN.DOKU.HDTVRip.x264-SKYSD
2022-03-21 14:27:54 TV-X264 Hitlers.letzter.Widerstand.S02E03.Heldenhafter.Einsatz.GERMAN.DL.DOKU.1080p.HDTV.x264-SKYSD
2022-03-21 14:28:02 MP3 Jayface-Strange_Love-(JYFCMSC009)-WEB-2022-AFO
2022-03-21 14:28:35 TV-X264 MLB.Spring.Training.2022.03.20.Pittsburgh.Pirates.vs.Toronto.Blue.Jays.720p.WEB.h264-SPORTSNET
2022-03-21 14:28:55 TV-X264 Hitlers.letzter.Widerstand.S02E03.Heldenhafter.Einsatz.GERMAN.DL.DOKU.720p.HDTV.x264-SKYSD
2022-03-21 14:29:54 MP3 Admiral_Freebee-The_Gardener-CD-2021-DDS
2022-03-21 14:29:57 TV-SD-DE Hitlers.letzter.Widerstand.S02E03.Heldenhafter.Einsatz.GERMAN.DOKU.HDTVRip.x264-SKYSD
2022-03-21 14:30:46 TV-X264 Tribe.Nine.S01E11.1080p.WEB.H264-SUGOI
2022-03-21 14:30:57 TV-X264 Hitlers.letzter.Widerstand.S02E04.Todeszone.GERMAN.DL.DOKU.1080p.HDTV.x264-SKYSD
2022-03-21 14:31:57 TV-X264 Hitlers.letzter.Widerstand.S02E04.Todeszone.GERMAN.DL.DOKU.720p.HDTV.x264-SKYSD
2022-03-21 14:32:58 TV-SD-DE Hitlers.letzter.Widerstand.S02E04.Todeszone.GERMAN.DOKU.HDTVRip.x264-SKYSD
2022-03-21 14:33:59 TV-X264 Hitlers.letzter.Widerstand.S02E05.Angriff.auf.die.Insel.GERMAN.DL.DOKU.1080p.HDTV.x264-SKYSD
2022-03-21 14:35:00 TV-X264 Hitlers.letzter.Widerstand.S02E05.Angriff.auf.die.Insel.GERMAN.DL.DOKU.720p.HDTV.x264-SKYSD
2022-03-21 14:36:01 TV-SD-DE Hitlers.letzter.Widerstand.S02E05.Angriff.auf.die.Insel.GERMAN.DOKU.HDTVRip.x264-SKYSD
2022-03-21 14:37:02 TV-X264 Hitlers.letzter.Widerstand.S02E06.Verteidigung.der.Rheinbruecken.GERMAN.DL.DOKU.1080p.HDTV.x264-SKYSD
2022-03-21 14:38:04 TV-X264 Hitlers.letzter.Widerstand.S02E06.Verteidigung.der.Rheinbruecken.GERMAN.DL.DOKU.720p.HDTV.x264-SKYSD
2022-03-21 14:39:04 TV-SD-DE Hitlers.letzter.Widerstand.S02E06.Verteidigung.der.Rheinbruecken.GERMAN.DOKU.HDTVRip.x264-SKYSD
2022-03-21 14:40:03 TV-X264 Hitlers.letzter.Widerstand.S03E02.Kessel.von.Falaise.GERMAN.DL.DOKU.1080p.HDTV.x264-SKYSD
2022-03-21 14:41:06 TV-X264 Hitlers.letzter.Widerstand.S03E02.Kessel.von.Falaise.GERMAN.DL.DOKU.720p.HDTV.x264-SKYSD
2022-03-21 14:42:07 TV-SD-DE Hitlers.letzter.Widerstand.S03E02.Kessel.von.Falaise.GERMAN.DOKU.HDTVRip.x264-SKYSD
2022-03-21 14:43:09 TV-X264 Hitlers.letzter.Widerstand.S03E03.Die.Hoelle.von.Hoven.GERMAN.DL.DOKU.1080p.HDTV.x264-SKYSD
2022-03-21 14:44:09 TV-X264 Hitlers.letzter.Widerstand.S03E03.Die.Hoelle.von.Hoven.GERMAN.DL.DOKU.720p.HDTV.x264-SKYSD
2022-03-21 14:44:14 TV-X264 The.Circus.S07E03.720p.WEB.h264-KOGi
2022-03-21 14:44:16 TV-X264 The.Circus.S07E03.1080p.WEB.h264-KOGi
2022-03-21 14:44:37 MP3 Kelvin_Rowlands-Heartbroken_For_A_While-(AE473)-WEB-2022-AFO_INT
2022-03-21 14:45:09 TV-SD-DE Hitlers.letzter.Widerstand.S03E03.Die.Hoelle.von.Hoven.GERMAN.DOKU.HDTVRip.x264-SKYSD
2022-03-21 14:45:22 MP3 Another_Dimension-Alive-(AEP471)-WEB-2022-AFO_INT
2022-03-21 14:46:10 TV-X264 Hitlers.letzter.Widerstand.S03E04.Eiskalte.Offensive.GERMAN.DL.DOKU.1080p.HDTV.x264-SKYSD
2022-03-21 14:47:11 TV-X264 Hitlers.letzter.Widerstand.S03E04.Eiskalte.Offensive.GERMAN.DL.DOKU.720p.HDTV.x264-SKYSD
2022-03-21 14:48:12 TV-SD-DE Hitlers.letzter.Widerstand.S03E04.Eiskalte.Offensive.GERMAN.DOKU.HDTVRip.x264-SKYSD
2022-03-21 14:48:39 MP3 William_The_Conqueror-Maverick_Thinker-CD-2021-DDS
2022-03-21 14:48:58 BLURAY-FULL The.Godfather.Coda.The.Death.of.Michael.Corleone.1990.Complete.UHD.Bluray-DOGFATHER
2022-03-21 14:49:12 TV-X264 Hitlers.letzter.Widerstand.S03E05.Festung.der.Tapferkeit.GERMAN.DL.DOKU.1080p.HDTV.x264-SKYSD
2022-03-21 14:50:14 TV-X264 Hitlers.letzter.Widerstand.S03E05.Festung.der.Tapferkeit.GERMAN.DL.DOKU.720p.HDTV.x264-SKYSD
2022-03-21 14:51:15 TV-SD-DE Hitlers.letzter.Widerstand.S03E05.Festung.der.Tapferkeit.GERMAN.DOKU.HDTVRip.x264-SKYSD
2022-03-21 14:52:09 MP3 VA-5_YRS_of_DGTL_Records_Part_3-(DGTL0203)-WEB-2022-YALLA
2022-03-21 14:52:16 TV-X264 Hitlers.letzter.Widerstand.S03E06.Gnadenloser.Fruehling.GERMAN.DL.DOKU.1080p.HDTV.x264-SKYSD
2022-03-21 14:53:16 TV-X264 Hitlers.letzter.Widerstand.S03E06.Gnadenloser.Fruehling.GERMAN.DL.DOKU.720p.HDTV.x264-SKYSD
2022-03-21 14:54:18 TV-SD-DE Hitlers.letzter.Widerstand.S03E06.Gnadenloser.Fruehling.GERMAN.DOKU.HDTVRip.x264-SKYSD
2022-03-21 14:57:40 TV-HD-DE Candice.Renoir.S05E02.German.1080p.WebHD.h264-FKKTV
2022-03-21 14:58:33 TV-HD-DE Candice.Renoir.S05E03.German.1080p.WebHD.h264-FKKTV
2022-03-21 14:59:26 TV-HD-DE Candice.Renoir.S05E04.German.1080p.WebHD.h264-FKKTV
2022-03-21 15:00:19 TV-HD-DE Candice.Renoir.S05E05.German.1080p.WebHD.h264-FKKTV
2022-03-21 15:01:13 TV-HD-DE Candice.Renoir.S05E06.German.1080p.WebHD.h264-FKKTV
2022-03-21 15:02:08 TV-HD-DE Candice.Renoir.S05E07.German.1080p.WebHD.h264-FKKTV
2022-03-21 15:02:55 MP3 VA-5_YRS_of_DGTL_Records_Part_3-(DGTL0203)-READNFO-WEB-2022-AFO_INT
2022-03-21 15:03:01 TV-HD-DE Candice.Renoir.S05E08.German.1080p.WebHD.h264-FKKTV
2022-03-21 15:03:54 TV-HD-DE Candice.Renoir.S05E09.German.1080p.WebHD.h264-FKKTV
2022-03-21 15:04:49 TV-HD-DE Candice.Renoir.S05E10.German.1080p.WebHD.h264-FKKTV
2022-03-21 15:08:33 TV-SD-FR Winning.Time.The.Rise.of.the.Lakers.Dynasty.S01E03.FRENCH.WEB.H264-SHEEEIT
2022-03-21 15:09:07 TV-HD-FR Winning.Time.The.Rise.of.the.Lakers.Dynasty.S01E03.FRENCH.720p.WEB.H264-SHEEEIT
2022-03-21 15:11:38 TV-X264 Robot.Chicken.S11E17.1080p.WEB.h264-BAE
2022-03-21 15:11:40 TV-X264 Robot.Chicken.S11E17.720p.WEB.h264-BAE
2022-03-21 15:21:50 MP3 Anadol--Felicita-(PINGIPUNG074DIG)-WEB-2022-BABAS
2022-03-21 15:22:15 MP3 Arandel--Hysope-(IF3118)-WEB-2022-BABAS
2022-03-21 15:22:41 MP3 DJ_Stingray_313--No_Knock-(MCR00004S1)-SINGLE-WEB-2022-BABAS
2022-03-21 15:23:07 MP3 Ivar_Grydeland--In_The_Arctic_Dreamtime-(RCD2211)-WEB-2020-BABAS
2022-03-21 15:23:32 MP3 My_Favorite_Robot--Mild_Peril-(ARR012)-WEB-2018-BABAS
2022-03-21 15:23:58 MP3 Naome--Naome-(MFR117)-WEB-2015-BABAS
2022-03-21 15:24:25 MP3 Naome--Naome_(Remixes)-(MFR127)-WEB-2015-BABAS
2022-03-21 15:24:50 MP3 Pink_Skull--Huitlacoche-(MFR094)-WEB-2014-BABAS
2022-03-21 15:25:16 MP3 Pink_Skull--Huitlacoche_Remixes-(MFR106)-WEB-2014-BABAS
2022-03-21 15:25:43 MP3 Ricardo_Villalobos_x_Samuel_Rohrer--Lobule-(AMELLP722S)-SINGLE-WEB-2022-BABAS
2022-03-21 15:26:08 MP3 Sex_Magick_Wizards--Your_Bliss_My_Joy-(RLP3221)-WEB-2021-BABAS
2022-03-21 15:26:34 MP3 Space_Afrika--BEE_(Aya_Wavefold)-SINGLE-WEB-2022-BABAS
2022-03-21 15:27:00 MP3 Svein_Finnerud_Trio--Thoughts-(RALP322)-WEB-2008-BABAS
2022-03-21 15:27:26 MP3 Tim_Paris--Dancers-(MFR086)-WEB-2013-BABAS
2022-03-21 15:27:52 MP3 Tim_Paris--Dancers_Remixes-(MFR105)-WEB-2014-BABAS
2022-03-21 15:28:18 MP3 VA-Alfabox_02-(ARRVA002)-WEB-2018-BABAS
2022-03-21 15:28:44 MP3 VA-My_Favorite_Robot_Records-Best_Of_Year_5-(MFR092)-WEB-2014-BABAS
2022-03-21 15:29:12 MP3 Wesley_Bright_x_Leroi_Conroy--Come_Right_Back_(Part_1_and_Part_2)-(CLMN205)-WEB-2022-BABAS
2022-03-21 15:29:36 MP3 WzrdryAV--West_Coast_Systems_Vol_2-(LINE127)-WEB-2022-BABAS
2022-03-21 15:31:40 TV-X264 Dit.Was.Het.Nieuws.S42E04.DUTCH.1080p.HDTV.x264-DTOD
2022-03-21 15:34:15 TV-X264 Expeditie.Robinson.All.Stars.S01E04.DUTCH.1080p.HDTV.x264-DTOD
2022-03-21 15:35:17 MP3 INVT--Ritmo_Caliente-(INVT020)-WEB-2022-BABAS
2022-03-21 15:35:42 MP3 Manchester_Collective--Shades-(HVALUR42)-WEB-2022-BABAS
2022-03-21 15:36:08 MP3 RVDS--Reset_My_Brain-(BB397Si1)-SINGLE-WEB-2022-YALLA
2022-03-21 15:36:08 MP3 Maps--Realigned-(LISTUMM372)-WEB-2014-BABAS
2022-03-21 15:36:39 TV-X264 Flikken.Maastricht.S16E11.DUTCH.1080p.HDTV.x264-DTOD
2022-03-21 15:38:04 MP3 Arbeid_Adelt-Slik-NL-CD-2015-DDS
2022-03-21 15:39:24 MP3 Danko_Jones-Power_Trio-CD-2021-DDS
2022-03-21 15:39:44 TV-X264 Floortje.Naar.Het.Einde.Van.De.Wereld.S07E01.DUTCH.1080p.HDTV.x264-DTOD
2022-03-21 15:40:41 MP3 Squrl-EP_260-CDEP-2017-DDS
2022-03-21 15:41:05 MP3 Drexciya--Harnessed_The_Storm-(TRESOR181)-WEB-2010-BABAS_INT
2022-03-21 15:41:56 MP3 Wim_De_Craene-Integraal-BOXSET-8CD-2015-DDS
2022-03-21 15:42:46 TV-X264 I.Can.See.Your.Voice.NL.S03E09.DUTCH.1080p.HDTV.x264-DTOD
2022-03-21 15:43:45 MP3 Joi_Lau--3_Ur_Mind-(WRECD1)-WEB-2022-BABAS
2022-03-21 15:49:31 FLAC Morning_Glory-War_Psalms-CD-FLAC-2014-FAiNT
2022-03-21 15:50:27 MP3 Fatgyver--Adventures_In_Imperfection-WEB-2021-BABAS
2022-03-21 15:51:54 TV-HD-DE Emergency.Room.Die.Notaufnahme.S06E02.Letzte.Oelung.German.1080p.Webrip.x264-TVARCHiV
2022-03-21 15:54:28 TV-HD-DE Emergency.Room.Die.Notaufnahme.S06E02.Letzte.Oelung.German.720p.Webrip.x264-TVARCHiV
2022-03-21 15:56:31 TV-SD-DE Emergency.Room.Die.Notaufnahme.S06E02.Letzte.Oelung.German.Webrip.x264.iNTERNAL-TVARCHiV
2022-03-21 15:59:46 TV-HD-DE Emergency.Room.Die.Notaufnahme.S06E03.Greenes.Rivale.German.1080p.Webrip.x264-TVARCHiV
2022-03-21 16:00:17 TV-HD-DE Candice.Renoir.S05E02.German.720p.WebHD.h264-FKKTV
2022-03-21 16:01:01 TV-HD-DE Candice.Renoir.S05E03.German.720p.WebHD.h264-FKKTV
2022-03-21 16:01:41 TV-HD-DE Candice.Renoir.S05E04.German.720p.WebHD.h264-FKKTV
2022-03-21 16:02:22 TV-HD-DE Candice.Renoir.S05E05.German.720p.WebHD.h264-FKKTV
2022-03-21 16:02:55 TV-HD-DE Emergency.Room.Die.Notaufnahme.S06E03.Greenes.Rivale.German.720p.Webrip.x264-TVARCHiV
2022-03-21 16:03:03 TV-HD-DE Candice.Renoir.S05E06.German.720p.WebHD.h264-FKKTV
2022-03-21 16:03:45 TV-HD-DE Candice.Renoir.S05E07.German.720p.WebHD.h264-FKKTV
2022-03-21 16:04:28 TV-HD-DE Candice.Renoir.S05E08.German.720p.WebHD.h264-FKKTV
2022-03-21 16:05:13 TV-HD-DE Candice.Renoir.S05E09.German.720p.WebHD.h264-FKKTV
2022-03-21 16:05:31 TV-SD-DE Emergency.Room.Die.Notaufnahme.S06E03.Greenes.Rivale.German.Webrip.x264.iNTERNAL-TVARCHiV
2022-03-21 16:05:42 TV-HD-NORD IndyCar.2022.R02.Xpel.375.GP.SWEDiSH.720p.WEB.H264-ALLURE
2022-03-21 16:05:56 TV-HD-DE Candice.Renoir.S05E10.German.720p.WebHD.h264-FKKTV
2022-03-21 16:08:55 TV-HD-DE Emergency.Room.Die.Notaufnahme.S06E04.Die.Suenden.der.Vaeter.German.1080p.Webrip.x264-TVARCHiV
2022-03-21 16:11:29 TV-HD-DE Emergency.Room.Die.Notaufnahme.S06E04.Die.Suenden.der.Vaeter.German.720p.Webrip.x264-TVARCHiV
2022-03-21 16:13:42 TV-SD-DE Emergency.Room.Die.Notaufnahme.S06E04.Die.Suenden.der.Vaeter.German.Webrip.x264.iNTERNAL-TVARCHiV
2022-03-21 16:15:40 EBOOK Drive.No.393.2022.HYBRiD.MAGAZiNE.eBook-LiBRiCiDE
2022-03-21 16:17:09 TV-HD-DE Emergency.Room.Die.Notaufnahme.S06E05.Folgenschwere.Vertauschung.German.1080p.Webrip.x264-TVARCHiV
2022-03-21 16:17:13 EBOOK PC.For.Alla.No.04.2022.SWEDiSH.HYBRiD.MAGAZiNE.eBook-LiBRiCiDE
2022-03-21 16:19:08 TV-HD-FR Tribe.Nine.E11.CUSTOM.MULTi.1080p.WEB.H264-AMB3R
2022-03-21 16:19:31 TV-HD-DE Emergency.Room.Die.Notaufnahme.S06E05.Folgenschwere.Vertauschung.German.720p.Webrip.x264-TVARCHiV
2022-03-21 16:21:41 TV-SD-DE Emergency.Room.Die.Notaufnahme.S06E05.Folgenschwere.Vertauschung.German.Webrip.x264.iNTERNAL-TVARCHiV
2022-03-21 16:24:52 TV-HD-DE Emergency.Room.Die.Notaufnahme.S06E06.Die.Falle.German.1080p.Webrip.x264-TVARCHiV
2022-03-21 16:27:18 TV-HD-DE Emergency.Room.Die.Notaufnahme.S06E06.Die.Falle.German.720p.Webrip.x264-TVARCHiV
2022-03-21 16:29:20 TV-SD-DE Emergency.Room.Die.Notaufnahme.S06E06.Die.Falle.German.Webrip.x264.iNTERNAL-TVARCHiV
2022-03-21 16:31:19 EBOOK Deutsche.Briefmarken-Zeitung.No.07.2022.GERMAN.HYBRID.MAGAZINE.eBook-LORENZ
2022-03-21 16:32:22 EBOOK marktEINBLICKE.Fonds.No.03.2022.GERMAN.HYBRID.MAGAZINE.eBook-LORENZ
2022-03-21 16:32:54 TV-HD-DE Emergency.Room.Die.Notaufnahme.S06E07.Vorsicht.Dr.Corday.German.1080p.Webrip.x264-TVARCHiV
2022-03-21 16:34:31 MP3 VA_-_Its_Coffee_Time_Vol.1_(Mixed_By_DJ_Kosta)-BOOTLEG-WEB-2022-NOiCE_INT
2022-03-21 16:35:18 TV-HD-DE Emergency.Room.Die.Notaufnahme.S06E07.Vorsicht.Dr.Corday.German.720p.Webrip.x264-TVARCHiV
2022-03-21 16:37:23 TV-SD-DE Emergency.Room.Die.Notaufnahme.S06E07.Vorsicht.Dr.Corday.German.Webrip.x264.iNTERNAL-TVARCHiV
2022-03-21 16:38:59 FLAC Dan_Baird_And_Homemade_Sin-Circus_Life-(JCPLCC_003)-CD-FLAC-2013-6DM
2022-03-21 16:40:11 FLAC Gashouse_Dave_And_The_Hardtails-Deep_Blues_9-(DFGCD8489)-CD-FLAC-1999-6DM
2022-03-21 16:40:47 TV-HD-DE Emergency.Room.Die.Notaufnahme.S06E08.Zwillinge.German.1080p.Webrip.x264-TVARCHiV
2022-03-21 16:41:09 FLAC Gene_Clark-White_Light-(493_209-2)-Reissue-CD-FLAC-2002-6DM
2022-03-21 16:42:08 FLAC Glenn_Hughes-Blues_L.A._Blues_Authority_Volume_II-(RR_9088_2)-Reissue-CD-FLAC-1993-6DM
2022-03-21 16:43:03 TV-HD-DE Emergency.Room.Die.Notaufnahme.S06E08.Zwillinge.German.720p.Webrip.x264-TVARCHiV
2022-03-21 16:45:03 TV-SD-DE Emergency.Room.Die.Notaufnahme.S06E08.Zwillinge.German.Webrip.x264.iNTERNAL-TVARCHiV
2022-03-21 16:47:11 FLAC Guy_King-Truth-(DE-843)-CD-FLAC-2016-6DM
2022-03-21 16:48:29 TV-HD-DE Emergency.Room.Die.Notaufnahme.S06E09.Weihnachtsmaenner.German.1080p.Webrip.x264-TVARCHiV
2022-03-21 16:50:53 TV-HD-DE Emergency.Room.Die.Notaufnahme.S06E09.Weihnachtsmaenner.German.720p.Webrip.x264-TVARCHiV
2022-03-21 16:52:19 0DAY KnowledgeDesign.Software.MetaX.v2.81.Incl.Keygen-BTCR
2022-03-21 16:52:52 TV-SD-DE Emergency.Room.Die.Notaufnahme.S06E09.Weihnachtsmaenner.German.Webrip.x264.iNTERNAL-TVARCHiV
2022-03-21 16:53:21 0DAY SAPIEN.PowerShell.ModuleManager.2022.v1.2.15.Incl.Keyfilemaker-BTCR
2022-03-21 16:56:29 0DAY SAPIEN.PowerShell.Studio.2022.v5.8.202.Incl.Keyfilemaker-BTCR
2022-03-21 16:56:32 TV-HD-DE Emergency.Room.Die.Notaufnahme.S06E10.Seines.Bruders.Hueter.German.1080p.Webrip.x264-TVARCHiV
2022-03-21 16:58:02 0DAY SAPIEN.PrimalScript.2022.v8.0.161.Incl.Keyfilemaker-BTCR
2022-03-21 16:58:54 TV-HD-DE Emergency.Room.Die.Notaufnahme.S06E10.Seines.Bruders.Hueter.German.720p.Webrip.x264-TVARCHiV
2022-03-21 17:01:06 TV-SD-DE Emergency.Room.Die.Notaufnahme.S06E10.Seines.Bruders.Hueter.German.Webrip.x264.iNTERNAL-TVARCHiV
2022-03-21 17:02:09 MP3 Horizon_Feat_Debora_Kool_-_Sweet_Love-WEB-2001-iDC
2022-03-21 17:02:50 TV-HD-NL Boer.Zoekt.Vrouw.S12E05.DUTCH.720p.WEB.H264-ADRENALiNE
2022-03-21 17:04:26 TV-HD-NL Boer.Zoekt.Vrouw.S12E05.DUTCH.1080p.WEB.H264-ADRENALiNE
2022-03-21 17:04:30 TV-HD-DE Emergency.Room.Die.Notaufnahme.S06E11.Truegerische.Hoffnung.German.1080p.Webrip.x264-TVARCHiV
2022-03-21 17:06:49 TV-HD-DE Emergency.Room.Die.Notaufnahme.S06E11.Truegerische.Hoffnung.German.720p.Webrip.x264-TVARCHiV
2022-03-21 17:07:17 MP3 Iggy_-_This_Is_Iggy-2022-MOD
2022-03-21 17:07:29 TV-HD-DE Candice.Renoir.S06E02.German.1080p.WebHD.h264-FKKTV
2022-03-21 17:08:24 TV-HD-DE Candice.Renoir.S06E03.German.1080p.WebHD.h264-FKKTV
2022-03-21 17:09:16 TV-HD-DE Candice.Renoir.S06E04.German.1080p.WebHD.h264-FKKTV
2022-03-21 17:09:28 TV-SD-DE Emergency.Room.Die.Notaufnahme.S06E11.Truegerische.Hoffnung.German.Webrip.x264.iNTERNAL-TVARCHiV
2022-03-21 17:09:34 TV-X264 SABIKUI.BISCO.S01E11.1080p.WEB.H264-SENPAI
2022-03-21 17:10:08 TV-HD-DE Candice.Renoir.S06E05.German.1080p.WebHD.h264-FKKTV
2022-03-21 17:10:11 MP3 Joss_Stone_-_Never_Forget_My_Love-2022-MOD
2022-03-21 17:11:02 TV-HD-DE Candice.Renoir.S06E06.German.1080p.WebHD.h264-FKKTV
2022-03-21 17:11:53 TV-HD-DE Candice.Renoir.S06E07.German.1080p.WebHD.h264-FKKTV
2022-03-21 17:12:13 TV-X264 Merry-Go-Round.1956.720p.BluRay.x264-USURY
2022-03-21 17:12:47 TV-HD-DE Candice.Renoir.S06E08.German.1080p.WebHD.h264-FKKTV
2022-03-21 17:13:22 MP3 Yaenniver_-_Nackt-DE-2022-MOD
2022-03-21 17:13:40 TV-HD-DE Candice.Renoir.S06E09.German.1080p.WebHD.h264-FKKTV
2022-03-21 17:14:31 TV-HD-DE Candice.Renoir.S06E10.German.1080p.WebHD.h264-FKKTV
2022-03-21 17:15:25 TV-X264 Morvern.Callar.2002.720p.BluRay.x264-USURY
2022-03-21 17:15:39 TV-HD-DE Emergency.Room.Die.Notaufnahme.S06E12.Abgruende.German.1080p.Webrip.x264-TVARCHiV
2022-03-21 17:18:09 TV-HD-DE Emergency.Room.Die.Notaufnahme.S06E12.Abgruende.German.720p.Webrip.x264-TVARCHiV
2022-03-21 17:18:28 FLAC Jason_And_The_Scorchers-Halcyon_Times-(PGMLCD_112)-CD-FLAC-2010-6DM
2022-03-21 17:18:53 TV-X264 Princess.Connect.Re.Dive.S02E11.1080p.WEB.H264-SENPAI
2022-03-21 17:19:12 TV-X264 The.Great.McGinty.1940.720p.BluRay.x264-USURY
2022-03-21 17:20:13 TV-SD-DE Emergency.Room.Die.Notaufnahme.S06E12.Abgruende.German.Webrip.x264.iNTERNAL-TVARCHiV
2022-03-21 17:20:50 FLAC Jason_And_The_Scorchers-Midnight_Roads_And_Stages_Seen-(354_980_180-2)-2CD-FLAC-1998-6DM
2022-03-21 17:21:08 0DAY Kaizen.Software.Asset.Manager.2022.Enterprise.Edition.v3.1.1006.0.Incl.Keygen-BTCR
2022-03-21 17:22:13 APPS Kaizen.Software.Training.Manager.2022.Enterprise.Edition.v3.2.1012.0.Incl.Keygen-BTCR
2022-03-21 17:22:36 TV-X264 The.Mob.1951.720p.BluRay.x264-USURY
2022-03-21 17:23:27 X264-SD-DE Jackass.Forever.2022.German.LD.WEBRip.x264-PRD
2022-03-21 17:23:47 TV-HD-DE Emergency.Room.Die.Notaufnahme.S06E13.Fuer.immer.mein.Herz.German.1080p.Webrip.x264-TVARCHiV
2022-03-21 17:23:58 X264-HD-DE Jackass.Forever.2022.German.DL.LD.1080p.WEB.h264-PRD
2022-03-21 17:24:19 MP3 Imanbek-Housesession-SAT-03-20-2022-PTC
2022-03-21 17:24:38 X265 Jackass.Forever.2022.German.DL.LD.HDR.2160p.WEB.h265-PRD
2022-03-21 17:26:47 TV-HD Merry-Go-Round.1956.1080p.BluRay.x264-USURY
2022-03-21 17:26:49 TV-HD-DE Emergency.Room.Die.Notaufnahme.S06E13.Fuer.immer.mein.Herz.German.720p.Webrip.x264-TVARCHiV
2022-03-21 17:28:55 TV-SD-DE Emergency.Room.Die.Notaufnahme.S06E13.Fuer.immer.mein.Herz.German.Webrip.x264.iNTERNAL-TVARCHiV
2022-03-21 17:30:26 ABOOKS Benjamin_Bluemchen_-_F150_auf_Weltreise-AUDIOBOOK-DE-2022-NOiCE
2022-03-21 17:31:06 MP3 Phife_Dawg-Forever-WEB-2022-UVU
2022-03-21 17:32:18 TV-HD-DE Emergency.Room.Die.Notaufnahme.S06E14.Die.Tat.eines.Wahnsinnigen.German.1080p.Webrip.x264-TVARCHiV
2022-03-21 17:34:36 TV-HD Morvern.Callar.2002.1080p.BluRay.x264-USURY
2022-03-21 17:34:38 TV-HD-DE Emergency.Room.Die.Notaufnahme.S06E14.Die.Tat.eines.Wahnsinnigen.German.720p.Webrip.x264-TVARCHiV
2022-03-21 17:35:33 X264-HD-DE Jackass.Forever.2022.German.DL.LD.720p.WEBRip.x264-PRD
2022-03-21 17:35:47 X265 Jackass.Forever.2022.German.DL.LD.DV.2160p.WEB.h265-PRD
2022-03-21 17:36:19 0DAY MetaProducts.Offline.Explorer.Enterprise.v8.2.4914.Incl.Keygen.and.Patch-BTCR
2022-03-21 17:36:50 TV-SD-DE Emergency.Room.Die.Notaufnahme.S06E14.Die.Tat.eines.Wahnsinnigen.German.Webrip.x264.iNTERNAL-TVARCHiV
2022-03-21 17:39:55 TV-HD-DE Emergency.Room.Die.Notaufnahme.S06E15.Instinkt.German.1080p.Webrip.x264-TVARCHiV
2022-03-21 17:40:01 ABOOKS Benjamin_Bluemchen-150_auf_Weltreise-DE-AUDIOBOOK-CD-FLAC-2022-NBFLAC
2022-03-21 17:40:03 MP3 Die_Bradlmusikanten-Musizieren_Singen_Tanzen_Lustig_Sein-CD-DE-2016-ALPMP3
2022-03-21 17:40:25 FLAC The_Georgia_Satellites-Let_It_Rock_Best_Of_The_Georgia_Satellites-(7559-61336-2)-CD-FLAC-1993-6DM
2022-03-21 17:40:30 MP3 Die_Schlosskoglbuam_Mit_Susanne-Es_Geht_Wieder_Auf_Tournee-CD-DE-1994-ALPMP3
2022-03-21 17:40:50 MP3 Sepp_Mattlschweigers_Quintett_Juchee-Stark_Und_Heiss-CD-DE-2006-ALPMP3
2022-03-21 17:40:59 TV-HD The.Great.McGinty.1940.1080p.BluRay.x264-USURY
2022-03-21 17:41:08 MP3 Original_Jaklinger-Flotte_Schoene_Volksmusik-CD-DE-1997-ALPMP3
2022-03-21 17:41:28 MP3 Die_Poellauberger-Komm_Lasst_Uns_Feiern-CD-DE-1992-ALPMP3
2022-03-21 17:42:10 FLAC The_Gourds-Ghosts_Of_Hallelujah-(MUSA_506)-CD-FLAC-1999-6DM
2022-03-21 17:42:13 TV-HD-DE Emergency.Room.Die.Notaufnahme.S06E15.Instinkt.German.720p.Webrip.x264-TVARCHiV
2022-03-21 17:42:17 MP3 ALLELES-Vardah-(ORANGE178)-WEB-2022-PTC
2022-03-21 17:42:39 MP3 CANCCI-Sereno-(MNS017)-WEB-2022-PTC
2022-03-21 17:44:12 TV-SD-DE Emergency.Room.Die.Notaufnahme.S06E15.Instinkt.German.Webrip.x264.iNTERNAL-TVARCHiV
2022-03-21 17:45:18 FLAC The_Guess_Who-New_Mother_Nature_Live_In_St_Louis_1974-(ECHO2CD2075)-Remastered-2CD-FLAC-2016-6DM
2022-03-21 17:45:20 PRE Linkedin.Learning.Azure.Data.Fundamentals.DP-900.Cert.Prep.Core.Data.Concepts-XQZT
2022-03-21 17:45:45 PRE Linkedin.Learning.C.Essential.Training.2.Generics.Collections.and.LINQ-XQZT
2022-03-21 17:46:24 TV-HD The.Mob.1951.1080p.BluRay.x264-USURY
2022-03-21 17:47:49 TV-HD-DE Emergency.Room.Die.Notaufnahme.S06E16.Unter.Kontrolle.German.1080p.Webrip.x264-TVARCHiV
2022-03-21 17:48:24 TV-HD-NORD Mastarkvalet.S04E01.SWEDiSH.720p.WEB.h264-NORUSH
2022-03-21 17:48:31 TV-HD-NORD Mastarkvalet.S04E01.SWEDiSH.1080p.WEB.h264-NORUSH
2022-03-21 17:50:24 TV-HD-DE Emergency.Room.Die.Notaufnahme.S06E16.Unter.Kontrolle.German.720p.Webrip.x264-TVARCHiV
2022-03-21 17:51:40 TV-X264 Current.1964.720p.BluRay.x264-BiPOLAR
2022-03-21 17:52:24 TV-SD-DE Emergency.Room.Die.Notaufnahme.S06E16.Unter.Kontrolle.German.Webrip.x264.iNTERNAL-TVARCHiV
2022-03-21 17:54:02 TV-X264 Hot.Stuff.1956.720p.BluRay.x264-BiPOLAR
2022-03-21 17:54:39 TV-HD-FR Sabikui.Bisco.E10.CUSTOM.MULTi.1080p.WEB.x264-AMB3R
2022-03-21 17:55:17 TV-HD Current.1964.1080p.BluRay.x264-BiPOLAR
2022-03-21 17:55:48 TV-HD-DE Emergency.Room.Die.Notaufnahme.S06E17.Mit.sofortiger.Wirkung.German.1080p.Webrip.x264-TVARCHiV
2022-03-21 17:55:52 GAMES ITORAH-FLT
2022-03-21 17:58:21 TV-HD-DE Emergency.Room.Die.Notaufnahme.S06E17.Mit.sofortiger.Wirkung.German.720p.Webrip.x264-TVARCHiV
2022-03-21 17:59:23 TV-HD Hot.Stuff.1956.1080p.BluRay.x264-BiPOLAR
2022-03-21 17:59:27 MP3 Idoru-Fascination-(MANTA011)-WEB-2022-PTC
2022-03-21 18:00:01 MP3 King_Jammy--Destroys_The_Virus_With_Dub-(VPGSRL2731)-WEB-2022-BABAS
2022-03-21 18:00:08 MP3 Veytik_and_Maiah-Break_Into_The_Light_EP-(SHNG158)-WEB-2022-PTC
2022-03-21 18:00:26 TV-SD-DE Emergency.Room.Die.Notaufnahme.S06E17.Mit.sofortiger.Wirkung.German.Webrip.x264.iNTERNAL-TVARCHiV
2022-03-21 18:01:29 X264-SD Hot.Stuff.1956.BDRip.x264-BiPOLAR
2022-03-21 18:02:04 X264-SD Venom.Let.There.Be.Carnage.2021.BDRip.x264-BiPOLAR
2022-03-21 18:02:14 TV-HD-IT Archive.81.Universi.Alternativi.S01E01.iTALiAN.1080p.WEB.H264-NTROPiC
2022-03-21 18:03:40 TV-HD-DE Emergency.Room.Die.Notaufnahme.S06E18.Ein.schrecklicher.Irrtum.German.1080p.Webrip.x264-TVARCHiV
2022-03-21 18:03:58 TV-HD-IT Archive.81.Universi.Alternativi.S01E01.iTALiAN.720p.WEB.H264-NTROPiC
2022-03-21 18:04:48 FLAC VA-The_Fabulous_Fifties_Back_To_The_Fifties-(TL_FFC-02)-3CD-FLAC-2003-6DM
2022-03-21 18:05:04 MP3 Bobby_Melody_x_Singie_Singie--Two_Uprising_Stars-(RR00356)-REISSUE-WEB-2015-BABAS
2022-03-21 18:05:49 TV-HD-IT Archive.81.Universi.Alternativi.S01E02.iTALiAN.1080p.WEB.H264-NTROPiC
2022-03-21 18:05:58 MP3 Starvin_B_x_SeasRA23-Sorry_For_Your_Laws-WEB-2022-UVU
2022-03-21 18:06:12 Toziuha.Night.Draculas.Revenge-DARKZER0
2022-03-21 18:06:16 TV-HD-DE Emergency.Room.Die.Notaufnahme.S06E18.Ein.schrecklicher.Irrtum.German.720p.Webrip.x264-TVARCHiV
2022-03-21 18:07:05 TV-HD-IT Archive.81.Universi.Alternativi.S01E02.iTALiAN.720p.WEB.H264-NTROPiC
2022-03-21 18:07:14 APPS XYplorer.v23.00.0000.MULTILINGUAL-CRD
2022-03-21 18:08:25 TV-SD-DE Emergency.Room.Die.Notaufnahme.S06E18.Ein.schrecklicher.Irrtum.German.Webrip.x264.iNTERNAL-TVARCHiV
2022-03-21 18:08:38 TV-HD-IT Archive.81.Universi.Alternativi.S01E03.iTALiAN.1080p.WEB.H264-NTROPiC
2022-03-21 18:09:36 XXX-IMAGESET AmKingdom.com_22.03.21.Babes.Series.23.Softcore.153.Elaina.Raye.XXX.IMAGESET-FuGLi
2022-03-21 18:09:51 TV-HD-IT Archive.81.Universi.Alternativi.S01E03.iTALiAN.720p.WEB.H264-NTROPiC
2022-03-21 18:10:41 XXX-IMAGESET AmKingdom.com_22.03.21.Babes.Series.23.Softcore.153.Kitt.Lacey.XXX.IMAGESET-FuGLi
2022-03-21 18:11:07 TV-HD-IT Archive.81.Universi.Alternativi.S01E04.iTALiAN.1080p.WEB.H264-NTROPiC
2022-03-21 18:11:26 0DAY Vdigger.GetFLV.v30.2203.68.Incl.Keygen.and.Patch-BTCR
2022-03-21 18:11:42 XXX-IMAGESET AmKingdom.com_22.03.21.Babes.Series.23.Softcore.153.Summer.Vixen.XXX.IMAGESET-FuGLi
2022-03-21 18:11:43 TV-HD-DE Emergency.Room.Die.Notaufnahme.S06E19.Zeit.des.Abschieds.German.1080p.Webrip.x264-TVARCHiV
2022-03-21 18:12:29 0DAY Tetraface.Inc.Metasequoia.v4.8.2a.x86.Incl.Keygen-BTCR
2022-03-21 18:12:29 XXX-IMAGESET AmKingdom.com_22.03.21.Babes.Series.23.Softcore.153.Sydney.Paige.XXX.IMAGESET-FuGLi
2022-03-21 18:12:46 TV-HD-IT Archive.81.Universi.Alternativi.S01E04.iTALiAN.720p.WEB.H264-NTROPiC
2022-03-21 18:14:03 TV-HD-DE Emergency.Room.Die.Notaufnahme.S06E19.Zeit.des.Abschieds.German.720p.Webrip.x264-TVARCHiV
2022-03-21 18:14:27 TV-HD-IT Archive.81.Universi.Alternativi.S01E05.iTALiAN.1080p.WEB.H264-NTROPiC
2022-03-21 18:15:26 TV-HD-IT Archive.81.Universi.Alternativi.S01E05.iTALiAN.720p.WEB.H264-NTROPiC
2022-03-21 18:16:07 XXX GirlsOutWest.22.03.21.Billie.Fresh.Air.XXX.1080p.MP4-WRB
2022-03-21 18:16:22 TV-SD-DE Emergency.Room.Die.Notaufnahme.S06E19.Zeit.des.Abschieds.German.Webrip.x264.iNTERNAL-TVARCHiV
2022-03-21 18:16:45 TV-HD-IT Archive.81.Universi.Alternativi.S01E06.iTALiAN.1080p.WEB.H264-NTROPiC
2022-03-21 18:16:56 XXX GirlsOutWest.22.03.21.Billie.Fresh.Air.XXX.2160p.MP4-WRB
2022-03-21 18:17:53 TV-HD-IT Archive.81.Universi.Alternativi.S01E06.iTALiAN.720p.WEB.H264-NTROPiC
2022-03-21 18:19:22 TV-HD-DE Emergency.Room.Die.Notaufnahme.S06E20.Ungeklaerte.Verhaeltnisse.German.1080p.Webrip.x264-TVARCHiV
2022-03-21 18:19:55 TV-HD-IT Archive.81.Universi.Alternativi.S01E07.iTALiAN.1080p.WEB.H264-NTROPiC
2022-03-21 18:21:02 TV-HD-IT Archive.81.Universi.Alternativi.S01E07.iTALiAN.720p.WEB.H264-NTROPiC
2022-03-21 18:21:38 TV-HD-DE Emergency.Room.Die.Notaufnahme.S06E20.Ungeklaerte.Verhaeltnisse.German.720p.Webrip.x264-TVARCHiV
2022-03-21 18:22:10 TV-HD-IT Archive.81.Universi.Alternativi.S01E08.iTALiAN.1080p.WEB.H264-NTROPiC
2022-03-21 18:22:57 TV-HD-IT Archive.81.Universi.Alternativi.S01E08.iTALiAN.720p.WEB.H264-NTROPiC
2022-03-21 18:23:39 TV-SD-DE Emergency.Room.Die.Notaufnahme.S06E20.Ungeklaerte.Verhaeltnisse.German.Webrip.x264.iNTERNAL-TVARCHiV
2022-03-21 18:24:43 GAMES Symbol.Games.Horror.Bundle-DARKSiDERS
2022-03-21 18:26:53 TV-HD-DE Emergency.Room.Die.Notaufnahme.S06E21.Die.eine.grosse.Liebe.German.1080p.Webrip.x264-TVARCHiV
2022-03-21 18:28:15 0DAY Modern.CSV.v1.3.35.x64.Incl.Keygen-BTCR
2022-03-21 18:28:37 TV-HD-IT Gli.Ultimi.Giorni.Di.Tolomeo.Grey.S01E03.iTALiAN.720p.WEB.H264-NTROPiC
2022-03-21 18:29:15 TV-HD-DE Emergency.Room.Die.Notaufnahme.S06E21.Die.eine.grosse.Liebe.German.720p.Webrip.x264-TVARCHiV
2022-03-21 18:31:12 XXX AbbieMaley.22.03.21.Slip.And.Slide.In.This.Pussy.XXX.1080p.MP4-WRB
2022-03-21 18:31:15 TV-SD-DE Emergency.Room.Die.Notaufnahme.S06E21.Die.eine.grosse.Liebe.German.Webrip.x264.iNTERNAL-TVARCHiV
2022-03-21 18:32:08 TV-HD-IT Gli.Ultimi.Giorni.Di.Tolomeo.Grey.S01E03.iTALiAN.1080p.WEB.H264-NTROPiC
2022-03-21 18:32:35 XXX Mom4K.22.03.21.Pristine.Edge.The.Real.Thing.XXX.1080p.MP4-WRB
2022-03-21 18:34:13 XXX Analized.22.03.20.London.River.Back.Door.Pleasure.XXX.1080p.MP4-WRB
2022-03-21 18:34:34 TV-HD-DE Emergency.Room.Die.Notaufnahme.S06E22.May.Day.German.1080p.Webrip.x264-TVARCHiV
2022-03-21 18:36:03 MP3 VA-Essential_Electronica_Vol._14-(LWEE14)-WEB-2022-COS
2022-03-21 18:36:06 XXX SlutInspection.22.03.18.Luna.Lovely.Husband.Fucks.Lunas.Ass.I.Fist.Her.Pussy.XXX.1080p.MP4-WRB
2022-03-21 18:37:01 MP3 VA-Essential_Leftfield_Bass_Vol._04-(LWELB04)-WEB-2022-COS
2022-03-21 18:37:10 TV-HD-DE Emergency.Room.Die.Notaufnahme.S06E22.May.Day.German.720p.Webrip.x264-TVARCHiV
2022-03-21 18:37:54 MP3 Al-Dos_Band--Doing_Our_Thing_With_Pride-(KALITALP006)-REISSUE-WEB-2021-BABAS
2022-03-21 18:37:55 MP3 VA-Essential_Leftfield_Bass_Vol._05-(LWELB05)-WEB-2022-COS
2022-03-21 18:38:00 TV-HD-NORD 2.Doegn.S01E01.DANiSH.1080p.WEB.H264-TOOSA
2022-03-21 18:38:19 MP3 Darryl_Douglas_Inc--Holding_On-(KALITA12003)-REISSUE-WEB-2018-BABAS
2022-03-21 18:38:46 MP3 Jivaro--Saturday_Fever-(KALITALP007)-REISSUE-WEB-2022-BABAS
2022-03-21 18:38:47 MP3 VA-Melodic_Techno_Selections_Vol._14-(LWMTS14)-WEB-2022-COS
2022-03-21 18:39:01 TV-HD-NORD 2.Doegn.S01E02.DANiSH.1080p.WEB.H264-TOOSA
2022-03-21 18:39:12 MP3 Kallaloo--Star_Child-(KALITA12007)-REISSUE-WEB-2018-BABAS
2022-03-21 18:39:35 TV-SD-DE Emergency.Room.Die.Notaufnahme.S06E22.May.Day.German.Webrip.x264.iNTERNAL-TVARCHiV
2022-03-21 18:39:37 MP3 Marcy_Luarks_x_Classic_Touch--Electric_Murder-(KALITALP005)-REISSUE-WEB-2020-BABAS
2022-03-21 18:39:38 MP3 VA-Soothing_Concentration_013-(HOTQSCON013)-WEB-2022-COS
2022-03-21 18:40:02 TV-HD-NORD 2.Doegn.S01E03.DANiSH.1080p.WEB.H264-TOOSA
2022-03-21 18:40:03 MP3 Orquestra_Afro-Brasileira--80_Anos-(DD002)-WEB-2021-BABAS
2022-03-21 18:40:28 MP3 VA-Soothing_Concentration_014-(HOTQSCON014)-WEB-2022-COS
2022-03-21 18:40:29 MP3 Randolph_Baker--Getting_Next_To_You-(KALITA12004)-REISSUE-WEB-2018-BABAS
2022-03-21 18:40:55 MP3 Trinity--Dreadlocks_Satisfaction-(BSILP59)-WEB-1979-BABAS
2022-03-21 18:41:04 TV-HD-NORD 2.Doegn.S01E04.DANiSH.1080p.WEB.H264-TOOSA
2022-03-21 18:41:18 MP3 VA-Underground_House_Vol._05-(LWUHOUSE05)-WEB-2022-COS
2022-03-21 18:41:24 MP3 VA-Pura_Vida_Presents_Beach_Diggin_Volume_4-(HS154CD)-WEB-2016-BABAS_INT
2022-03-21 18:41:47 TV-HD-IT Gli.Ultimi.Giorni.Di.Tolomeo.Grey.S01E03.iTALiAN.HDR.2160p.WEB.H265-NTROPiC
2022-03-21 18:42:07 MP3 VA-Warehouse_Techno_Vol._07-(LWWT07)-WEB-2022-COS
2022-03-21 18:42:07 TV-HD-NORD 2.Doegn.S01E05.DANiSH.1080p.WEB.H264-TOOSA
2022-03-21 18:42:57 MP3 VA-Warehouse_Techno_Vol._08-(LWWT08)-WEB-2022-COS
2022-03-21 18:43:09 TV-HD-NORD 2.Doegn.S01E06.DANiSH.1080p.WEB.H264-TOOSA
2022-03-21 18:44:36 TV-HD-NORD 2.Doegn.S01E01.DANiSH.720p.WEB.H264-TOOSA
2022-03-21 18:45:11 GAMES Born.Into.Fear-DOGE
2022-03-21 18:45:39 TV-HD-NORD 2.Doegn.S01E02.DANiSH.720p.WEB.H264-TOOSA
2022-03-21 18:45:42 GAMES Orbital.Bullet.The.360o.Rogue.Lite-TiNYiSO
2022-03-21 18:46:42 TV-HD-NORD 2.Doegn.S01E03.DANiSH.720p.WEB.H264-TOOSA
2022-03-21 18:47:45 TV-HD-NORD 2.Doegn.S01E04.DANiSH.720p.WEB.H264-TOOSA
2022-03-21 18:48:10 0DAY LSoft.Active.Undelete.Ultimate.v19.0.0-BTCR
2022-03-21 18:48:47 TV-HD-NORD 2.Doegn.S01E05.DANiSH.720p.WEB.H264-TOOSA
2022-03-21 18:49:50 TV-HD-NORD 2.Doegn.S01E06.DANiSH.720p.WEB.H264-TOOSA
2022-03-21 18:51:40 MP3 H.LA_DROGUE-Beretta-WEB-FR-2022-OND
2022-03-21 18:53:05 MP3 The_Cool_Kids-Sir_Michael_Rocks-Chuck_Inglish-Baby_Oil_Staircase-Chillout-WEB-2022-UVU
2022-03-21 18:53:23 MP3 Saamou_Skuu-French_Drill_6_(Feat_La_F)-SINGLE-WEB-FR-2022-OND
2022-03-21 18:57:49 TV-SD-FR Close.to.Me.S01E01.FRENCH.WEB.H264-FREAMON
2022-03-21 18:59:05 MP3 Annie_.adaa-QANMJ-WEB-FR-2022-OND
2022-03-21 19:00:54 TV-X264 Fantasia.Sango.Realm.of.Legends.S01E11.1080p.WEB.H264-SUGOI
2022-03-21 19:02:13 0DAY NeuxPower.NXPowerLite.Desktop.v9.1.4.Incl.Keygen-BTCR
2022-03-21 19:02:56 TV-HD-DE Candice.Renoir.S06E02.German.720p.WebHD.h264-FKKTV
2022-03-21 19:03:40 TV-HD-DE Candice.Renoir.S06E03.German.720p.WebHD.h264-FKKTV
2022-03-21 19:04:21 TV-HD-DE Candice.Renoir.S06E04.German.720p.WebHD.h264-FKKTV
2022-03-21 19:05:03 TV-HD-DE Candice.Renoir.S06E05.German.720p.WebHD.h264-FKKTV
2022-03-21 19:05:45 TV-HD-DE Candice.Renoir.S06E06.German.720p.WebHD.h264-FKKTV
2022-03-21 19:06:25 0DAY Markdown.Monster.v2.4.6.0-CRD
2022-03-21 19:06:29 TV-HD-DE Candice.Renoir.S06E07.German.720p.WebHD.h264-FKKTV
2022-03-21 19:07:10 TV-HD-DE Candice.Renoir.S06E08.German.720p.WebHD.h264-FKKTV
2022-03-21 19:07:32 MP3 VA-Spring_Vibes_2022_The_Most_Emotional_Sounds_by_Hoop_Records-WEB-2022-FERDA
2022-03-21 19:07:53 TV-HD-DE Candice.Renoir.S06E09.German.720p.WebHD.h264-FKKTV
2022-03-21 19:08:35 TV-HD-DE Candice.Renoir.S06E10.German.720p.WebHD.h264-FKKTV
2022-03-21 19:10:56 MP3 VA-Commuters_Collection_015-WEB-2022-FERDA
2022-03-21 19:11:56 TV-X264 Adam.Eats.the.80s.S01E05.Lost.Foods.720p.WEB.h264-KOMPOST
2022-03-21 19:12:07 APPS Link-Assistant.Rank.Tracker.Entreprise.v8.42.x64.Multilingual-NGEN
2022-03-21 19:12:18 TV-X264 How.the.Universe.Works.S10E03.Hunt.for.Dark.Matter.720p.WEB.h264-KOMPOST
2022-03-21 19:12:39 TV-HD How.the.Universe.Works.S10E03.Hunt.for.Dark.Matter.1080p.WEB.h264-KOMPOST
2022-03-21 19:13:00 TV-X264 On.the.Case.with.Paula.Zahn.S24E05.FLRT.12.720p.WEB.h264-KOMPOST
2022-03-21 19:13:08 MP3 Hard_To_Tell--Global_Mind-(POH003)-WEB-2021-YALLA
2022-03-21 19:13:12 0DAY Diamond.Cut.Forensics10.Audio.Laboratory.v10.80-CRD
2022-03-21 19:13:21 TV-HD On.the.Case.with.Paula.Zahn.S24E05.FLRT.12.1080p.WEB.h264-KOMPOST
2022-03-21 19:13:34 MP3 Stavroz--Wintergreen-(MF032SIN1B)-SINGLE-WEB-2022-YALLA
2022-03-21 19:13:42 TV-X264 The.Food.That.Built.America.S03E04.A.Dish.Best.Served.Soft.720p.WEB.h264-KOMPOST
2022-03-21 19:14:03 TV-X264 Unexpected.S05E03.Breast.Milk.Pancackes.720p.WEB.h264-KOMPOST
2022-03-21 19:14:23 TV-HD Unexpected.S05E03.Breast.Milk.Pancackes.1080p.WEB.h264-KOMPOST
2022-03-21 19:15:19 MP3 VA-King_Of_Club_Night-WEB-2022-FERDA
2022-03-21 19:18:38 MP3 Above_and_Beyond_-_Group_Therapy_476__Incl_Kasablanca_Guestmix-SAT-03-20-2022-TALiON
2022-03-21 19:19:09 MP3 Alex_Ricci_-_La_Verita-WEB-IT-2021-iDC
2022-03-21 19:19:30 MP3 VA-Dubai_Essentials_Vol._5-WEB-2022-FERDA
2022-03-21 19:20:48 TV-HD Herself.2020.1080p.BluRay.x264-SCARE
2022-03-21 19:21:07 FLAC VA-The_Fabulous_Fifties_Unforgettable_Fifties-(TL_FFC-03)-3CD-FLAC-2003-6DM
2022-03-21 19:21:28 MP3 VA-Wellness_Mix_2022-24_Dance_Music_Hits_for_Heat_Up_Your_Day-WEB-2022-FERDA
2022-03-21 19:22:39 TV-SD-IT The.Walking.Dead.S11E13.iTALiAN.WEB.H264-NTROPiC
2022-03-21 19:22:42 TV-X264 Herself.2020.720p.BluRay.x264-SCARE
2022-03-21 19:24:06 X264-SD Herself.2020.BDRip.x264-SCARE
2022-03-21 19:25:57 BLURAY-FULL Herself.2020.COMPLETE.BLURAY-INCUBO
2022-03-21 19:26:49 TV-HD-IT The.Walking.Dead.S11E13.iTALiAN.720p.WEB.H264-NTROPiC
2022-03-21 19:28:29 0DAY WisdomSoft.ScreenHunter.Pro.v7.0.1279.Incl.Keygen-BTCR
2022-03-21 19:30:00 TV-HD-IT The.Walking.Dead.S11E13.iTALiAN.1080p.WEB.H264-NTROPiC
2022-03-21 19:36:15 APPS Link-Assistant.Rank.Tracker.Entreprise.v8.42.Linux.Multilingual-NGEN
2022-03-21 19:37:18 APPS Link-Assistant.Rank.Tracker.Entreprise.v8.42.MacOSX.Multilingual-NGEN
2022-03-21 19:46:09 MP3 Hildegard-Hildegard_Meets_Music-SAT-20-03-2022-1KING
2022-03-21 19:48:04 TV-HD-NORD Lyxfallan.S31E08.DIRFIX.SWEDiSH.720p.WEB.h264-NORUSH
2022-03-21 19:48:09 TV-HD-NORD Lyxfallan.S31E08.DIRFIX.SWEDiSH.1080p.WEB.h264-NORUSH
2022-03-21 19:50:03 MP3 Akwaaba--Do_It_Tomorrow-(DISCD001)-WEB-2020-BABAS_INT
2022-03-21 19:50:29 MP3 Black_Jesus_Experience--Yeluinta-(BJX03)-WEB-2011-BABAS
2022-03-21 19:50:55 MP3 Brief_Work_x_The_Maghreban--Jump-(BRIEFWORK1)-WEB-2021-BABAS
2022-03-21 19:51:21 MP3 Bubbha_Thomas_x_The_Lightmen--Country_Fried_Chicken-(NA5158)-REISSUE-WEB-2018-BABAS
2022-03-21 19:51:47 MP3 Heem_the_Music_Monsters--Keep_God_On_Your_Side-(SDE33)-WEB-2018-BABAS
2022-03-21 19:52:14 MP3 Space_Dimension_Controller--Mansion_96-(TQN003SBP)-SINGLE-WEB-2022-BABAS
2022-03-21 19:52:39 MP3 Space_Dimension_Controller--Welcome_To_Mikrosector-50-(RS1303D)-WEB-2013-BABAS_INT
2022-03-21 19:53:05 MP3 Spiteri--Night_Time_Love_Affair_(Remixes)-(IMAGENES114)-WEB-2021-BABAS
2022-03-21 19:53:31 MP3 Supreme_Love_Gods--We_Are_All_Together_(The_Phenomenal_Handclap_Band_Remix)-SINGLE-WEB-2021-BABAS_INT
2022-03-21 19:53:57 MP3 Teis_Ortved--Parks_At_Night-(BAT003)-WEB-2021-BABAS
2022-03-21 19:54:23 MP3 The_Horses--Acid_Village-(MODEP003)-WEB-2011-BABAS
2022-03-21 19:54:50 MP3 The_Horses--The_Real_Acid_Village_EP-(JAZZMIN016)-WEB-2012-BABAS
2022-03-21 19:55:15 MP3 The_Motion_Orchestra--All_One-(BAT006)-WEB-2021-BABAS
2022-03-21 19:55:41 MP3 Tush--Fantast-(DR089LP)-WEB-2021-BABAS
2022-03-21 19:56:07 MP3 United_Spiritual_Singers--Not_A_Minute_Too_Late-(ATH105)-WEB-2021-BABAS
2022-03-21 19:56:34 MP3 VA-Lowdown_Fever_EP_1-(BAT12003)-WEB-2020-BABAS
2022-03-21 19:57:00 MP3 VA-Motor_Jazz_Them_To_Us-(BAT001X)-WEB-2020-BABAS
2022-03-21 19:57:26 MP3 Vast_Voyage--Music_Inspired_By_Space_Tourism_EP1-(BATDDS003)-WEB-2020-BABAS
2022-03-21 19:57:33 DVDR Aviator.2004.German.DL.COMPLETE.PAL.DVD9-HYPNOKROETE
2022-03-21 19:57:50 MP3 Vast_Voyage--Music_Inspired_By_Space_Tourism_EP2-(BATDDS005)-WEB-2020-BABAS
2022-03-21 19:58:17 MP3 YellowLight--Be_Lonely-(ISM107X)-WEB-2021-BABAS
2022-03-21 19:58:39 MP3 Mila_Anatoli--Too_Late__Kathy-(STLK003)-WEB-2020-BABAS
2022-03-21 19:59:06 MP3 Syrian--Alternate_and_Remixed_02-WEB-2016-BABAS
2022-03-21 20:01:19 TV-X264 Wozniacki.and.Lee.S01E01.New.Beginnings.720p.WEB.h264-B2B
2022-03-21 20:01:51 TV-HD Wozniacki.and.Lee.S01E01.New.Beginnings.1080p.WEB.h264-B2B
2022-03-21 20:02:26 TV-X264 Wozniacki.and.Lee.S01E02.Olympic.Blues.720p.WEB.h264-B2B
2022-03-21 20:02:58 TV-HD Wozniacki.and.Lee.S01E02.Olympic.Blues.1080p.WEB.h264-B2B
2022-03-21 20:06:12 DVDR Big.Mamas.Haus.2000.German.DL.COMPLETE.PAL.DVD9-HYPNOKROETE
2022-03-21 20:06:32 TV-X264 MLB.Spring.Training.2022.03.20.St.Louis.Cardinals.vs.New.York.Mets.720p.WEB.h264-SPORTSNET
2022-03-21 20:06:59 MP3 AIWAA-Sufi-(CA082)-WEB-2022-PTC
2022-03-21 20:07:30 MP3 DJ_Dextro-Best_Of_2021-(NLLPD99)-WEB-2022-PTC
2022-03-21 20:07:59 X264-HD-DE Die.Abbotts.Wenn.Hass.die.Liebe.toetet.1997.GERMAN.DL.720p.WEB.h264-WiSHTV
2022-03-21 20:08:00 MP3 Ruckus_and_Osmosis-Cycles-(OLR022)-WEB-2022-PTC
2022-03-21 20:08:47 MP3 The_Outsiders-Be_Here-(GLCYCOMP004D)-SINGLE-WEB-2022-PTC
2022-03-21 20:09:23 XXX Anal.Indulgence.2.XXX.DVDRiP.X264-LOVEXXX
2022-03-21 20:13:28 TV-HD-DE Candice.Renoir.S07E02.German.1080p.WebHD.h264-FKKTV
2022-03-21 20:14:22 TV-HD-DE Candice.Renoir.S07E03.German.1080p.WebHD.h264-FKKTV
2022-03-21 20:14:48 XXX Asses.Galore.DiSC5.XXX.DVDRiP.X264-LOVEXXX
2022-03-21 20:15:04 DVDR Bullets.Blood.and.a.Fistful.of.Cash.2006.German.DL.COMPLETE.PAL.DVD9-HYPNOKROETE
2022-03-21 20:15:14 TV-HD-DE Candice.Renoir.S07E04.German.1080p.WebHD.h264-FKKTV
2022-03-21 20:16:00 X264-HD-NORD Foer.Frosten.2018.DANiSH.1080p.WEB.H264-TOOSA
2022-03-21 20:16:08 TV-HD-DE Candice.Renoir.S07E05.German.1080p.WebHD.h264-FKKTV
2022-03-21 20:16:27 MP3 Dan_Baird_and_Homemade_Sin-Dan_Baird_and_Homemade_Sin-WEB-2014-TERSE_INT
2022-03-21 20:17:04 TV-HD-DE Candice.Renoir.S07E06.German.1080p.WebHD.h264-FKKTV
2022-03-21 20:17:21 X264-HD-NORD Foer.Frosten.2018.DANiSH.720p.WEB.H264-TOOSA
2022-03-21 20:17:57 TV-HD-DE Candice.Renoir.S07E07.German.1080p.WebHD.h264-FKKTV
2022-03-21 20:18:49 TV-HD-DE Candice.Renoir.S07E08.German.1080p.WebHD.h264-FKKTV
2022-03-21 20:19:43 TV-HD-DE Candice.Renoir.S07E09.German.1080p.WebHD.h264-FKKTV
2022-03-21 20:20:39 TV-HD-DE Candice.Renoir.S07E10.German.1080p.WebHD.h264-FKKTV
2022-03-21 20:23:52 MP3 Gene_Clark-Blue_All_Day-WEB-2021-TERSE
2022-03-21 20:29:45 TV-X264 F1.Talks.S01E02.720p.WEB.h264-B2B
2022-03-21 20:30:18 TV-X264 F1.Talks.S01E02.1080p.WEB.h264-B2B
2022-03-21 20:30:31 MP3 DJ_Alex_Funk-Gangsta_Funk_2-CD-2019-RAGEMP3
2022-03-21 20:30:46 FLAC DJ_Alex_Funk-Gangsta_Funk_2-CD-FLAC-2019-RAGEFLAC
2022-03-21 20:30:46 TV-HD-PL The.Wheel.Of.Time.S01E01.POLiSH.1080p.WEB.H264-CHOPiN
2022-03-21 20:30:52 TV-X264 F1.Talks.S01E01.720p.WEB.h264-B2B
2022-03-21 20:31:04 MP3 Gene_Clark-Gene_Clark_Live_At_Ebbets_Field_Denver_vol._1-WEB-2022-TERSE
2022-03-21 20:31:26 TV-X264 F1.Talks.S01E01.1080p.WEB.h264-B2B
2022-03-21 20:32:15 MP3 Gene_Clark-Gene_Clark_Live_At_Ebbets_Field_Denver_vol._2-WEB-2022-TERSE
2022-03-21 20:32:47 MP3 Barnaby_Bruce--On_The_Continent_EP-(PAC006)-WEB-2016-BABAS
2022-03-21 20:33:12 MP3 Barnaby_Bruce--This_Time_Around-(PAC001)-WEB-2019-BABAS
2022-03-21 20:33:39 MP3 Carrie_Riley_x_The_Fascinations--Living_In_A_Lonesome_House_Without_You__Super_Cool-(SR011)-REISSUE-WEB-2021-BABAS
2022-03-21 20:33:57 MP3 Gene_Clark-Gene_Clark_Live_At_The_Rocking_Horse_Saloon_Part_One-WEB-2022-TERSE
2022-03-21 20:34:05 MP3 Mallorquin--Slow_Hot_Confetti-(PAC002)-WEB-2015-BABAS
2022-03-21 20:34:31 MP3 Masanori_Ikeda--Afro_Tipsy-(PAC003)-WEB-2015-BABAS
2022-03-21 20:34:57 MP3 Max_Essa--Blame_It_On_Rea-(PAC005)-WEB-2016-BABAS
2022-03-21 20:35:23 MP3 Raj_Nemmah--Sin_Miedo__Eat_Us_Up_(Barnaby_Bruce_Remixes)-(PACD001)-WEB-2017-BABAS
2022-03-21 20:35:30 TV-HD-PL The.Wheel.Of.Time.S01E01.POLiSH.720p.WEB.H264-CHOPiN
2022-03-21 20:35:42 MP3 Gene_Clark-Gene_Clark_Live_At_The_Rocking_Horse_Saloon_Part_Two-WEB-2022-TERSE
2022-03-21 20:35:49 MP3 VA-The_Key_To_Our_Love_Vol_1-(KTOL001)-WEB-2020-BABAS
2022-03-21 20:36:01 TV-X264 March.S01E07.1080p.WEB.h264-KOGi
2022-03-21 20:36:14 MP3 Yazz_Ahmed--Polyhymnia_Remixed-WEB-2020-BABAS
2022-03-21 20:38:01 MP3 Gene_Clark-Gene_Clark_Live_Radio_Broadcasts_And_Demos-WEB-2022-TERSE
2022-03-21 20:38:05 TV-HD-PL The.Wheel.Of.Time.S01E02.POLiSH.1080p.WEB.H264-CHOPiN
2022-03-21 20:39:20 X264-HD Step.Into.The.Movies.with.Derek.and.Julianne.Hough.2022.1080p.WEB.h264-KOGi
2022-03-21 20:39:58 TV-X264 Step.Into.The.Movies.with.Derek.and.Julianne.Hough.2022.720p.WEB.h264-KOGi
2022-03-21 20:39:59 MP3 Gene_Clark-Live_in_Palomino_1982_Part_One_(Live)-WEB-2020-TERSE
2022-03-21 20:40:32 TV-HD-PL The.Wheel.Of.Time.S01E02.POLiSH.720p.WEB.H264-CHOPiN
2022-03-21 20:40:44 X264-HD An.Audience.with.Adele.2021.1080p.WEB.h264-KOGi
2022-03-21 20:41:27 TV-X264 An.Audience.with.Adele.2021.720p.WEB.h264-KOGi
2022-03-21 20:43:12 TV-HD-PL The.Wheel.Of.Time.S01E03.POLiSH.1080p.WEB.H264-CHOPiN
2022-03-21 20:43:41 MP3 Gene_Clark-Live_in_Palomino_1982_Part_Two_(Live)-WEB-2020-TERSE
2022-03-21 20:43:43 X264-HD Flee.2021.SUBBED.1080p.WEB.h264-RUMOUR
2022-03-21 20:45:37 TV-HD-PL The.Wheel.Of.Time.S01E03.POLiSH.720p.WEB.H264-CHOPiN
2022-03-21 20:48:19 TV-HD-PL The.Wheel.Of.Time.S01E04.POLiSH.1080p.WEB.H264-CHOPiN
2022-03-21 20:49:31 MP3 Gene_Clark-Live_in_Westboro_1988_(Live)-WEB-2020-TERSE
2022-03-21 20:52:11 MP3 Gene_Clark-No_Other_(Deluxe_Edition)-WEB-2019-TERSE
2022-03-21 20:53:26 TV-HD-PL The.Wheel.Of.Time.S01E04.POLiSH.720p.WEB.H264-CHOPiN
2022-03-21 20:55:17 X264-HD In.Good.Hands.2022.1080p.WEB.h264-KOGi
2022-03-21 20:55:21 MP3 Gene_Clark-Running_The_Road_Blocks_(Live)-WEB-2020-TERSE
2022-03-21 20:55:57 TV-X264 In.Good.Hands.2022.720p.WEB.h264-KOGi
2022-03-21 20:56:04 TV-HD-PL The.Wheel.Of.Time.S01E05.POLiSH.1080p.WEB.H264-CHOPiN
2022-03-21 20:57:23 MP3 Gene_Clark-Silver_Raven_(Live)-WEB-2020-TERSE
2022-03-21 20:58:47 TV-HD-PL The.Wheel.Of.Time.S01E05.POLiSH.720p.WEB.H264-CHOPiN
2022-03-21 20:59:27 X265 The.Godfather.1972.MULTi.2160p.UHD.BluRay.x265-SESKAPiLE
2022-03-21 20:59:54 MP3 Gene_Clark-The_AandM_And_RSO_Years-WEB-2020-TERSE
2022-03-21 21:01:08 MP3 Gene_Clark-The_Four_Walls_(Live)-WEB-2020-TERSE
2022-03-21 21:02:04 TV-HD-PL The.Wheel.Of.Time.S01E06.POLiSH.1080p.WEB.H264-CHOPiN
2022-03-21 21:03:04 MP3 VA-Swiss_Top_100_Single_Charts_20.03.2022-AUDiAL_iNT
2022-03-21 21:03:34 MP3 Gene_Clark-The_Waiting_Game-WEB-2020-TERSE
2022-03-21 21:05:44 MP3 Gene_Clark-Tinged_With_Hysteria-WEB-2020-TERSE
2022-03-21 21:05:49 TV-HD-PL The.Wheel.Of.Time.S01E06.POLiSH.720p.WEB.H264-CHOPiN
2022-03-21 21:07:43 EBOOK UDEMY.Deep.Web.The.Complete.Introduction.to.the.Hidden.Web.BOOKWARE-iLEARN
2022-03-21 21:08:02 TV-HD-PL The.Wheel.Of.Time.S01E07.POLiSH.1080p.WEB.H264-CHOPiN
2022-03-21 21:11:08 MP3 Simone_Sommerland_Karsten_Glueck_Die_Kita-Froesche-Die_30_Besten_Oster-_und_Fruehlingslieder_2-WEB-DE-2022-VOiCE
2022-03-21 21:11:28 TV-HD-PL The.Wheel.Of.Time.S01E07.POLiSH.720p.WEB.H264-CHOPiN
2022-03-21 21:14:04 TV-HD-PL The.Wheel.Of.Time.S01E08.POLiSH.1080p.WEB.H264-CHOPiN
2022-03-21 21:16:52 TV-HD-PL The.Wheel.Of.Time.S01E08.POLiSH.720p.WEB.H264-CHOPiN
2022-03-21 21:18:13 0DAY RecoveryTools.Contacts.CSV.Converter.v4.3.Incl.Keygen-BTCR
2022-03-21 21:19:01 MP3 Gene_Clark-Tomorrow_Is_A_Long_Time_(Live)-WEB-2020-TERSE
2022-03-21 21:19:15 0DAY RecoveryTools.Email.Backup.Wizard.v12.5.Incl.Keygen-BTCR
2022-03-21 21:20:18 0DAY RecoveryTools.Gmail.Backup.Wizard.v6.3.Incl.Keygen-BTCR
2022-03-21 21:21:21 0DAY RecoveryTools.Kerio.Migrator.v11.0.Incl.Keygen-BTCR
2022-03-21 21:22:24 0DAY RecoveryTools.Lotus.Notes.Migrator.v6.8.Incl.Keygen-BTCR
2022-03-21 21:23:26 0DAY RecoveryTools.MDaemon.Migrator.v10.0.Incl.Keygen-BTCR
2022-03-21 21:24:29 0DAY RecoveryTools.Windows.10.Mail.App.Migrator.v4.1.Incl.Keygen-BTCR
2022-03-21 21:25:24 TV-SDRIP The.Repair.Shop.S02E01.DVDRip.x264-TURBO
2022-03-21 21:26:04 0DAY RecoveryTools.Windows.Live.Mail.Migrator.v4.5.Incl.Keygen-BTCR
2022-03-21 21:26:24 TV-SDRIP The.Repair.Shop.S02E02.DVDRip.x264-TURBO
2022-03-21 21:26:42 MP3 Big_Miz--Fools_Mate-(AUS1721)-SiNGLE-WEB-2022-OMA
2022-03-21 21:26:48 MP3 Gene_Clark-Turn_Turn_Turn_(Live)-WEB-2020-TERSE
2022-03-21 21:27:06 0DAY RecoveryTools.Zimbra.Migrator.v10.0.Incl.Keygen-BTCR
2022-03-21 21:27:27 TV-X264 Married.At.First.Sight.AU.S09E30.1080p.HDTV.H264-CBFM
2022-03-21 21:27:33 TV-SDRIP The.Repair.Shop.S02E03.DVDRip.x264-TURBO
2022-03-21 21:27:37 TV-X264 Survivor.AU.S09E20.1080p.HDTV.H264-CBFM
2022-03-21 21:28:38 TV-SDRIP The.Repair.Shop.S02E04.DVDRip.x264-TURBO
2022-03-21 21:29:31 MDVDR The.Casualties.Made.In.N.Y.C.2007.NTSC.MDVDR-gFViD
2022-03-21 21:29:41 TV-SDRIP The.Repair.Shop.S02E05.DVDRip.x264-TURBO
2022-03-21 21:30:12 MP3 Bobby_Lee_and_Mia_Doi_Todd--Walking_With_Trees_(Remixes)-WEB-2022-OMA
2022-03-21 21:30:40 MP3 Georgia_Satellites-Georgia_Satellites-WEB-1986-TERSE_INT
2022-03-21 21:30:49 TV-SDRIP The.Repair.Shop.S02E06.DVDRip.x264-TURBO
2022-03-21 21:31:38 MP3 Mark_Hawkins--Chimera-(AUS1741)-SiNGLE-WEB-2022-OMA
2022-03-21 21:31:57 TV-SDRIP The.Repair.Shop.S02E07.DVDRip.x264-TURBO
2022-03-21 21:32:11 TV-X264 Alle.Mot.Alle.S04E37.NORWEGiAN.720p.HDTV.x264-NORPiLT
2022-03-21 21:32:25 MP3 Georgia_Satellites-Lightnin_in_a_Bottle_The_Official_Live_Album-WEB-2022-TERSE
2022-03-21 21:32:41 MP3 Mark_Hawkins--Shibuya-(AUS1742)-SiNGLE-WEB-2022-OMA
2022-03-21 21:33:05 TV-SDRIP The.Repair.Shop.S02E08.DVDRip.x264-TURBO
2022-03-21 21:34:12 MP3 Nils_Wogram_Nostalgia--Things_We_Like_To_Hear-WEB-2019-OMA
2022-03-21 21:34:13 TV-SDRIP The.Repair.Shop.S02E09.DVDRip.x264-TURBO
2022-03-21 21:35:01 MP3 Georgia_Satellites-Live_in_New_York_1988_-_FM_Radio_Broadcast-WEB-2015-TERSE_INT
2022-03-21 21:35:22 TV-SDRIP The.Repair.Shop.S02E10.DVDRip.x264-TURBO
2022-03-21 21:35:40 MP3 Nils_Wogram--Bright_Lights-WEB-2020-OMA
2022-03-21 21:35:52 TV-X264 Panorama.2022.03.21.1080p.HDTV.H264-DEADPOOL
2022-03-21 21:36:31 MP3 EinKa--Eternal_Flame-(GMND040)-WEB-2022-BABAS
2022-03-21 21:36:32 TV-SDRIP The.Repair.Shop.S02E11.DVDRip.x264-TURBO
2022-03-21 21:36:51 MP3 Dan_Baird_And_Homemade_Sin-Circus_Life-CD-2013-6DM
2022-03-21 21:36:58 MP3 EinKa--Meantime-(GMND002)-WEB-2012-BABAS
2022-03-21 21:37:23 MP3 Fonos--Squared_Orbits-(GMNV002)-WEB-2013-BABAS
2022-03-21 21:37:38 TV-SDRIP The.Repair.Shop.S02E12.DVDRip.x264-TURBO
2022-03-21 21:37:48 MP3 Ian_Simmonds--The_Right_Side_Of_Kind-(GMNLP002)-WEB-2015-BABAS
2022-03-21 21:38:14 MP3 K_Alexi_Shelby--Compute-(GMND010)-WEB-2014-BABAS
2022-03-21 21:38:41 MP3 Ken_Hayakawa--Synthesize_Me-(GMNV001)-WEB-2012-BABAS
2022-03-21 21:38:46 TV-SDRIP The.Repair.Shop.S02E13.DVDRip.x264-TURBO
2022-03-21 21:38:47 MP3 Gourds-All_The_Labor_The_Soundtrack-WEB-2014-TERSE
2022-03-21 21:38:52 MP3 Vanessa_Amorosi-City_Of_Angels-WEB-2022-VOiCE
2022-03-21 21:38:56 MP3 Gene_Clark-White_Light-REISSUE-CD-2002-6DM
2022-03-21 21:39:07 MP3 Lemakuhlar--Far_Away-(GMND003)-WEB-2013-BABAS
2022-03-21 21:39:33 MP3 Major_Impact--Catch_Up_With_Me-(GMNSP0091)-WEB-2017-BABAS
2022-03-21 21:39:54 MP3 Sea_Girls--Homesick_(Deluxe)-WEB-2022-OMA
2022-03-21 21:39:54 TV-SDRIP The.Repair.Shop.S02E14.DVDRip.x264-TURBO
2022-03-21 21:40:00 MP3 Major_Impact--Until_The_Next_Time-(GMNSP0092)-WEB-2017-BABAS
2022-03-21 21:40:26 MP3 Maskim--Voute_Celeste-(GMND007)-WEB-2013-BABAS
2022-03-21 21:40:31 MP3 Guy_King-Joy_Is_Coming-WEB-2021-TERSE
2022-03-21 21:40:51 MP3 Peter_Clamat--Blank-(GMND005)-WEB-2013-BABAS
2022-03-21 21:41:00 MP3 Guy_King-Truth-CD-2016-6DM
2022-03-21 21:41:06 TV-SDRIP The.Repair.Shop.S02E15.DVDRip.x264-TURBO
2022-03-21 21:41:17 MP3 Thomas_Marlow--Strictly_Dub-(GMND004)-WEB-2013-BABAS
2022-03-21 21:43:32 MP3 Subjective_AKA_Goldie_and_James_Davidson--Breakout_feat._LaMeduza-WEB-2022-OMA
2022-03-21 21:44:55 MP3 Guy_King-Livin_It-WEB-2008-TERSE
2022-03-21 21:44:56 0DAY RecoveryTools.Thunderbird.Migrator.v7.1.Incl.Keygen-BTCR
2022-03-21 21:45:12 0DAY Cloanto.C64.Forever.9.v9.2.15.0.Plus.Edition-CRD
2022-03-21 21:45:18 TV-HD-DE Single.Drunk.Female.S01E01.GERMAN.DL.1080P.WEB.H264-WAYNE
2022-03-21 21:45:37 MP3 VA-Aki_Takase_Plays_Fats_Waller_at_Babylon_Berlin_(Live_Berlin_2009)-WEB-2020-OMA
2022-03-21 21:45:51 TV-HD-DE Single.Drunk.Female.S01E01.GERMAN.DL.HDR.2160P.WEB.H265-RiLE
2022-03-21 21:46:05 MP3 Jason_And_The_Scorchers-Midnight_Roads_And_Stages_Seen-2CD-1998-6DM
2022-03-21 21:46:15 0DAY RecoveryTools.DOCX.Migrator.v3.6.Incl.Keygen-BTCR
2022-03-21 21:47:24 0DAY Link-Assistant.Rank.Tracker.Entreprise.v8.42.Multilingual-NGEN
2022-03-21 21:47:53 0DAY The.Ambassadors.Coterie-DARKZER0
2022-03-21 21:47:59 0DAY Modern.CSV.v1.3.35.x86.Incl.Keygen-BTCR
2022-03-21 21:48:20 0DAY Cloanto.Amiga.Forever.9.v9.2.15.0.Plus.Edition-CRD
2022-03-21 21:48:27 0DAY Tetraface.Inc.Metasequoia.v4.8.2a.x64.Incl.Keygen-BTCR
2022-03-21 21:48:45 TV-X264 Would.I.Lie.To.You.AU.S01E04.1080p.HDTV.H264-CBFM
2022-03-21 21:48:54 0DAY Kaizen.Software.Vehicle.Manager.2022.Fleet.Network.Edition.v3.0.1012.0.Incl.Keygen-BTCR
2022-03-21 21:48:55 TV-X264 Would.I.Lie.To.You.AU.S01E04.720p.HDTV.x264-CBFM
2022-03-21 21:49:36 0DAY SAPIEN.PowerShell.HelpWriter.2022.v2.3.54.Incl.Keyfilemaker-BTCR
2022-03-21 21:50:21 MP3 Lazy_Sunday_Dream-Soulages-WEB-2001-TERSE
2022-03-21 21:52:23 MP3 The_Georgia_Satellites-Burning_At_Both_Ends_(Live_1987)-WEB-2021-TERSE
2022-03-21 21:52:46 MP3 The_Dickey_Betts_Band-Ramblin_Man_Live_At_The_St._George_Theatre-CD-2019-6DM
2022-03-21 21:53:08 TV-X264 Rydderevolusjonen.S01E05.NORWEGiAN.720p.HDTV.x264-NORPiLT
2022-03-21 21:53:44 MP3 The_Georgia_Satellites-Essentials-WEB-2002-TERSE_INT
2022-03-21 21:54:49 MP3 The_Gourds-Ghosts_Of_Hallelujah-CD-1999-6DM
2022-03-21 21:55:59 TV-HD-DE Single.Drunk.Female.S01E01.German.DL.720p.WEB.h264-WvF
2022-03-21 21:56:54 MP3 The_Gourds-Blood_Of_The_Ram-WEB-2005-TERSE_INT
2022-03-21 21:57:53 MP3 The_Gourds-Bolsa_de_Agua-WEB-2000-TERSE
2022-03-21 21:58:57 MP3 The_Gourds-Clear_Night-WEB-1996-TERSE
2022-03-21 22:00:03 MP3 The_Gourds-Coffee_And_Guitars_(Austin_Texas_Live_95)-WEB-2020-TERSE
2022-03-21 22:00:17 TV-HD-DE Single.Drunk.Female.S01E02.GERMAN.DL.1080P.WEB.H264-WAYNE
2022-03-21 22:00:59 TV-HD-DE Single.Drunk.Female.S01E03.GERMAN.DL.1080P.WEB.H264-WAYNE
2022-03-21 22:01:12 MP3 The_Guess_Who-New_Mother_Nature_Live_In_St_Louis_1974-Remastered-2CD-2016-6DM
2022-03-21 22:01:27 MP3 The_Gourds-Cow_Fish_Fowl_or_Pig-WEB-2001-TERSE
2022-03-21 22:01:42 TV-HD-DE Single.Drunk.Female.S01E04.GERMAN.DL.1080P.WEB.H264-WAYNE
2022-03-21 22:02:26 TV-HD-DE Single.Drunk.Female.S01E05.GERMAN.DL.1080P.WEB.H264-WAYNE
2022-03-21 22:03:09 TV-HD-DE Single.Drunk.Female.S01E06.GERMAN.DL.1080P.WEB.H264-WAYNE
2022-03-21 22:03:53 TV-HD-DE Single.Drunk.Female.S01E07.GERMAN.DL.1080P.WEB.H264-WAYNE
2022-03-21 22:04:35 TV-HD-DE Single.Drunk.Female.S01E08.GERMAN.DL.1080P.WEB.H264-WAYNE
2022-03-21 22:04:56 MP3 The_Gourds-Dems_Good_Beeble-WEB-1996-TERSE
2022-03-21 22:07:26 MP3 The_Gourds-Haymaker-WEB-2009-TERSE_INT
2022-03-21 22:07:35 TV-HD-DE Single.Drunk.Female.S01E02.GERMAN.DL.HDR.2160P.WEB.H265-RiLE
2022-03-21 22:08:17 TV-HD-DE Single.Drunk.Female.S01E03.GERMAN.DL.HDR.2160P.WEB.H265-RiLE
2022-03-21 22:09:02 TV-HD-DE Single.Drunk.Female.S01E04.GERMAN.DL.HDR.2160P.WEB.H265-RiLE
2022-03-21 22:09:45 TV-HD-DE Single.Drunk.Female.S01E05.GERMAN.DL.HDR.2160P.WEB.H265-RiLE
2022-03-21 22:10:18 MP3 The_Gourds-Heavy_Ornamentals-WEB-2006-TERSE_INT
2022-03-21 22:10:27 MP3 2Fast4U-Merry_Christmeth-EP-WEB-2022-FiH
2022-03-21 22:10:28 TV-HD-DE Single.Drunk.Female.S01E06.GERMAN.DL.HDR.2160P.WEB.H265-RiLE
2022-03-21 22:11:11 TV-HD-DE Single.Drunk.Female.S01E07.GERMAN.DL.HDR.2160P.WEB.H265-RiLE
2022-03-21 22:11:36 MP3 A_Beautiful_Somewhere-Everything_Im_Not-WEB-2022-FiH
2022-03-21 22:11:55 TV-HD-DE Single.Drunk.Female.S01E08.GERMAN.DL.HDR.2160P.WEB.H265-RiLE
2022-03-21 22:12:44 MP3 Adrenaline_Motors-Elements-WEB-2022-FiH
2022-03-21 22:12:50 TV-X264 City_Kids_Feel_The_Beat-Rockpalast_Offstage_(2022)-720p-x264-2022-SRP
2022-03-21 22:13:24 TV-X264 Charlie_Puth-Light_Switch_(Jimmy_Kimmel_Live_2022-03-17)-DDC-720p-h264-2022-SRPx
2022-03-21 22:13:51 MP3 Age_Of_Discord-4th_And_Hood-WEB-2022-FiH
2022-03-21 22:13:54 TV-X264 Ghost-Call_Me_Little_Sunshine_(Jimmy_Kimmel_Live_2022-03-16)-DDC-720p-x264-2022-SRP
2022-03-21 22:13:57 TV-HD-DE Wu-Tang.An.American.Saga.S02E05.GERMAN.1080P.WEB.H264-WAYNE
2022-03-21 22:14:24 MP3 The_Gourds-Noble_Creatures-WEB-2007-TERSE_INT
2022-03-21 22:14:27 MVID Mabel-Good_Luck_(The_Great_Comic_Relief_Prizathlon_2022)-DDC-1080p-x264-2022-SRPx
2022-03-21 22:14:58 MP3 Alarmsignal-Asthetik_Des_Widerstands-DE-WEB-2022-FiH
2022-03-21 22:15:39 MP3 The_Gourds-Old_Mad_Joy-WEB-2011-TERSE
2022-03-21 22:16:07 MP3 Alley_Badge-Graphic_Dreams_Simulator-EP-WEB-2022-FiH
2022-03-21 22:17:08 TV-X264 Tinashe-X_(Jimmy_Kimmel_Live_2022-03-15)-DDC-720p-h264-2022-SRPx
2022-03-21 22:17:10 MP3 The_Gourds-Shinebox-WEB-2001-TERSE_INT
2022-03-21 22:17:17 MP3 Annisokay-Aurora-Special_Edition-WEB-2022-FiH
2022-03-21 22:18:00 MP3 The_Gourds-Stadium_Blitzer-WEB-1998-TERSE
2022-03-21 22:18:02 MP3 Alicia_Hush--Dilly_Dally_EP-(CYN088)-WEB-2019-BABAS
2022-03-21 22:18:26 MP3 B.U.M.-The_Infected-WEB-2021-FiH
2022-03-21 22:18:27 MP3 Andrea_Fiorito--Absence_Of_Ego-(CYN089)-WEB-2019-BABAS
2022-03-21 22:18:53 MP3 Beyond_Sensory_Experience--Modern_Day_Diabolists-(46THCYCLE)-WEB-2012-BABAS
2022-03-21 22:19:20 MP3 Dreamtime--Farout-(SSR00011)-WEB-2009-BABAS
2022-03-21 22:19:35 MP3 Bakrus-Lover_Ingenting-NO-WEB-2021-FiH
2022-03-21 22:19:45 MP3 Guillermo_Mirando_x_Mike_Shannon--Dragones_Y_Otras_Cosas-(CYN098)-WEB-2019-BABAS
2022-03-21 22:20:11 MP3 Mike_Shannon--Focal_Point_V-(CYN090)-WEB-2018-BABAS
2022-03-21 22:20:12 MP3 The_Guess_Who-American_Woman_(Expanded_Edition)-WEB-1970-TERSE
2022-03-21 22:20:37 MP3 Mike_Shannon--Galactic_Lensing-(CYN095)-WEB-2019-BABAS
2022-03-21 22:20:45 MP3 Banda_Insanidade-Hardcore_E_Lindo-PT-WEB-2022-FiH
2022-03-21 22:21:03 MP3 Mike_Shannon--Nova_In_The_Sun_EP-(CYN087)-WEB-2020-BABAS
2022-03-21 22:21:31 MP3 Mike_Shannon_x_Lee_Jones--Gravitron-(CYN099)-WEB-2020-BABAS
2022-03-21 22:21:53 MP3 Banda_Insanidade-Hardcore_E_Lindo_Vol._2-PT-WEB-2022-FiH
2022-03-21 22:21:55 MP3 Synthesis--Galaxy_Fighters-(SSR00026)-WEB-2012-BABAS
2022-03-21 22:22:21 MP3 VA-The_Focal_Point-(CYN038)-WEB-2009-BABAS
2022-03-21 22:22:52 MP3 The_Guess_Who-Anthology-WEB-2003-TERSE_INT
2022-03-21 22:23:02 MP3 Bastards-A_Tort_I_A_Dret-WEB-2021-FiH
2022-03-21 22:24:11 MP3 Bedlam-Final_Bedlam-Millennium_Edition-WEB-2021-FiH
2022-03-21 22:24:33 TV-HD-DE Single.Drunk.Female.S01E02.German.DL.720p.WEB.h264-WvF
2022-03-21 22:24:40 MP3 The_Guess_Who-Live_In_75_(Live_Winnipeg_Canada_1975)-WEB-2018-TERSE_INT
2022-03-21 22:25:19 MP3 Bigby_Woods-Here_Goes_Nothing-EP-WEB-2022-FiH
2022-03-21 22:25:29 TV-HD-DE Single.Drunk.Female.S01E03.German.DL.720p.WEB.h264-WvF
2022-03-21 22:26:14 MP3 The_Guess_Who-Share_The_Land-WEB-2000-TERSE_INT
2022-03-21 22:26:23 TV-HD-DE Single.Drunk.Female.S01E04.German.DL.720p.WEB.h264-WvF
2022-03-21 22:26:26 MP3 Brainless_Network-Cranberrys_Feel_Is_Forever-WEB-2021-FiH
2022-03-21 22:27:25 TV-HD-DE Single.Drunk.Female.S01E05.German.DL.720p.WEB.h264-WvF
2022-03-21 22:27:34 MP3 C.F.T.C.-Another_Round-WEB-2022-FiH
2022-03-21 22:27:46 MP3 The_Texas_Tornado-Get_a_Life-WEB-2001-TERSE
2022-03-21 22:28:17 TV-HD-DE Single.Drunk.Female.S01E06.German.DL.720p.WEB.h264-WvF
2022-03-21 22:28:41 MP3 Carridale-Timelines-WEB-2022-FiH
2022-03-21 22:29:02 TV-HD-DE Single.Drunk.Female.S01E07.German.DL.720p.WEB.h264-WvF
2022-03-21 22:29:18 FLAC Stonegriff-Prologus_Magicus-CD-FLAC-2013-ERP
2022-03-21 22:29:47 TV-HD-DE Single.Drunk.Female.S01E08.German.DL.720p.WEB.h264-WvF
2022-03-21 22:29:50 MP3 College_Radio-Survival_Guide-EP-WEB-2022-FiH
2022-03-21 22:30:09 XXX BrutalSessions.22.03.19.Lily.Lane.XXX.1080p.MP4-MiSTRESS
2022-03-21 22:30:59 MP3 Cryogenics-Dont_Give_A_Fuck-WEB-2021-FiH
2022-03-21 22:32:06 MP3 DEALL-Decal-WEB-2022-FiH
2022-03-21 22:33:14 MP3 Dead_Nomads-Demo_Years-WEB-2021-FiH
2022-03-21 22:33:23 MP3 The_Guess_Who-The_Ultimate_Collection-WEB-1997-TERSE
2022-03-21 22:34:22 MP3 Death_Spiral-Tyranny_Of_Tradition-EP-WEB-2022-FiH
2022-03-21 22:35:30 MP3 Deep_Shining_High-Guided_By_The_Blues-WEB-2022-FiH
2022-03-21 22:35:36 MP3 Antinomy-Signs_Of_Light-(IBOGADIGITAL753)-SINGLE-WEB-2022-FALCON
2022-03-21 22:35:49 MP3 Avalon_And_Stryker-Africa-(DM7040)-SINGLE-WEB-2022-FALCON
2022-03-21 22:36:00 MP3 Bninjas-Drinks_On_Me-(SVR91)-WEB-2018-FALCON
2022-03-21 22:36:13 MP3 Cyril_Cellar_And_Enharmor-Thypoon-(YAVRD72)-SINGLE-WEB-2022-FALCON
2022-03-21 22:36:26 MP3 David_Caetano-I_Know-(PBR011)-WEB-2016-FALCON
2022-03-21 22:36:36 MP3 Demand_Less-Micromanage-WEB-2022-FiH
2022-03-21 22:36:38 MP3 David_Caetano-What_Is_Love-(CHR185)-WEB-2018-FALCON
2022-03-21 22:36:52 MP3 Deep_Code-High_Vibe-(DMF013)-WEB-2020-FALCON
2022-03-21 22:37:04 MP3 Deep_Code-Holding_Hands-(ZLB021)-SINGLE-WEB-2015-FALCON
2022-03-21 22:37:15 MP3 Deep_Code-In_Love_With_You-(ZLB036)-WEB-2016-FALCON
2022-03-21 22:37:29 MP3 Deep_Code-My_Moments-(DEEPS006)-WEB-2016-FALCON
2022-03-21 22:37:41 MP3 Deep_Code-The_Arrival-(DMF010)-WEB-2019-FALCON
2022-03-21 22:37:44 MP3 Dogs_In_The_Fight-Freedom_At_Gunpoint-WEB-2022-FiH
2022-03-21 22:37:46 APPS Packt.120.Quick.Stata.Tips-XQZT
2022-03-21 22:37:54 MP3 Deep_Code-The_Dome-(BATREC006)-WEB-2017-FALCON
2022-03-21 22:38:06 MP3 Lacerta-One_Way_Ticket-(FDREP47)-WEB-2022-FALCON
2022-03-21 22:38:19 MP3 Leaconscious-The_Limbic_System-(GEOEP373)-WEB-2022-FALCON
2022-03-21 22:38:31 MP3 Pavlidizandsopheary-Blossom_Sergiy_Akinshin_Remix-(4056813134131)-SINGLE-WEB-2019-FALCON
2022-03-21 22:38:36 PRE Packt.Git.Essentials.for.Beginners-XQZT
2022-03-21 22:38:45 MP3 Phasen-The_Formula-(LPT015)-WEB-2015-FALCON
2022-03-21 22:38:54 MP3 Drunken_Fighters-Someday-WEB-2022-FiH
2022-03-21 22:38:56 MP3 Sergiy_Akinshin-Atmospheres_Of_Crimea-(NS764)-SINGLE-WEB-2019-FALCON
2022-03-21 22:39:08 MP3 Sergiy_Akinshin-Colours_Of_Autumn-(GRVV0800)-SINGLE-WEB-2019-FALCON
2022-03-21 22:39:20 MP3 Sergiy_Akinshin-In_The_Dreams-(GRVV0522)-SINGLE-WEB-2018-FALCON
2022-03-21 22:39:32 MP3 Sergiy_Akinshin-Parallel_Universes-(NS854)-SINGLE-WEB-2020-FALCON
2022-03-21 22:39:44 MP3 Sergiy_Akinshin-Rainseeker-(UNLTD2002)-SINGLE-WEB-2020-FALCON
2022-03-21 22:39:56 MP3 Two-S-Live_It_Up-(DCM034)-WEB-2017-FALCON
2022-03-21 22:40:03 MP3 Dungeon_Days-Dungeon_Days_2-WEB-2021-FiH
2022-03-21 22:40:10 MP3 VA-Altered_Frequencies_Vol_1-(DMF001)-WEB-2017-FALCON
2022-03-21 22:40:24 MP3 VA-Come_Back_To_My_House-(NIGHTTR011)-WEB-2021-FALCON
2022-03-21 22:40:38 MP3 Vincenzo_De_Robertis-Come_On-(ZLB019)-WEB-2015-FALCON
2022-03-21 22:41:12 MP3 Eightfold_Path-Divinity_In_Suffering-EP-WEB-2022-FiH
2022-03-21 22:42:17 MP3 En_Diskordia-Patrias_Y_Banderas-WEB-2021-FiH
2022-03-21 22:43:27 MP3 Endstation_Chaos-Was_Freiheit_Zahlt-DE-WEB-2021-FiH
2022-03-21 22:44:38 MP3 Evolz-Evoluzion-ES-WEB-2020-FiH
2022-03-21 22:45:46 MP3 Felices_Adicciones-La_Ultima_Fiesta_Gorda-ES-WEB-2021-FiH
2022-03-21 22:46:53 MP3 Fighting_Chance-Things_That_Set_Us_Free-WEB-2022-FiH
2022-03-21 22:48:03 MP3 Firedown-Painted_In_Red-WEB-2021-FiH
2022-03-21 22:49:09 MP3 Fixed_Fight-Antebellum-WEB-2022-FiH
2022-03-21 22:50:19 MP3 Free_The_Witness-Deliverance-WEB-2022-FiH
2022-03-21 22:51:27 MP3 Gambas_Kon_Fimosis-Rallas_Bravas-ES-EP-WEB-2022-FiH
2022-03-21 22:52:16 MP3 Stoked-Your_Mind-SA148-WEB-2022-WAV
2022-03-21 22:52:33 MP3 Guitar_Gangsters-Fortune_Favours_The_Brave-WEB-2022-FiH
2022-03-21 22:52:47 MP3 Thomas_Labermair-Daphnis-IAMTRED091-SINGLE-WEB-2022-WAV
2022-03-21 22:53:43 MP3 Happy_Three_Friends-Sanib_At_Pwersa-PH-WEB-2022-FiH
2022-03-21 22:55:05 MP3 Hazard_Pilots-Stream_No_Evil-WEB-2021-FiH
2022-03-21 22:55:58 MP3 Heartbent-Poser_Party-EP-WEB-2021-FiH
2022-03-21 22:57:05 MP3 Heartlistener-Perspectives-WEB-2022-FiH
2022-03-21 22:58:13 MP3 Hey_Radio-Bangers-WEB-2022-FiH
2022-03-21 22:59:22 MP3 High_Wire-Find_Me_Here_Pt._1-EP-WEB-2021-FiH
2022-03-21 22:59:26 FLAC King_Prawn-The_Fabulous_New_Sounds_Of...-(CDBRED753)-CD-FLAC-2019-MUNDANE
2022-03-21 23:00:30 MP3 Kaleko_Urdangak-Bizirik-ES-WEB-2021-FiH
2022-03-21 23:01:16 MP3 King_Prawn-The_Fabulous_New_Sounds_Of...-(CDBRED753)-CD-2019-VULGAR
2022-03-21 23:01:37 MP3 Kaos_Urbano-Euforia-ES-WEB-2022-FiH
2022-03-21 23:02:47 MP3 Kaotiko-Sin_Filtro-ES-WEB-2022-FiH
2022-03-21 23:03:54 MP3 Koniec_Swiata-Durny-PL-WEB-2021-FiH
2022-03-21 23:05:01 MP3 Kronkorken-Der_Lack_Muss_Ab-DE-EP-WEB-2022-FiH
2022-03-21 23:05:30 TV-HD-DE Candice.Renoir.S07E02.German.720p.WebHD.h264-FKKTV
2022-03-21 23:06:09 TV-HD-DE Candice.Renoir.S07E03.German.720p.WebHD.h264-FKKTV
2022-03-21 23:06:10 MP3 LAs_Forgotten-LAs_Forgotten-WEB-2022-FiH
2022-03-21 23:06:46 TV-HD-DE Candice.Renoir.S07E04.German.720p.WebHD.h264-FKKTV
2022-03-21 23:07:18 MP3 La_Murdock-Sin_Resurreccion-ES-WEB-2021-FiH
2022-03-21 23:07:24 TV-HD-DE Candice.Renoir.S07E05.German.720p.WebHD.h264-FKKTV
2022-03-21 23:08:02 TV-HD-DE Candice.Renoir.S07E06.German.720p.WebHD.h264-FKKTV
2022-03-21 23:08:26 MP3 La_Rabia-La_Rabia-ES-WEB-2022-FiH
2022-03-21 23:08:39 TV-HD-DE Candice.Renoir.S07E07.German.720p.WebHD.h264-FKKTV
2022-03-21 23:09:16 TV-HD-DE Candice.Renoir.S07E08.German.720p.WebHD.h264-FKKTV
2022-03-21 23:09:35 MP3 Last_Night_Saved_My_Life-The_Color_Infinite_Pt._1-WEB-2021-FiH
2022-03-21 23:09:55 TV-HD-DE Candice.Renoir.S07E09.German.720p.WebHD.h264-FKKTV
2022-03-21 23:10:30 TV-HD-DE Zeiglers.wunderbare.Welt.des.Fussballs.2022-03-20.GERMAN.720p.WebHD.h264-WYS
2022-03-21 23:10:31 TV-HD-DE Candice.Renoir.S07E10.German.720p.WebHD.h264-FKKTV
2022-03-21 23:10:42 MP3 Let_Me_In-Welcome_Home-EP-WEB-2021-FiH
2022-03-21 23:11:50 MP3 Local_Violence-Good_Enough-WEB-2021-FiH
2022-03-21 23:11:54 TV-HD-DE STRESS.E01.Warum.die.mentale.Belastung.steigt.GERMAN.DOKU.720p.WebHD.h264-WYS
2022-03-21 23:12:23 TV-HD-DE STRESS.E02.Warum.Stress.manche.besonders.trifft.GERMAN.DOKU.720p.WebHD.h264-WYS
2022-03-21 23:12:54 TV-HD-FR Single.Drunk.Female.S01E02.FRENCH.720p.WEB.H264-AVON
2022-03-21 23:12:55 TV-HD-DE STRESS.E03.Was.wirklich.gegen.Stress.hilft.GERMAN.DOKU.720p.WebHD.h264-WYS
2022-03-21 23:12:58 MP3 Manni-Niete-DE-WEB-2021-FiH
2022-03-21 23:13:27 TV-HD-DE Verurteilt.im.Netz.E01.Der.Fall.Luke.Mockridge.GERMAN.DOKU.720p.WebHD.h264-WYS
2022-03-21 23:13:57 TV-HD-DE Verurteilt.im.Netz.E02.Der.Fall.Nemi.El-Hassan.GERMAN.DOKU.720p.WebHD.h264-WYS
2022-03-21 23:14:06 MP3 Martens_Army-Ode_An_Die_Freunde-DE-EP-WEB-2021-FiH
2022-03-21 23:14:29 TV-HD-DE Verurteilt.im.Netz.E03.Der.Fall.Gil.Ofarim.GERMAN.DOKU.720p.WebHD.h264-WYS
2022-03-21 23:15:42 TV-SD-FR Single.Drunk.Female.S01E01.FRENCH.WEB.H264-AVON
2022-03-21 23:16:03 TV-HD-DE Seattle.Firefighters.Die.jungen.Helden.S05E02.German.DL.720p.WEB.h264-WvF
2022-03-21 23:16:08 MP3 Missing_Fingers-One_Mans_Trash-WEB-2022-FiH
2022-03-21 23:16:22 MP3 Mister_X-Worst_In_Ex-USSR_Since_2003-WEB-2022-FiH
2022-03-21 23:16:34 TV-HD-FR Single.Drunk.Female.S01E01.FRENCH.720p.WEB.H264-AVON
2022-03-21 23:16:37 TV-X264 90.Day.Fiance.Before.the.90.Days.S05E14.Disappearing.Act.720p.WEBRip.x264-KOMPOST
2022-03-21 23:16:50 TV-HD-DE Riverdale.S06E06.German.DL.720p.WEB.x264-WvF
2022-03-21 23:16:56 MP3 Nachbardach-Dachschaden-DE-EP-WEB-2022-FiH
2022-03-21 23:16:59 TV-X264 90.Day.Fiance.Pillow.Talk.S13E14.Before.the.90.Days.Disappearing.Act.720p.WEBRip.x264-KOMPOST
2022-03-21 23:17:20 TV-X264 Evil.Lives.Here.S11E05.He.Was.a.False.Prophet.720p.WEBRip.x264-KOMPOST
2022-03-21 23:17:30 TV-HD-FR Single.Drunk.Female.S01E03.FRENCH.720p.WEB.H264-AVON
2022-03-21 23:17:30 MP3 Nautical_Mile-Embers-EP-WEB-2021-FiH
2022-03-21 23:17:42 TV-X264 Evil.Lives.Here.S11E05.He.Was.a.False.Prophet.1080p.WEBRip.x264-KOMPOST
2022-03-21 23:17:55 TV-HD-DE Outlander.S06E03.German.DL.720p.WEB.x264-WvF
2022-03-21 23:18:02 TV-X264 Expedition.Bigfoot.S03E00.New.Evidence.720p.WEBRip.x264-KOMPOST
2022-03-21 23:18:07 MP3 Nervios_Rotos-Defensa_Sonora-ES-WEB-2022-FiH
2022-03-21 23:18:25 TV-X264 Expedition.Bigfoot.S03E01.Strange.Returns.720p.WEBRip.x264-KOMPOST
2022-03-21 23:18:41 MP3 Nowhere_Fast-Nowhere_Fast-WEB-2022-FiH
2022-03-21 23:18:45 TV-X264 Kandi.and.the.Gang.S01E03.Rowdy.Employees.and.Uptight.Managers.720p.WEBRip.X264-KOMPOST
2022-03-21 23:19:07 TV-X264 Tournament.of.Champions.S03E04.The.End.of.Round.1.720p.WEBRip.x264-KOMPOST
2022-03-21 23:19:22 MP3 Nuke_And_The_Nightshift-Clockin_In-WEB-2021-FiH
2022-03-21 23:19:50 TV-HD-FR Single.Drunk.Female.S01E05.FRENCH.720p.WEB.H264-AVON
2022-03-21 23:19:54 MP3 O_Leopardo-Mundo_Selvagem-WEB-2021-FiH
2022-03-21 23:20:28 MP3 Obscene_Revenge-Terror_To_Distract-EP-WEB-2022-FiH
2022-03-21 23:21:02 MP3 Odpisani-Rebirth-EP-WEB-2021-FiH
2022-03-21 23:21:37 MP3 Oferta_Especial-Cuando_El_Sabio_Senala_La_Luna-ES-WEB-2021-FiH
2022-03-21 23:22:13 MP3 Original_Son-Currents-WEB-2022-FiH
2022-03-21 23:22:46 MP3 Passionflower-To_Bloom_Is_To_Grow-WEB-2021-FiH
2022-03-21 23:23:00 TV-HD-DE Outlander.S06E03.GERMAN.DL.1080P.WEB.X264-WAYNE
2022-03-21 23:23:12 TV-SD-FR Single.Drunk.Female.S01E02.FRENCH.WEB.H264-AVON
2022-03-21 23:23:23 MP3 Positive_Violence-No_Such_Thing-WEB-2022-FiH
2022-03-21 23:23:36 XXX BurningAngel.21.02.17.Joanna.Angel.and.Adira.Allure.Joanna.Angels.Dungeon.Furniture.Emporium.Episode.1.XXX.2160p.MP4-Narcos
2022-03-21 23:23:57 MP3 Projet_86-KBG-WEB-2022-FiH
2022-03-21 23:24:31 MP3 Proven_Alive-Everything_Is_Wonderful-WEB-2022-FiH
2022-03-21 23:25:05 MP3 Psychisch_Instabil-Unpolitisch_Macht_Hirntot-DE-WEB-2021-FiH
2022-03-21 23:25:16 EBOOK UDEMY.How.to.get.a.Job.in.IT.BOOKWARE-iLEARN
2022-03-21 23:25:39 MP3 Radio_Chip_Pan-Nonsense-EP-WEB-2022-FiH
2022-03-21 23:25:40 XXX BurningAngel.21.03.03.Jessie.Lee.Joanna.Angels.Dungeon.Furniture.Emporium.Episode.2.XXX.2160p.MP4-Narcos
2022-03-21 23:26:13 MP3 Rapatapunk-Metralla-ES-WEB-2021-FiH
2022-03-21 23:26:48 MP3 Reckless_Threat-Paradise_End-EP-WEB-2022-FiH
2022-03-21 23:27:21 MP3 Redeemon-Redeemon-EP-WEB-2022-FiH
2022-03-21 23:27:42 XXX BurningAngel.21.03.17.Gia.Derza.and.Brooklyn.Gray.Joanna.Angels.Dungeon.Furniture.Emporium.Episode.3.XXX.2160p.MP4-Narcos
2022-03-21 23:27:55 MP3 Redound-Thru_Adversity-WEB-2021-FiH
2022-03-21 23:28:20 TV-SD-FR Single.Drunk.Female.S01E03.FRENCH.WEB.H264-AVON
2022-03-21 23:28:28 MP3 Remark-The_New_Era-WEB-2021-FiH
2022-03-21 23:29:03 MP3 Remy_Verreault-Good_Old_Days-WEB-2021-FiH
2022-03-21 23:29:36 MP3 Right_On_Kid-Life_Is_A_Movie-WEB-2021-FiH
2022-03-21 23:29:45 XXX BurningAngel.21.03.31.Joanna.Angel.Joanna.Angels.Dungeon.Furniture.Emporium.Episode.4.XXX.2160p.MP4-Narcos
2022-03-21 23:30:10 MP3 Russian_Tim_And_Pavel_Bures-Something_More_In_Russian-WEB-2021-FiH
2022-03-21 23:30:43 MP3 Sendeschluss-In_The_Sign_Of_Esel-DE-WEB-2022-FiH
2022-03-21 23:31:17 MP3 Senseless-Senseless-EP-WEB-2021-FiH
2022-03-21 23:31:48 XXX BurningAngel.21.05.31.Aubrey.Kate.Succubus.Part.1.XXX.2160p.MP4-Narcos
2022-03-21 23:31:51 MP3 Skism-Capital_Lies-WEB-2022-FiH
2022-03-21 23:32:24 MP3 Snotty_Cheekbones-Avanti-WEB-2021-FiH
2022-03-21 23:32:42 GAMES The_House_in_Fata_Morgana_Dreams_of_the_Revenants_Edition_NSW-SUXXORS
2022-03-21 23:32:59 MP3 Sofokaos-Errealitatearen_Beste_Aurpegia-ES-WEB-2022-FiH
2022-03-21 23:33:35 MP3 Sorted_Scoundrels-Cause_And_Solution-WEB-2022-FiH
2022-03-21 23:33:50 XXX BurningAngel.21.06.13.Joanna.Angel.Succubus.Part.2.XXX.2160p.MP4-Narcos
2022-03-21 23:34:12 MP3 South_Berkeley-Too_Slow-WEB-2021-FiH
2022-03-21 23:34:45 MP3 Stalingrad_42-SkinsnPunks-WEB-2021-FiH
2022-03-21 23:35:21 MP3 Still_Awake-No_Exit-WEB-2022-FiH
2022-03-21 23:35:52 XXX BurningAngel.21.06.28.Jane.Wilde.Succubus.Part.3.XXX.2160p.MP4-Narcos
2022-03-21 23:35:56 MP3 Struck_Luck-No_Way_Out-WEB-2022-FiH
2022-03-21 23:36:22 TV-X264 Freeze.Back.on.Thin.Ice.S01E01.1080p.HDTV.H264-DARKFLiX
2022-03-21 23:36:30 MP3 Suolitappi-Tappi_On_Rasvattu-FI-WEB-2021-FiH
2022-03-21 23:37:03 MP3 T-Rex_Squad-Alladeriva-IT-EP-WEB-2021-FiH
2022-03-21 23:37:16 TV-HD Grand.Sumo.Highlights.2022.Haru.Basho.Day.09.1080p.HDTV.H264-DARKSPORT
2022-03-21 23:37:35 TV-HD-DE 18.plus.Deutschland.-.Was.junge.Menschen.bewegt.GERMAN.DOKU.1080p.WEB.x264-TVKNOW
2022-03-21 23:37:37 MP3 Terminally_Dumb-Terminally_Dumb-EP-WEB-2022-FiH
2022-03-21 23:37:55 XXX BurningAngel.21.07.11.Aubrey.Kate.Succubus.Part.4.XXX.1080p.MP4-Narcos
2022-03-21 23:38:00 TV-X264 Sahara.1983.GERMAN.720p.BluRay.x264-UNiVERSUM
2022-03-21 23:38:08 TV-X264 Police.Night.Shift.999.S01E06.1080p.HDTV.H264-DARKFLiX
2022-03-21 23:38:11 MP3 The_Braces-Situations-EP-WEB-2022-FiH
2022-03-21 23:38:15 TV-HD-DE 18.plus.Deutschland.-.Was.junge.Menschen.bewegt.GERMAN.DOKU.720p.WEBRip.x264-TVKNOW
2022-03-21 23:38:44 MP3 The_Crazy_Rogues-Advanced_Roguery-WEB-2021-FiH
2022-03-21 23:38:45 X264-HD-DE Sahara.1983.GERMAN.DL.1080p.BluRay.AVC-iTSMEMARiO
2022-03-21 23:38:55 TV-X264 The.Drop.S01E02.1080p.HDTV.H264-DARKFLiX
2022-03-21 23:38:55 TV-SD-DE 18.plus.Deutschland.-.Was.junge.Menschen.bewegt.GERMAN.DOKU.WEBRip.x264-TVKNOW
2022-03-21 23:39:19 MP3 The_Cryptics-Paintstroke-WEB-2021-FiH
2022-03-21 23:39:31 TV-HD Sahara.1983.GERMAN.DL.1080p.BluRay.x264-UNiVERSUM
2022-03-21 23:39:33 DVDR Koenig.der.Raben.German.2020.COMPLETE.PAL.DVD9-HiGHLiGHT
2022-03-21 23:39:53 MP3 The_Disables-No_More_Rulers_No_More_Ruled-WEB-2022-FiH
2022-03-21 23:40:01 XXX BurningAngel.21.07.11.Aubrey.Kate.Succubus.Part.4.XXX.2160p.MP4-Narcos
2022-03-21 23:40:14 BLURAY Sahara.1983.MULTi.COMPLETE.BLURAY-iTWASNTME
2022-03-21 23:40:28 MP3 The_Dollyrots-Down_The_Rabbit_Hole-WEB-2022-FiH
2022-03-21 23:40:49 TV-HD-DE ZDFHistory.-.Hoeher.weiter.extremer.-.Pioniere.und.Abenteurer.GERMAN.DOKU.720p.WEB.x264-TVKNOW
2022-03-21 23:41:03 MP3 The_Epidemic-Tales_Of_The_Body_Thief-WEB-2021-FiH
2022-03-21 23:41:04 X264-SD-DE Sahara.GERMAN.1983.AC3.BDRip.x264-UNiVERSUM
2022-03-21 23:41:14 TV-X264 Aasted.Norge.S13E06.NORWEGiAN.720p.HDTV.x264-NORPiLT
2022-03-21 23:41:31 TV-SD-DE ZDFHistory.-.Hoeher.weiter.extremer.-.Pioniere.und.Abenteurer.GERMAN.DOKU.WEBRip.x264-TVKNOW
2022-03-21 23:41:36 MP3 The_Gelugugu-Coleslaw-EP-WEB-2022-FiH
2022-03-21 23:42:10 MP3 The_Jena_System-Fascinistas-WEB-2021-FiH
2022-03-21 23:42:44 MP3 The_Lemurs-Live_From_Julies_Hair_Salon-WEB-2022-FiH
2022-03-21 23:43:17 MP3 The_Outlourdes-Up_From_The_Earth-EP-WEB-2022-FiH
2022-03-21 23:43:52 MP3 The_Prowlers-Prowl_Around-WEB-2022-FiH
2022-03-21 23:43:54 TV-HD Killed.By.A.Rich.Kid.2022.1080p.HDTV.H264-DEADPOOL
2022-03-21 23:44:12 TV-HD Peaky.Blinders.S06E04.HLG.2160p.WEB.H265-GLHF
2022-03-21 23:44:14 TV-HD-DE ZDFinfo.-.Wie.sexistisch.ist.Deutschland.Frauenbild.Klischees.und.metoo.GERMAN.DOKU.720p.WEB.x264-TVKNOW
2022-03-21 23:44:25 MP3 The_Ramonas-Haphazard-WEB-2021-FiH
2022-03-21 23:45:00 MP3 The_Taj_Motel_Trio-Fossil_Record-WEB-2022-FiH
2022-03-21 23:45:33 MP3 The_Volatiles-Fuck_All_Punk_Rockers..._And_Friends-WEB-2021-FiH
2022-03-21 23:46:06 MP3 Tiskismiskis-Buscando_Morfina-ES-WEB-2022-FiH
2022-03-21 23:46:19 TV-HD-DE ZDFzeit.-.Ein.Tag.im.August.-.Mauerbau.61.GERMAN.DOKU.720p.WEB.x264-TVKNOW
2022-03-21 23:46:41 MP3 Ukraina-Tempus_Transit-PL-WEB-2021-FiH
2022-03-21 23:47:05 TV-HD-DE ZDFinfo.Aerger.mit.der.Rente.Ist.Riester.noch.zu.retten.GERMAN.DOKU.720p.WEB.x264-TVKNOW
2022-03-21 23:47:13 MP3 Under_The_Cosh-Better_Late_Than_Never-WEB-2022-FiH
2022-03-21 23:47:47 MP3 Vacant_Skies-Circa_18-EP-WEB-2022-FiH
2022-03-21 23:47:51 TV-SD-DE ZDFinfo.-.Wie.sexistisch.ist.Deutschland.Frauenbild.Klischees.und.metoo.GERMAN.DOKU.WEBRip.x264-TVKNOW
2022-03-21 23:48:19 MP3 Viboras-Eternal-WEB-2021-FiH
2022-03-21 23:48:35 TV-SD-DE ZDFinfo.Aerger.mit.der.Rente.Ist.Riester.noch.zu.retten.GERMAN.DOKU.WEBRip.x264-TVKNOW
2022-03-21 23:49:21 COVERS We_Are_Wasted-Under_The_Covers-WEB-2021-FiH
2022-03-21 23:50:25 MP3 We_The_Riot-Head_On_Collision-WEB-2022-FiH
2022-03-21 23:51:29 MP3 Wes_Hoffman-For_What_Its_Worth-EP-WEB-2021-FiH
2022-03-21 23:52:30 TV-X264 Killed.by.a.Rich.Kid.2022.1080p.HDTV.H264-DARKFLiX
2022-03-21 23:53:33 TV-X264 Alex.og.Aune.S02E17.NORWEGiAN.720p.HDTV.x264-SKRiTT
2022-03-21 23:54:40 TV-X264 Folkevalgt.2022.S01E04.NORWEGiAN.720p.HDTV.x264-SKRiTT
2022-03-21 23:55:11 MP3 DJ_Smerk-Smerk_Out_Mix_(SiriusXM)-SAT-20-03-2022-1KING
2022-03-21 23:56:13 TV-X264 Camp.Kulinaris.S05E22.NORWEGiAN.720p.HDTV.x264-NORPiLT
2022-03-21 23:57:17 MP3 DJ_Impakt-Astra_on_Air_(SiriusXM)-SAT-20-03-2022-1KING
2022-03-21 23:58:50 1001.Jigsaw.Cute.Cats-RAZOR
2022-03-21 23:59:23 0DAY TEKLA.STRUCTURES.V2022-LND
2022-03-21 23:59:36 TV-X264 NCIS.Hawaii.S01E17.720p.HDTV.x264-SYNCOPY
2022-03-21 23:59:55 X264 Aileen.Wuornos.American.Boogeywoman.2021.MULTi.COMPLETE.BLURAY-MONUMENT